<?xml version="1.0" encoding="UTF-8" standalone="no" ?>
<gpx xmlns="http://www.topografix.com/GPX/1/1" xmlns:xsi="http://www.w3.org/2001/XMLSchema-instance" xsi:schemaLocation="http://www.topografix.com/GPX/1/1 http://www.topografix.com/GPX/1/1/gpx.xsd" version="1.1" creator="VisuGPX - https://www.visugpx.com">
  <metadata>
    <name>croix thevenod</name>
  </metadata>
  <trk>
    <name><![CDATA[croix thevenod_1]]></name>
    <trkseg>
      <trkpt lat="46.0477" lon="6.77979">
        <ele>1034.6</ele>
        <time>2021-01-08T07:09:15Z</time>
      </trkpt>
      <trkpt lat="46.04774" lon="6.77983">
        <ele>1034.7</ele>
        <time>2021-01-08T07:09:46Z</time>
      </trkpt>
      <trkpt lat="46.04778" lon="6.77984">
        <ele>1035.5</ele>
        <time>2021-01-08T07:09:54Z</time>
      </trkpt>
      <trkpt lat="46.04779" lon="6.77983">
        <ele>1036.2</ele>
        <time>2021-01-08T07:10:39Z</time>
      </trkpt>
      <trkpt lat="46.04781" lon="6.77975">
        <ele>1036.3</ele>
        <time>2021-01-08T07:10:44Z</time>
      </trkpt>
      <trkpt lat="46.04782" lon="6.77981">
        <ele>1036.4</ele>
        <time>2021-01-08T07:11:13Z</time>
      </trkpt>
      <trkpt lat="46.04778" lon="6.77985">
        <ele>1036.4</ele>
        <time>2021-01-08T07:11:18Z</time>
      </trkpt>
      <trkpt lat="46.04775" lon="6.77991">
        <ele>1036.6</ele>
        <time>2021-01-08T07:11:26Z</time>
      </trkpt>
      <trkpt lat="46.04777" lon="6.77995">
        <ele>1036.9</ele>
        <time>2021-01-08T07:11:32Z</time>
      </trkpt>
      <trkpt lat="46.04779" lon="6.78001">
        <ele>1037.5</ele>
        <time>2021-01-08T07:11:38Z</time>
      </trkpt>
      <trkpt lat="46.04776" lon="6.78005">
        <ele>1038</ele>
        <time>2021-01-08T07:11:47Z</time>
      </trkpt>
      <trkpt lat="46.04772" lon="6.78004">
        <ele>1038.8</ele>
        <time>2021-01-08T07:11:56Z</time>
      </trkpt>
      <trkpt lat="46.04769" lon="6.78">
        <ele>1039.2</ele>
        <time>2021-01-08T07:12:00Z</time>
      </trkpt>
      <trkpt lat="46.04767" lon="6.77995">
        <ele>1039.6</ele>
        <time>2021-01-08T07:12:05Z</time>
      </trkpt>
      <trkpt lat="46.04763" lon="6.77995">
        <ele>1039.6</ele>
        <time>2021-01-08T07:12:11Z</time>
      </trkpt>
      <trkpt lat="46.04762" lon="6.78001">
        <ele>1039.9</ele>
        <time>2021-01-08T07:12:17Z</time>
      </trkpt>
      <trkpt lat="46.04761" lon="6.78007">
        <ele>1040.2</ele>
        <time>2021-01-08T07:12:23Z</time>
      </trkpt>
      <trkpt lat="46.04757" lon="6.78007">
        <ele>1040.5</ele>
        <time>2021-01-08T07:12:33Z</time>
      </trkpt>
      <trkpt lat="46.04754" lon="6.78005">
        <ele>1041.7</ele>
        <time>2021-01-08T07:12:41Z</time>
      </trkpt>
      <trkpt lat="46.04749" lon="6.77999">
        <ele>1043.4</ele>
        <time>2021-01-08T07:12:46Z</time>
      </trkpt>
      <trkpt lat="46.04749" lon="6.77995">
        <ele>1044</ele>
        <time>2021-01-08T07:13:06Z</time>
      </trkpt>
      <trkpt lat="46.0475" lon="6.78007">
        <ele>1046.1</ele>
        <time>2021-01-08T07:13:11Z</time>
      </trkpt>
      <trkpt lat="46.0475" lon="6.78013">
        <ele>1046.2</ele>
        <time>2021-01-08T07:13:16Z</time>
      </trkpt>
      <trkpt lat="46.04751" lon="6.78019">
        <ele>1047.4</ele>
        <time>2021-01-08T07:13:23Z</time>
      </trkpt>
      <trkpt lat="46.04751" lon="6.78025">
        <ele>1048.4</ele>
        <time>2021-01-08T07:13:28Z</time>
      </trkpt>
      <trkpt lat="46.04752" lon="6.78031">
        <ele>1049.3</ele>
        <time>2021-01-08T07:13:35Z</time>
      </trkpt>
      <trkpt lat="46.04754" lon="6.78036">
        <ele>1050.3</ele>
        <time>2021-01-08T07:13:40Z</time>
      </trkpt>
      <trkpt lat="46.04753" lon="6.78042">
        <ele>1052.1</ele>
        <time>2021-01-08T07:13:52Z</time>
      </trkpt>
      <trkpt lat="46.04755" lon="6.78048">
        <ele>1053.7</ele>
        <time>2021-01-08T07:13:57Z</time>
      </trkpt>
      <trkpt lat="46.04756" lon="6.78053">
        <ele>1057.3</ele>
        <time>2021-01-08T07:14:14Z</time>
      </trkpt>
      <trkpt lat="46.04752" lon="6.78064">
        <ele>1060.6</ele>
        <time>2021-01-08T07:14:19Z</time>
      </trkpt>
      <trkpt lat="46.0475" lon="6.78066">
        <ele>1062.3</ele>
        <time>2021-01-08T07:14:26Z</time>
      </trkpt>
      <trkpt lat="46.04743" lon="6.78071">
        <ele>1062.3</ele>
        <time>2021-01-08T07:14:30Z</time>
      </trkpt>
      <trkpt lat="46.04746" lon="6.78076">
        <ele>1061.5</ele>
        <time>2021-01-08T07:14:40Z</time>
      </trkpt>
      <trkpt lat="46.04749" lon="6.78079">
        <ele>1061.7</ele>
        <time>2021-01-08T07:14:44Z</time>
      </trkpt>
      <trkpt lat="46.04754" lon="6.78083">
        <ele>1062.5</ele>
        <time>2021-01-08T07:14:49Z</time>
      </trkpt>
      <trkpt lat="46.04757" lon="6.78085">
        <ele>1062.7</ele>
        <time>2021-01-08T07:14:55Z</time>
      </trkpt>
      <trkpt lat="46.04759" lon="6.78089">
        <ele>1062.7</ele>
        <time>2021-01-08T07:14:59Z</time>
      </trkpt>
      <trkpt lat="46.04759" lon="6.78094">
        <ele>1062</ele>
        <time>2021-01-08T07:15:12Z</time>
      </trkpt>
      <trkpt lat="46.04761" lon="6.78105">
        <ele>1060.9</ele>
        <time>2021-01-08T07:15:17Z</time>
      </trkpt>
      <trkpt lat="46.0476" lon="6.78111">
        <ele>1060.3</ele>
        <time>2021-01-08T07:15:23Z</time>
      </trkpt>
      <trkpt lat="46.04761" lon="6.78117">
        <ele>1060.8</ele>
        <time>2021-01-08T07:15:30Z</time>
      </trkpt>
      <trkpt lat="46.04768" lon="6.78119">
        <ele>1062</ele>
        <time>2021-01-08T07:15:35Z</time>
      </trkpt>
      <trkpt lat="46.04773" lon="6.78117">
        <ele>1063.7</ele>
        <time>2021-01-08T07:15:40Z</time>
      </trkpt>
      <trkpt lat="46.04778" lon="6.78115">
        <ele>1065.3</ele>
        <time>2021-01-08T07:15:44Z</time>
      </trkpt>
      <trkpt lat="46.04783" lon="6.78117">
        <ele>1067</ele>
        <time>2021-01-08T07:15:48Z</time>
      </trkpt>
      <trkpt lat="46.04786" lon="6.78121">
        <ele>1068.6</ele>
        <time>2021-01-08T07:15:53Z</time>
      </trkpt>
      <trkpt lat="46.04785" lon="6.78125">
        <ele>1069</ele>
        <time>2021-01-08T07:16:01Z</time>
      </trkpt>
      <trkpt lat="46.04783" lon="6.78131">
        <ele>1069.5</ele>
        <time>2021-01-08T07:16:06Z</time>
      </trkpt>
      <trkpt lat="46.04783" lon="6.78137">
        <ele>1070.4</ele>
        <time>2021-01-08T07:16:12Z</time>
      </trkpt>
      <trkpt lat="46.04788" lon="6.78141">
        <ele>1070.7</ele>
        <time>2021-01-08T07:16:17Z</time>
      </trkpt>
      <trkpt lat="46.04792" lon="6.78143">
        <ele>1071.2</ele>
        <time>2021-01-08T07:16:24Z</time>
      </trkpt>
      <trkpt lat="46.04789" lon="6.78148">
        <ele>1072.1</ele>
        <time>2021-01-08T07:16:34Z</time>
      </trkpt>
      <trkpt lat="46.04787" lon="6.78153">
        <ele>1072.5</ele>
        <time>2021-01-08T07:16:43Z</time>
      </trkpt>
      <trkpt lat="46.04786" lon="6.78159">
        <ele>1073.3</ele>
        <time>2021-01-08T07:16:55Z</time>
      </trkpt>
      <trkpt lat="46.0479" lon="6.78163">
        <ele>1073.7</ele>
        <time>2021-01-08T07:17:00Z</time>
      </trkpt>
      <trkpt lat="46.04794" lon="6.78166">
        <ele>1074.2</ele>
        <time>2021-01-08T07:17:04Z</time>
      </trkpt>
      <trkpt lat="46.04792" lon="6.78171">
        <ele>1074.9</ele>
        <time>2021-01-08T07:17:15Z</time>
      </trkpt>
      <trkpt lat="46.04789" lon="6.78179">
        <ele>1075.5</ele>
        <time>2021-01-08T07:17:20Z</time>
      </trkpt>
      <trkpt lat="46.04786" lon="6.78183">
        <ele>1076.6</ele>
        <time>2021-01-08T07:17:36Z</time>
      </trkpt>
      <trkpt lat="46.04782" lon="6.78184">
        <ele>1077.6</ele>
        <time>2021-01-08T07:17:41Z</time>
      </trkpt>
      <trkpt lat="46.04778" lon="6.78185">
        <ele>1079.5</ele>
        <time>2021-01-08T07:17:47Z</time>
      </trkpt>
      <trkpt lat="46.04777" lon="6.7819">
        <ele>1082.2</ele>
        <time>2021-01-08T07:18:00Z</time>
      </trkpt>
      <trkpt lat="46.04776" lon="6.78197">
        <ele>1083.4</ele>
        <time>2021-01-08T07:18:05Z</time>
      </trkpt>
      <trkpt lat="46.04776" lon="6.78204">
        <ele>1085.2</ele>
        <time>2021-01-08T07:18:12Z</time>
      </trkpt>
      <trkpt lat="46.04777" lon="6.78209">
        <ele>1085.7</ele>
        <time>2021-01-08T07:18:16Z</time>
      </trkpt>
      <trkpt lat="46.04777" lon="6.78215">
        <ele>1087</ele>
        <time>2021-01-08T07:18:22Z</time>
      </trkpt>
      <trkpt lat="46.04769" lon="6.7822">
        <ele>1088.8</ele>
        <time>2021-01-08T07:18:26Z</time>
      </trkpt>
      <trkpt lat="46.04767" lon="6.78214">
        <ele>1089.7</ele>
        <time>2021-01-08T07:18:39Z</time>
      </trkpt>
      <trkpt lat="46.04763" lon="6.78212">
        <ele>1090</ele>
        <time>2021-01-08T07:18:44Z</time>
      </trkpt>
      <trkpt lat="46.04759" lon="6.78209">
        <ele>1090.2</ele>
        <time>2021-01-08T07:18:50Z</time>
      </trkpt>
      <trkpt lat="46.04758" lon="6.78207">
        <ele>1091.1</ele>
        <time>2021-01-08T07:18:58Z</time>
      </trkpt>
      <trkpt lat="46.04753" lon="6.78198">
        <ele>1092.5</ele>
        <time>2021-01-08T07:19:03Z</time>
      </trkpt>
      <trkpt lat="46.04751" lon="6.78194">
        <ele>1093.4</ele>
        <time>2021-01-08T07:19:08Z</time>
      </trkpt>
      <trkpt lat="46.04748" lon="6.78195">
        <ele>1095.7</ele>
        <time>2021-01-08T07:19:18Z</time>
      </trkpt>
      <trkpt lat="46.04742" lon="6.78197">
        <ele>1094.9</ele>
        <time>2021-01-08T07:19:22Z</time>
      </trkpt>
      <trkpt lat="46.04739" lon="6.78202">
        <ele>1093.9</ele>
        <time>2021-01-08T07:19:31Z</time>
      </trkpt>
      <trkpt lat="46.04736" lon="6.78206">
        <ele>1094.1</ele>
        <time>2021-01-08T07:19:36Z</time>
      </trkpt>
      <trkpt lat="46.04736" lon="6.78212">
        <ele>1097.7</ele>
        <time>2021-01-08T07:19:47Z</time>
      </trkpt>
      <trkpt lat="46.04737" lon="6.78217">
        <ele>1099.9</ele>
        <time>2021-01-08T07:19:53Z</time>
      </trkpt>
      <trkpt lat="46.04738" lon="6.78222">
        <ele>1101.8</ele>
        <time>2021-01-08T07:19:59Z</time>
      </trkpt>
      <trkpt lat="46.04738" lon="6.78229">
        <ele>1103.4</ele>
        <time>2021-01-08T07:20:04Z</time>
      </trkpt>
      <trkpt lat="46.04739" lon="6.78234">
        <ele>1105.5</ele>
        <time>2021-01-08T07:20:12Z</time>
      </trkpt>
      <trkpt lat="46.04736" lon="6.78239">
        <ele>1107.1</ele>
        <time>2021-01-08T07:20:16Z</time>
      </trkpt>
      <trkpt lat="46.04735" lon="6.78244">
        <ele>1108.2</ele>
        <time>2021-01-08T07:20:21Z</time>
      </trkpt>
      <trkpt lat="46.04737" lon="6.78251">
        <ele>1109.2</ele>
        <time>2021-01-08T07:20:25Z</time>
      </trkpt>
      <trkpt lat="46.04736" lon="6.78257">
        <ele>1110.4</ele>
        <time>2021-01-08T07:20:30Z</time>
      </trkpt>
      <trkpt lat="46.04736" lon="6.78263">
        <ele>1111.8</ele>
        <time>2021-01-08T07:20:36Z</time>
      </trkpt>
      <trkpt lat="46.04736" lon="6.78269">
        <ele>1112.6</ele>
        <time>2021-01-08T07:20:41Z</time>
      </trkpt>
      <trkpt lat="46.04736" lon="6.78275">
        <ele>1113.5</ele>
        <time>2021-01-08T07:20:47Z</time>
      </trkpt>
      <trkpt lat="46.04735" lon="6.78281">
        <ele>1115.2</ele>
        <time>2021-01-08T07:20:54Z</time>
      </trkpt>
      <trkpt lat="46.04735" lon="6.78287">
        <ele>1115.8</ele>
        <time>2021-01-08T07:21:00Z</time>
      </trkpt>
      <trkpt lat="46.04736" lon="6.78292">
        <ele>1116.8</ele>
        <time>2021-01-08T07:21:06Z</time>
      </trkpt>
      <trkpt lat="46.0474" lon="6.78297">
        <ele>1117.5</ele>
        <time>2021-01-08T07:21:11Z</time>
      </trkpt>
      <trkpt lat="46.04738" lon="6.78303">
        <ele>1116.7</ele>
        <time>2021-01-08T07:21:15Z</time>
      </trkpt>
      <trkpt lat="46.04741" lon="6.78306">
        <ele>1116.2</ele>
        <time>2021-01-08T07:21:19Z</time>
      </trkpt>
      <trkpt lat="46.04741" lon="6.78312">
        <ele>1116.9</ele>
        <time>2021-01-08T07:21:23Z</time>
      </trkpt>
      <trkpt lat="46.04741" lon="6.78316">
        <ele>1117.8</ele>
        <time>2021-01-08T07:21:28Z</time>
      </trkpt>
      <trkpt lat="46.04737" lon="6.78319">
        <ele>1117.4</ele>
        <time>2021-01-08T07:21:32Z</time>
      </trkpt>
      <trkpt lat="46.04737" lon="6.78326">
        <ele>1118</ele>
        <time>2021-01-08T07:21:40Z</time>
      </trkpt>
      <trkpt lat="46.04737" lon="6.7833">
        <ele>1118.8</ele>
        <time>2021-01-08T07:21:45Z</time>
      </trkpt>
      <trkpt lat="46.04738" lon="6.78337">
        <ele>1119.8</ele>
        <time>2021-01-08T07:21:49Z</time>
      </trkpt>
      <trkpt lat="46.04738" lon="6.78343">
        <ele>1122.4</ele>
        <time>2021-01-08T07:22:02Z</time>
      </trkpt>
      <trkpt lat="46.04741" lon="6.78347">
        <ele>1124.9</ele>
        <time>2021-01-08T07:22:11Z</time>
      </trkpt>
      <trkpt lat="46.04743" lon="6.78351">
        <ele>1126.3</ele>
        <time>2021-01-08T07:22:18Z</time>
      </trkpt>
      <trkpt lat="46.04748" lon="6.78356">
        <ele>1128</ele>
        <time>2021-01-08T07:22:23Z</time>
      </trkpt>
      <trkpt lat="46.04751" lon="6.7836">
        <ele>1129.5</ele>
        <time>2021-01-08T07:22:28Z</time>
      </trkpt>
      <trkpt lat="46.04754" lon="6.78365">
        <ele>1130.4</ele>
        <time>2021-01-08T07:22:33Z</time>
      </trkpt>
      <trkpt lat="46.04759" lon="6.78366">
        <ele>1130.7</ele>
        <time>2021-01-08T07:22:39Z</time>
      </trkpt>
      <trkpt lat="46.04763" lon="6.78368">
        <ele>1131.1</ele>
        <time>2021-01-08T07:22:47Z</time>
      </trkpt>
      <trkpt lat="46.04766" lon="6.78372">
        <ele>1131</ele>
        <time>2021-01-08T07:22:56Z</time>
      </trkpt>
      <trkpt lat="46.04768" lon="6.78378">
        <ele>1132</ele>
        <time>2021-01-08T07:23:04Z</time>
      </trkpt>
      <trkpt lat="46.04764" lon="6.7838">
        <ele>1131.2</ele>
        <time>2021-01-08T07:23:12Z</time>
      </trkpt>
      <trkpt lat="46.04759" lon="6.78379">
        <ele>1130.6</ele>
        <time>2021-01-08T07:23:17Z</time>
      </trkpt>
      <trkpt lat="46.04753" lon="6.78378">
        <ele>1130</ele>
        <time>2021-01-08T07:23:21Z</time>
      </trkpt>
      <trkpt lat="46.04749" lon="6.78381">
        <ele>1129.6</ele>
        <time>2021-01-08T07:23:25Z</time>
      </trkpt>
      <trkpt lat="46.04745" lon="6.78384">
        <ele>1129.6</ele>
        <time>2021-01-08T07:23:30Z</time>
      </trkpt>
      <trkpt lat="46.04742" lon="6.78385">
        <ele>1129.8</ele>
        <time>2021-01-08T07:23:34Z</time>
      </trkpt>
      <trkpt lat="46.04739" lon="6.78389">
        <ele>1129.4</ele>
        <time>2021-01-08T07:23:38Z</time>
      </trkpt>
      <trkpt lat="46.04735" lon="6.78391">
        <ele>1129.3</ele>
        <time>2021-01-08T07:23:44Z</time>
      </trkpt>
      <trkpt lat="46.04732" lon="6.78395">
        <ele>1129.8</ele>
        <time>2021-01-08T07:23:49Z</time>
      </trkpt>
      <trkpt lat="46.04729" lon="6.78398">
        <ele>1131.3</ele>
        <time>2021-01-08T07:23:57Z</time>
      </trkpt>
      <trkpt lat="46.04725" lon="6.784">
        <ele>1131.6</ele>
        <time>2021-01-08T07:24:05Z</time>
      </trkpt>
      <trkpt lat="46.04721" lon="6.78402">
        <ele>1130.5</ele>
        <time>2021-01-08T07:24:10Z</time>
      </trkpt>
      <trkpt lat="46.04718" lon="6.78403">
        <ele>1131.4</ele>
        <time>2021-01-08T07:24:15Z</time>
      </trkpt>
      <trkpt lat="46.04715" lon="6.78406">
        <ele>1132.1</ele>
        <time>2021-01-08T07:24:21Z</time>
      </trkpt>
      <trkpt lat="46.04711" lon="6.78406">
        <ele>1132.2</ele>
        <time>2021-01-08T07:24:26Z</time>
      </trkpt>
      <trkpt lat="46.04706" lon="6.78406">
        <ele>1134.4</ele>
        <time>2021-01-08T07:24:36Z</time>
      </trkpt>
      <trkpt lat="46.04703" lon="6.78409">
        <ele>1135.6</ele>
        <time>2021-01-08T07:24:45Z</time>
      </trkpt>
      <trkpt lat="46.047" lon="6.78414">
        <ele>1139</ele>
        <time>2021-01-08T07:25:57Z</time>
      </trkpt>
      <trkpt lat="46.04698" lon="6.78419">
        <ele>1139.5</ele>
        <time>2021-01-08T07:26:02Z</time>
      </trkpt>
      <trkpt lat="46.04697" lon="6.78425">
        <ele>1140.1</ele>
        <time>2021-01-08T07:26:08Z</time>
      </trkpt>
      <trkpt lat="46.04693" lon="6.78427">
        <ele>1140.7</ele>
        <time>2021-01-08T07:26:14Z</time>
      </trkpt>
      <trkpt lat="46.0469" lon="6.78432">
        <ele>1141.3</ele>
        <time>2021-01-08T07:26:22Z</time>
      </trkpt>
      <trkpt lat="46.04691" lon="6.78438">
        <ele>1141.9</ele>
        <time>2021-01-08T07:26:29Z</time>
      </trkpt>
      <trkpt lat="46.04692" lon="6.78444">
        <ele>1142.4</ele>
        <time>2021-01-08T07:26:34Z</time>
      </trkpt>
      <trkpt lat="46.04694" lon="6.7845">
        <ele>1143.2</ele>
        <time>2021-01-08T07:26:42Z</time>
      </trkpt>
      <trkpt lat="46.04694" lon="6.78456">
        <ele>1144.1</ele>
        <time>2021-01-08T07:26:48Z</time>
      </trkpt>
      <trkpt lat="46.04692" lon="6.78461">
        <ele>1144.8</ele>
        <time>2021-01-08T07:26:52Z</time>
      </trkpt>
      <trkpt lat="46.04689" lon="6.78465">
        <ele>1145.5</ele>
        <time>2021-01-08T07:26:57Z</time>
      </trkpt>
      <trkpt lat="46.04685" lon="6.78468">
        <ele>1146.9</ele>
        <time>2021-01-08T07:27:08Z</time>
      </trkpt>
      <trkpt lat="46.04685" lon="6.78474">
        <ele>1148.4</ele>
        <time>2021-01-08T07:27:16Z</time>
      </trkpt>
      <trkpt lat="46.04684" lon="6.7848">
        <ele>1150</ele>
        <time>2021-01-08T07:27:26Z</time>
      </trkpt>
      <trkpt lat="46.04685" lon="6.78486">
        <ele>1153</ele>
        <time>2021-01-08T07:27:40Z</time>
      </trkpt>
      <trkpt lat="46.04684" lon="6.78491">
        <ele>1154.4</ele>
        <time>2021-01-08T07:27:46Z</time>
      </trkpt>
      <trkpt lat="46.04687" lon="6.78496">
        <ele>1155.7</ele>
        <time>2021-01-08T07:27:51Z</time>
      </trkpt>
      <trkpt lat="46.04691" lon="6.78497">
        <ele>1157.2</ele>
        <time>2021-01-08T07:27:59Z</time>
      </trkpt>
      <trkpt lat="46.04695" lon="6.78499">
        <ele>1158</ele>
        <time>2021-01-08T07:28:06Z</time>
      </trkpt>
      <trkpt lat="46.04694" lon="6.78504">
        <ele>1158.5</ele>
        <time>2021-01-08T07:28:16Z</time>
      </trkpt>
      <trkpt lat="46.04692" lon="6.78509">
        <ele>1159.3</ele>
        <time>2021-01-08T07:28:20Z</time>
      </trkpt>
      <trkpt lat="46.04688" lon="6.78512">
        <ele>1160.3</ele>
        <time>2021-01-08T07:28:25Z</time>
      </trkpt>
      <trkpt lat="46.04684" lon="6.78514">
        <ele>1161.1</ele>
        <time>2021-01-08T07:28:30Z</time>
      </trkpt>
      <trkpt lat="46.04679" lon="6.78515">
        <ele>1161.9</ele>
        <time>2021-01-08T07:28:35Z</time>
      </trkpt>
      <trkpt lat="46.04676" lon="6.78518">
        <ele>1162.8</ele>
        <time>2021-01-08T07:28:40Z</time>
      </trkpt>
      <trkpt lat="46.04674" lon="6.78524">
        <ele>1164.5</ele>
        <time>2021-01-08T07:29:02Z</time>
      </trkpt>
      <trkpt lat="46.04671" lon="6.78528">
        <ele>1165.2</ele>
        <time>2021-01-08T07:29:08Z</time>
      </trkpt>
      <trkpt lat="46.04667" lon="6.78533">
        <ele>1166.1</ele>
        <time>2021-01-08T07:29:13Z</time>
      </trkpt>
      <trkpt lat="46.04661" lon="6.78534">
        <ele>1166.8</ele>
        <time>2021-01-08T07:29:18Z</time>
      </trkpt>
      <trkpt lat="46.04656" lon="6.78534">
        <ele>1167.3</ele>
        <time>2021-01-08T07:29:22Z</time>
      </trkpt>
      <trkpt lat="46.04653" lon="6.78536">
        <ele>1167.9</ele>
        <time>2021-01-08T07:29:26Z</time>
      </trkpt>
      <trkpt lat="46.0465" lon="6.78539">
        <ele>1168.2</ele>
        <time>2021-01-08T07:29:31Z</time>
      </trkpt>
      <trkpt lat="46.04646" lon="6.7854">
        <ele>1168.6</ele>
        <time>2021-01-08T07:29:41Z</time>
      </trkpt>
      <trkpt lat="46.04645" lon="6.78546">
        <ele>1168.8</ele>
        <time>2021-01-08T07:29:45Z</time>
      </trkpt>
      <trkpt lat="46.04644" lon="6.78552">
        <ele>1169.4</ele>
        <time>2021-01-08T07:29:53Z</time>
      </trkpt>
      <trkpt lat="46.04641" lon="6.78557">
        <ele>1169.4</ele>
        <time>2021-01-08T07:30:00Z</time>
      </trkpt>
      <trkpt lat="46.04644" lon="6.78558">
        <ele>1169.9</ele>
        <time>2021-01-08T07:30:06Z</time>
      </trkpt>
      <trkpt lat="46.04649" lon="6.78562">
        <ele>1170.9</ele>
        <time>2021-01-08T07:30:11Z</time>
      </trkpt>
      <trkpt lat="46.04653" lon="6.78565">
        <ele>1172</ele>
        <time>2021-01-08T07:30:17Z</time>
      </trkpt>
      <trkpt lat="46.04657" lon="6.78569">
        <ele>1173.5</ele>
        <time>2021-01-08T07:30:24Z</time>
      </trkpt>
      <trkpt lat="46.0466" lon="6.78572">
        <ele>1174.4</ele>
        <time>2021-01-08T07:30:29Z</time>
      </trkpt>
      <trkpt lat="46.04664" lon="6.78574">
        <ele>1176.2</ele>
        <time>2021-01-08T07:30:37Z</time>
      </trkpt>
      <trkpt lat="46.04668" lon="6.78575">
        <ele>1177.5</ele>
        <time>2021-01-08T07:30:42Z</time>
      </trkpt>
      <trkpt lat="46.04671" lon="6.78572">
        <ele>1178.3</ele>
        <time>2021-01-08T07:30:47Z</time>
      </trkpt>
      <trkpt lat="46.04675" lon="6.78571">
        <ele>1179</ele>
        <time>2021-01-08T07:30:52Z</time>
      </trkpt>
      <trkpt lat="46.0468" lon="6.78572">
        <ele>1179.8</ele>
        <time>2021-01-08T07:30:56Z</time>
      </trkpt>
      <trkpt lat="46.04683" lon="6.78577">
        <ele>1181.2</ele>
        <time>2021-01-08T07:31:01Z</time>
      </trkpt>
      <trkpt lat="46.04686" lon="6.7858">
        <ele>1182.2</ele>
        <time>2021-01-08T07:31:05Z</time>
      </trkpt>
      <trkpt lat="46.0469" lon="6.78583">
        <ele>1183</ele>
        <time>2021-01-08T07:31:10Z</time>
      </trkpt>
      <trkpt lat="46.04693" lon="6.78585">
        <ele>1184.2</ele>
        <time>2021-01-08T07:31:15Z</time>
      </trkpt>
      <trkpt lat="46.04697" lon="6.78587">
        <ele>1185.4</ele>
        <time>2021-01-08T07:31:20Z</time>
      </trkpt>
      <trkpt lat="46.04701" lon="6.7859">
        <ele>1187</ele>
        <time>2021-01-08T07:31:25Z</time>
      </trkpt>
      <trkpt lat="46.04704" lon="6.78593">
        <ele>1188.5</ele>
        <time>2021-01-08T07:31:31Z</time>
      </trkpt>
      <trkpt lat="46.04708" lon="6.78593">
        <ele>1190.2</ele>
        <time>2021-01-08T07:31:37Z</time>
      </trkpt>
      <trkpt lat="46.04712" lon="6.78592">
        <ele>1191.9</ele>
        <time>2021-01-08T07:31:42Z</time>
      </trkpt>
      <trkpt lat="46.04717" lon="6.78591">
        <ele>1193.2</ele>
        <time>2021-01-08T07:31:47Z</time>
      </trkpt>
      <trkpt lat="46.04721" lon="6.78593">
        <ele>1196</ele>
        <time>2021-01-08T07:31:56Z</time>
      </trkpt>
      <trkpt lat="46.04723" lon="6.78598">
        <ele>1198.5</ele>
        <time>2021-01-08T07:32:05Z</time>
      </trkpt>
      <trkpt lat="46.04727" lon="6.78599">
        <ele>1200.6</ele>
        <time>2021-01-08T07:32:16Z</time>
      </trkpt>
      <trkpt lat="46.04729" lon="6.78606">
        <ele>1202.4</ele>
        <time>2021-01-08T07:32:21Z</time>
      </trkpt>
      <trkpt lat="46.04728" lon="6.78612">
        <ele>1204.1</ele>
        <time>2021-01-08T07:32:26Z</time>
      </trkpt>
      <trkpt lat="46.04728" lon="6.78618">
        <ele>1205.8</ele>
        <time>2021-01-08T07:32:32Z</time>
      </trkpt>
      <trkpt lat="46.04728" lon="6.78624">
        <ele>1207.5</ele>
        <time>2021-01-08T07:32:39Z</time>
      </trkpt>
      <trkpt lat="46.04727" lon="6.7863">
        <ele>1211.2</ele>
        <time>2021-01-08T07:32:50Z</time>
      </trkpt>
      <trkpt lat="46.04724" lon="6.78633">
        <ele>1213.7</ele>
        <time>2021-01-08T07:33:30Z</time>
      </trkpt>
      <trkpt lat="46.04723" lon="6.78639">
        <ele>1214.2</ele>
        <time>2021-01-08T07:33:36Z</time>
      </trkpt>
      <trkpt lat="46.0472" lon="6.78644">
        <ele>1214.5</ele>
        <time>2021-01-08T07:33:40Z</time>
      </trkpt>
      <trkpt lat="46.04717" lon="6.78648">
        <ele>1214.9</ele>
        <time>2021-01-08T07:33:45Z</time>
      </trkpt>
      <trkpt lat="46.04716" lon="6.78654">
        <ele>1215.7</ele>
        <time>2021-01-08T07:33:52Z</time>
      </trkpt>
      <trkpt lat="46.04718" lon="6.7866">
        <ele>1216.5</ele>
        <time>2021-01-08T07:33:57Z</time>
      </trkpt>
      <trkpt lat="46.0472" lon="6.78666">
        <ele>1217.6</ele>
        <time>2021-01-08T07:34:03Z</time>
      </trkpt>
      <trkpt lat="46.04722" lon="6.78671">
        <ele>1221.2</ele>
        <time>2021-01-08T07:34:22Z</time>
      </trkpt>
      <trkpt lat="46.04724" lon="6.78676">
        <ele>1221.7</ele>
        <time>2021-01-08T07:34:27Z</time>
      </trkpt>
      <trkpt lat="46.04725" lon="6.78683">
        <ele>1222.7</ele>
        <time>2021-01-08T07:34:33Z</time>
      </trkpt>
      <trkpt lat="46.04726" lon="6.78689">
        <ele>1223.6</ele>
        <time>2021-01-08T07:34:39Z</time>
      </trkpt>
      <trkpt lat="46.04727" lon="6.78695">
        <ele>1224.9</ele>
        <time>2021-01-08T07:34:47Z</time>
      </trkpt>
      <trkpt lat="46.04725" lon="6.78701">
        <ele>1225.8</ele>
        <time>2021-01-08T07:34:52Z</time>
      </trkpt>
      <trkpt lat="46.04722" lon="6.78706">
        <ele>1227.3</ele>
        <time>2021-01-08T07:34:59Z</time>
      </trkpt>
      <trkpt lat="46.04721" lon="6.78711">
        <ele>1228.5</ele>
        <time>2021-01-08T07:35:04Z</time>
      </trkpt>
      <trkpt lat="46.04717" lon="6.78715">
        <ele>1230.1</ele>
        <time>2021-01-08T07:35:15Z</time>
      </trkpt>
      <trkpt lat="46.04718" lon="6.78721">
        <ele>1230.9</ele>
        <time>2021-01-08T07:35:27Z</time>
      </trkpt>
      <trkpt lat="46.04718" lon="6.78727">
        <ele>1231.8</ele>
        <time>2021-01-08T07:35:37Z</time>
      </trkpt>
      <trkpt lat="46.04717" lon="6.78732">
        <ele>1232.4</ele>
        <time>2021-01-08T07:35:43Z</time>
      </trkpt>
      <trkpt lat="46.04716" lon="6.78738">
        <ele>1232.8</ele>
        <time>2021-01-08T07:35:48Z</time>
      </trkpt>
      <trkpt lat="46.04716" lon="6.78744">
        <ele>1233.3</ele>
        <time>2021-01-08T07:35:54Z</time>
      </trkpt>
      <trkpt lat="46.04715" lon="6.78749">
        <ele>1235.3</ele>
        <time>2021-01-08T07:37:15Z</time>
      </trkpt>
      <trkpt lat="46.04716" lon="6.78755">
        <ele>1235.5</ele>
        <time>2021-01-08T07:37:19Z</time>
      </trkpt>
      <trkpt lat="46.04717" lon="6.78761">
        <ele>1235.9</ele>
        <time>2021-01-08T07:37:24Z</time>
      </trkpt>
      <trkpt lat="46.04719" lon="6.78767">
        <ele>1236.6</ele>
        <time>2021-01-08T07:37:33Z</time>
      </trkpt>
      <trkpt lat="46.0472" lon="6.78773">
        <ele>1237.1</ele>
        <time>2021-01-08T07:37:37Z</time>
      </trkpt>
      <trkpt lat="46.04723" lon="6.78779">
        <ele>1237.6</ele>
        <time>2021-01-08T07:37:41Z</time>
      </trkpt>
      <trkpt lat="46.04725" lon="6.78785">
        <ele>1238.6</ele>
        <time>2021-01-08T07:37:47Z</time>
      </trkpt>
      <trkpt lat="46.04725" lon="6.78791">
        <ele>1239.9</ele>
        <time>2021-01-08T07:37:54Z</time>
      </trkpt>
      <trkpt lat="46.04726" lon="6.78797">
        <ele>1240.8</ele>
        <time>2021-01-08T07:38:01Z</time>
      </trkpt>
      <trkpt lat="46.04727" lon="6.78803">
        <ele>1241.6</ele>
        <time>2021-01-08T07:38:07Z</time>
      </trkpt>
      <trkpt lat="46.04729" lon="6.78809">
        <ele>1242.4</ele>
        <time>2021-01-08T07:38:11Z</time>
      </trkpt>
      <trkpt lat="46.04732" lon="6.78812">
        <ele>1243.9</ele>
        <time>2021-01-08T07:38:20Z</time>
      </trkpt>
      <trkpt lat="46.04734" lon="6.78818">
        <ele>1244.9</ele>
        <time>2021-01-08T07:38:26Z</time>
      </trkpt>
      <trkpt lat="46.04735" lon="6.78824">
        <ele>1246.1</ele>
        <time>2021-01-08T07:38:32Z</time>
      </trkpt>
      <trkpt lat="46.04733" lon="6.78829">
        <ele>1247.4</ele>
        <time>2021-01-08T07:38:41Z</time>
      </trkpt>
      <trkpt lat="46.04731" lon="6.78835">
        <ele>1249.2</ele>
        <time>2021-01-08T07:38:50Z</time>
      </trkpt>
      <trkpt lat="46.04732" lon="6.78841">
        <ele>1251</ele>
        <time>2021-01-08T07:39:00Z</time>
      </trkpt>
      <trkpt lat="46.04735" lon="6.78845">
        <ele>1252.1</ele>
        <time>2021-01-08T07:39:06Z</time>
      </trkpt>
      <trkpt lat="46.04738" lon="6.78849">
        <ele>1255.4</ele>
        <time>2021-01-08T07:39:17Z</time>
      </trkpt>
      <trkpt lat="46.04738" lon="6.78855">
        <ele>1257.3</ele>
        <time>2021-01-08T07:39:31Z</time>
      </trkpt>
      <trkpt lat="46.04741" lon="6.78859">
        <ele>1257.8</ele>
        <time>2021-01-08T07:39:39Z</time>
      </trkpt>
      <trkpt lat="46.04745" lon="6.78862">
        <ele>1258.5</ele>
        <time>2021-01-08T07:39:45Z</time>
      </trkpt>
      <trkpt lat="46.04749" lon="6.78865">
        <ele>1259.4</ele>
        <time>2021-01-08T07:39:52Z</time>
      </trkpt>
      <trkpt lat="46.04752" lon="6.78867">
        <ele>1260.6</ele>
        <time>2021-01-08T07:39:57Z</time>
      </trkpt>
      <trkpt lat="46.04754" lon="6.78872">
        <ele>1261.8</ele>
        <time>2021-01-08T07:40:04Z</time>
      </trkpt>
      <trkpt lat="46.04756" lon="6.78877">
        <ele>1262.7</ele>
        <time>2021-01-08T07:40:08Z</time>
      </trkpt>
      <trkpt lat="46.04758" lon="6.78882">
        <ele>1264</ele>
        <time>2021-01-08T07:40:13Z</time>
      </trkpt>
      <trkpt lat="46.04759" lon="6.78888">
        <ele>1265.4</ele>
        <time>2021-01-08T07:40:19Z</time>
      </trkpt>
      <trkpt lat="46.04759" lon="6.78894">
        <ele>1266.8</ele>
        <time>2021-01-08T07:40:25Z</time>
      </trkpt>
      <trkpt lat="46.04761" lon="6.78899">
        <ele>1267.6</ele>
        <time>2021-01-08T07:40:32Z</time>
      </trkpt>
      <trkpt lat="46.04763" lon="6.78905">
        <ele>1268.9</ele>
        <time>2021-01-08T07:40:43Z</time>
      </trkpt>
      <trkpt lat="46.04759" lon="6.78907">
        <ele>1269.8</ele>
        <time>2021-01-08T07:40:52Z</time>
      </trkpt>
      <trkpt lat="46.04756" lon="6.78908">
        <ele>1271.1</ele>
        <time>2021-01-08T07:40:59Z</time>
      </trkpt>
      <trkpt lat="46.04753" lon="6.78913">
        <ele>1271.9</ele>
        <time>2021-01-08T07:41:03Z</time>
      </trkpt>
      <trkpt lat="46.04755" lon="6.78917">
        <ele>1273.4</ele>
        <time>2021-01-08T07:41:15Z</time>
      </trkpt>
      <trkpt lat="46.04754" lon="6.78923">
        <ele>1273.7</ele>
        <time>2021-01-08T07:41:19Z</time>
      </trkpt>
      <trkpt lat="46.04751" lon="6.78926">
        <ele>1274.8</ele>
        <time>2021-01-08T07:41:26Z</time>
      </trkpt>
      <trkpt lat="46.04747" lon="6.78925">
        <ele>1276.2</ele>
        <time>2021-01-08T07:41:35Z</time>
      </trkpt>
      <trkpt lat="46.04744" lon="6.78922">
        <ele>1277.1</ele>
        <time>2021-01-08T07:41:40Z</time>
      </trkpt>
      <trkpt lat="46.04739" lon="6.78923">
        <ele>1278.8</ele>
        <time>2021-01-08T07:41:47Z</time>
      </trkpt>
      <trkpt lat="46.04738" lon="6.78929">
        <ele>1280.7</ele>
        <time>2021-01-08T07:42:29Z</time>
      </trkpt>
      <trkpt lat="46.04741" lon="6.78933">
        <ele>1281.4</ele>
        <time>2021-01-08T07:42:38Z</time>
      </trkpt>
      <trkpt lat="46.04739" lon="6.78937">
        <ele>1281.7</ele>
        <time>2021-01-08T07:42:43Z</time>
      </trkpt>
      <trkpt lat="46.04737" lon="6.78942">
        <ele>1282.2</ele>
        <time>2021-01-08T07:42:48Z</time>
      </trkpt>
      <trkpt lat="46.04735" lon="6.78949">
        <ele>1282.8</ele>
        <time>2021-01-08T07:42:53Z</time>
      </trkpt>
      <trkpt lat="46.04731" lon="6.78956">
        <ele>1283.6</ele>
        <time>2021-01-08T07:42:58Z</time>
      </trkpt>
      <trkpt lat="46.04729" lon="6.78961">
        <ele>1284.4</ele>
        <time>2021-01-08T07:43:03Z</time>
      </trkpt>
      <trkpt lat="46.04727" lon="6.78965">
        <ele>1285</ele>
        <time>2021-01-08T07:43:08Z</time>
      </trkpt>
      <trkpt lat="46.04724" lon="6.7897">
        <ele>1285.9</ele>
        <time>2021-01-08T07:43:14Z</time>
      </trkpt>
      <trkpt lat="46.04721" lon="6.78975">
        <ele>1288.1</ele>
        <time>2021-01-08T07:43:23Z</time>
      </trkpt>
      <trkpt lat="46.0472" lon="6.78981">
        <ele>1290.1</ele>
        <time>2021-01-08T07:43:32Z</time>
      </trkpt>
      <trkpt lat="46.04721" lon="6.78987">
        <ele>1291.7</ele>
        <time>2021-01-08T07:43:39Z</time>
      </trkpt>
      <trkpt lat="46.04719" lon="6.78992">
        <ele>1292.6</ele>
        <time>2021-01-08T07:43:43Z</time>
      </trkpt>
      <trkpt lat="46.04719" lon="6.78999">
        <ele>1293.9</ele>
        <time>2021-01-08T07:43:49Z</time>
      </trkpt>
      <trkpt lat="46.04718" lon="6.79005">
        <ele>1294.7</ele>
        <time>2021-01-08T07:43:53Z</time>
      </trkpt>
      <trkpt lat="46.04718" lon="6.79013">
        <ele>1295.8</ele>
        <time>2021-01-08T07:43:58Z</time>
      </trkpt>
      <trkpt lat="46.04718" lon="6.7902">
        <ele>1296.5</ele>
        <time>2021-01-08T07:44:02Z</time>
      </trkpt>
      <trkpt lat="46.04717" lon="6.79025">
        <ele>1298.3</ele>
        <time>2021-01-08T07:44:10Z</time>
      </trkpt>
      <trkpt lat="46.04716" lon="6.7903">
        <ele>1299.3</ele>
        <time>2021-01-08T07:44:14Z</time>
      </trkpt>
      <trkpt lat="46.04715" lon="6.79037">
        <ele>1300.6</ele>
        <time>2021-01-08T07:44:19Z</time>
      </trkpt>
      <trkpt lat="46.04717" lon="6.79042">
        <ele>1303.4</ele>
        <time>2021-01-08T07:44:29Z</time>
      </trkpt>
      <trkpt lat="46.04715" lon="6.79047">
        <ele>1304.6</ele>
        <time>2021-01-08T07:44:36Z</time>
      </trkpt>
      <trkpt lat="46.04715" lon="6.79052">
        <ele>1306</ele>
        <time>2021-01-08T07:44:43Z</time>
      </trkpt>
      <trkpt lat="46.04715" lon="6.79058">
        <ele>1307.1</ele>
        <time>2021-01-08T07:44:50Z</time>
      </trkpt>
      <trkpt lat="46.04715" lon="6.79064">
        <ele>1307.7</ele>
        <time>2021-01-08T07:44:55Z</time>
      </trkpt>
      <trkpt lat="46.04715" lon="6.7907">
        <ele>1310.4</ele>
        <time>2021-01-08T07:45:08Z</time>
      </trkpt>
      <trkpt lat="46.04713" lon="6.79075">
        <ele>1312.4</ele>
        <time>2021-01-08T07:45:17Z</time>
      </trkpt>
      <trkpt lat="46.04713" lon="6.7908">
        <ele>1313.7</ele>
        <time>2021-01-08T07:45:23Z</time>
      </trkpt>
      <trkpt lat="46.04714" lon="6.79087">
        <ele>1314.8</ele>
        <time>2021-01-08T07:45:29Z</time>
      </trkpt>
      <trkpt lat="46.04716" lon="6.79092">
        <ele>1316.2</ele>
        <time>2021-01-08T07:45:38Z</time>
      </trkpt>
      <trkpt lat="46.04714" lon="6.79097">
        <ele>1317.3</ele>
        <time>2021-01-08T07:45:45Z</time>
      </trkpt>
      <trkpt lat="46.04712" lon="6.79103">
        <ele>1318.2</ele>
        <time>2021-01-08T07:45:51Z</time>
      </trkpt>
      <trkpt lat="46.0471" lon="6.79108">
        <ele>1319.3</ele>
        <time>2021-01-08T07:45:56Z</time>
      </trkpt>
      <trkpt lat="46.04708" lon="6.79113">
        <ele>1321.3</ele>
        <time>2021-01-08T07:46:05Z</time>
      </trkpt>
      <trkpt lat="46.04706" lon="6.79118">
        <ele>1322.7</ele>
        <time>2021-01-08T07:46:12Z</time>
      </trkpt>
      <trkpt lat="46.04703" lon="6.79122">
        <ele>1323.9</ele>
        <time>2021-01-08T07:46:20Z</time>
      </trkpt>
      <trkpt lat="46.047" lon="6.79126">
        <ele>1325</ele>
        <time>2021-01-08T07:46:26Z</time>
      </trkpt>
      <trkpt lat="46.04696" lon="6.79127">
        <ele>1325.9</ele>
        <time>2021-01-08T07:46:34Z</time>
      </trkpt>
      <trkpt lat="46.04692" lon="6.79127">
        <ele>1326.2</ele>
        <time>2021-01-08T07:46:39Z</time>
      </trkpt>
      <trkpt lat="46.04688" lon="6.79128">
        <ele>1327.5</ele>
        <time>2021-01-08T07:46:48Z</time>
      </trkpt>
      <trkpt lat="46.04684" lon="6.79127">
        <ele>1328.4</ele>
        <time>2021-01-08T07:46:55Z</time>
      </trkpt>
      <trkpt lat="46.0468" lon="6.79128">
        <ele>1329</ele>
        <time>2021-01-08T07:47:00Z</time>
      </trkpt>
      <trkpt lat="46.04677" lon="6.79132">
        <ele>1330.7</ele>
        <time>2021-01-08T07:47:09Z</time>
      </trkpt>
      <trkpt lat="46.04676" lon="6.79137">
        <ele>1332.8</ele>
        <time>2021-01-08T07:47:31Z</time>
      </trkpt>
      <trkpt lat="46.04672" lon="6.7914">
        <ele>1332.9</ele>
        <time>2021-01-08T07:47:45Z</time>
      </trkpt>
      <trkpt lat="46.04673" lon="6.79146">
        <ele>1333.1</ele>
        <time>2021-01-08T07:47:50Z</time>
      </trkpt>
      <trkpt lat="46.04676" lon="6.79151">
        <ele>1334</ele>
        <time>2021-01-08T07:48:03Z</time>
      </trkpt>
      <trkpt lat="46.04681" lon="6.79149">
        <ele>1333.7</ele>
        <time>2021-01-08T07:48:07Z</time>
      </trkpt>
      <trkpt lat="46.04685" lon="6.79148">
        <ele>1333.6</ele>
        <time>2021-01-08T07:48:11Z</time>
      </trkpt>
      <trkpt lat="46.04689" lon="6.7915">
        <ele>1333.7</ele>
        <time>2021-01-08T07:48:15Z</time>
      </trkpt>
      <trkpt lat="46.04694" lon="6.79156">
        <ele>1333.6</ele>
        <time>2021-01-08T07:48:20Z</time>
      </trkpt>
      <trkpt lat="46.04699" lon="6.79159">
        <ele>1333.9</ele>
        <time>2021-01-08T07:48:24Z</time>
      </trkpt>
      <trkpt lat="46.04703" lon="6.79163">
        <ele>1334.3</ele>
        <time>2021-01-08T07:48:29Z</time>
      </trkpt>
      <trkpt lat="46.04706" lon="6.79166">
        <ele>1334.3</ele>
        <time>2021-01-08T07:48:34Z</time>
      </trkpt>
      <trkpt lat="46.04707" lon="6.79173">
        <ele>1334.3</ele>
        <time>2021-01-08T07:48:38Z</time>
      </trkpt>
      <trkpt lat="46.04707" lon="6.79179">
        <ele>1334.2</ele>
        <time>2021-01-08T07:48:42Z</time>
      </trkpt>
      <trkpt lat="46.04706" lon="6.79185">
        <ele>1334</ele>
        <time>2021-01-08T07:48:48Z</time>
      </trkpt>
      <trkpt lat="46.04705" lon="6.79192">
        <ele>1334</ele>
        <time>2021-01-08T07:48:53Z</time>
      </trkpt>
      <trkpt lat="46.04708" lon="6.79194">
        <ele>1334.2</ele>
        <time>2021-01-08T07:48:59Z</time>
      </trkpt>
      <trkpt lat="46.04715" lon="6.79191">
        <ele>1334.1</ele>
        <time>2021-01-08T07:49:04Z</time>
      </trkpt>
      <trkpt lat="46.0472" lon="6.7919">
        <ele>1334</ele>
        <time>2021-01-08T07:49:08Z</time>
      </trkpt>
      <trkpt lat="46.04724" lon="6.79188">
        <ele>1333.9</ele>
        <time>2021-01-08T07:49:12Z</time>
      </trkpt>
      <trkpt lat="46.0473" lon="6.79186">
        <ele>1333.8</ele>
        <time>2021-01-08T07:49:17Z</time>
      </trkpt>
      <trkpt lat="46.04736" lon="6.79185">
        <ele>1333.8</ele>
        <time>2021-01-08T07:49:21Z</time>
      </trkpt>
      <trkpt lat="46.0474" lon="6.79184">
        <ele>1333.9</ele>
        <time>2021-01-08T07:49:25Z</time>
      </trkpt>
      <trkpt lat="46.04745" lon="6.79183">
        <ele>1333.7</ele>
        <time>2021-01-08T07:49:29Z</time>
      </trkpt>
      <trkpt lat="46.0475" lon="6.79179">
        <ele>1333.6</ele>
        <time>2021-01-08T07:49:34Z</time>
      </trkpt>
      <trkpt lat="46.04754" lon="6.79178">
        <ele>1333.5</ele>
        <time>2021-01-08T07:49:38Z</time>
      </trkpt>
      <trkpt lat="46.04758" lon="6.79177">
        <ele>1333.6</ele>
        <time>2021-01-08T07:49:42Z</time>
      </trkpt>
      <trkpt lat="46.04762" lon="6.79175">
        <ele>1334.3</ele>
        <time>2021-01-08T07:49:47Z</time>
      </trkpt>
      <trkpt lat="46.04766" lon="6.79172">
        <ele>1334.9</ele>
        <time>2021-01-08T07:49:53Z</time>
      </trkpt>
      <trkpt lat="46.0477" lon="6.79173">
        <ele>1335</ele>
        <time>2021-01-08T07:50:01Z</time>
      </trkpt>
      <trkpt lat="46.04774" lon="6.79176">
        <ele>1335</ele>
        <time>2021-01-08T07:50:11Z</time>
      </trkpt>
      <trkpt lat="46.04777" lon="6.7918">
        <ele>1335.4</ele>
        <time>2021-01-08T07:50:16Z</time>
      </trkpt>
      <trkpt lat="46.04781" lon="6.79179">
        <ele>1335.2</ele>
        <time>2021-01-08T07:50:20Z</time>
      </trkpt>
      <trkpt lat="46.04782" lon="6.79185">
        <ele>1335.7</ele>
        <time>2021-01-08T07:50:29Z</time>
      </trkpt>
      <trkpt lat="46.04784" lon="6.7919">
        <ele>1336.5</ele>
        <time>2021-01-08T07:50:35Z</time>
      </trkpt>
      <trkpt lat="46.04785" lon="6.79196">
        <ele>1337.6</ele>
        <time>2021-01-08T07:50:43Z</time>
      </trkpt>
      <trkpt lat="46.04786" lon="6.79202">
        <ele>1338.8</ele>
        <time>2021-01-08T07:50:51Z</time>
      </trkpt>
      <trkpt lat="46.04786" lon="6.79208">
        <ele>1340.4</ele>
        <time>2021-01-08T07:51:01Z</time>
      </trkpt>
      <trkpt lat="46.0479" lon="6.79211">
        <ele>1341.9</ele>
        <time>2021-01-08T07:51:13Z</time>
      </trkpt>
      <trkpt lat="46.04786" lon="6.79213">
        <ele>1343.7</ele>
        <time>2021-01-08T07:51:22Z</time>
      </trkpt>
      <trkpt lat="46.04782" lon="6.79212">
        <ele>1344.8</ele>
        <time>2021-01-08T07:51:28Z</time>
      </trkpt>
      <trkpt lat="46.04778" lon="6.7921">
        <ele>1345</ele>
        <time>2021-01-08T07:51:33Z</time>
      </trkpt>
      <trkpt lat="46.04775" lon="6.79212">
        <ele>1345.9</ele>
        <time>2021-01-08T07:51:41Z</time>
      </trkpt>
      <trkpt lat="46.04771" lon="6.79214">
        <ele>1346.9</ele>
        <time>2021-01-08T07:51:48Z</time>
      </trkpt>
      <trkpt lat="46.04767" lon="6.79212">
        <ele>1347.5</ele>
        <time>2021-01-08T07:51:53Z</time>
      </trkpt>
      <trkpt lat="46.04763" lon="6.79213">
        <ele>1348.3</ele>
        <time>2021-01-08T07:51:59Z</time>
      </trkpt>
      <trkpt lat="46.04759" lon="6.79214">
        <ele>1349.5</ele>
        <time>2021-01-08T07:52:05Z</time>
      </trkpt>
      <trkpt lat="46.04754" lon="6.79218">
        <ele>1350.3</ele>
        <time>2021-01-08T07:52:10Z</time>
      </trkpt>
      <trkpt lat="46.04752" lon="6.79223">
        <ele>1351.9</ele>
        <time>2021-01-08T07:52:18Z</time>
      </trkpt>
      <trkpt lat="46.0475" lon="6.79228">
        <ele>1353.1</ele>
        <time>2021-01-08T07:52:25Z</time>
      </trkpt>
      <trkpt lat="46.04749" lon="6.79234">
        <ele>1355.4</ele>
        <time>2021-01-08T07:52:37Z</time>
      </trkpt>
      <trkpt lat="46.04751" lon="6.79242">
        <ele>1355.8</ele>
        <time>2021-01-08T07:52:41Z</time>
      </trkpt>
      <trkpt lat="46.04753" lon="6.79246">
        <ele>1356.6</ele>
        <time>2021-01-08T07:52:47Z</time>
      </trkpt>
      <trkpt lat="46.04752" lon="6.79252">
        <ele>1358.2</ele>
        <time>2021-01-08T07:52:56Z</time>
      </trkpt>
      <trkpt lat="46.04753" lon="6.79258">
        <ele>1360.3</ele>
        <time>2021-01-08T07:53:07Z</time>
      </trkpt>
      <trkpt lat="46.04749" lon="6.79256">
        <ele>1363.1</ele>
        <time>2021-01-08T07:54:11Z</time>
      </trkpt>
      <trkpt lat="46.04746" lon="6.79259">
        <ele>1363.7</ele>
        <time>2021-01-08T07:54:29Z</time>
      </trkpt>
      <trkpt lat="46.04749" lon="6.79261">
        <ele>1364.3</ele>
        <time>2021-01-08T07:55:15Z</time>
      </trkpt>
      <trkpt lat="46.04747" lon="6.79273">
        <ele>1366.9</ele>
        <time>2021-01-08T07:55:20Z</time>
      </trkpt>
      <trkpt lat="46.04747" lon="6.79273">
        <ele>1366.9</ele>
        <time>2021-01-08T07:56:02Z</time>
      </trkpt>
      <trkpt lat="46.04746" lon="6.79266">
        <ele>1368</ele>
        <time>2021-01-08T07:56:06Z</time>
      </trkpt>
      <trkpt lat="46.04742" lon="6.79262">
        <ele>1367.4</ele>
        <time>2021-01-08T07:56:30Z</time>
      </trkpt>
      <trkpt lat="46.04745" lon="6.79266">
        <ele>1366.2</ele>
        <time>2021-01-08T07:56:51Z</time>
      </trkpt>
      <trkpt lat="46.04745" lon="6.79273">
        <ele>1365.1</ele>
        <time>2021-01-08T07:57:00Z</time>
      </trkpt>
      <trkpt lat="46.04749" lon="6.79272">
        <ele>1364.6</ele>
        <time>2021-01-08T07:57:06Z</time>
      </trkpt>
      <trkpt lat="46.04755" lon="6.79276">
        <ele>1364.6</ele>
        <time>2021-01-08T07:57:11Z</time>
      </trkpt>
      <trkpt lat="46.04752" lon="6.79281">
        <ele>1364.3</ele>
        <time>2021-01-08T07:57:17Z</time>
      </trkpt>
      <trkpt lat="46.04751" lon="6.79286">
        <ele>1364.4</ele>
        <time>2021-01-08T07:57:24Z</time>
      </trkpt>
      <trkpt lat="46.04748" lon="6.79289">
        <ele>1365</ele>
        <time>2021-01-08T07:57:36Z</time>
      </trkpt>
      <trkpt lat="46.04744" lon="6.79287">
        <ele>1364.9</ele>
        <time>2021-01-08T07:57:41Z</time>
      </trkpt>
      <trkpt lat="46.0474" lon="6.79289">
        <ele>1365.4</ele>
        <time>2021-01-08T07:57:46Z</time>
      </trkpt>
      <trkpt lat="46.04736" lon="6.79289">
        <ele>1365.6</ele>
        <time>2021-01-08T07:57:50Z</time>
      </trkpt>
      <trkpt lat="46.04732" lon="6.79287">
        <ele>1365.6</ele>
        <time>2021-01-08T07:57:56Z</time>
      </trkpt>
      <trkpt lat="46.04728" lon="6.79287">
        <ele>1366.5</ele>
        <time>2021-01-08T07:58:05Z</time>
      </trkpt>
      <trkpt lat="46.04724" lon="6.79288">
        <ele>1367</ele>
        <time>2021-01-08T07:58:09Z</time>
      </trkpt>
      <trkpt lat="46.0472" lon="6.79288">
        <ele>1367.7</ele>
        <time>2021-01-08T07:58:14Z</time>
      </trkpt>
      <trkpt lat="46.04717" lon="6.79293">
        <ele>1369</ele>
        <time>2021-01-08T07:58:21Z</time>
      </trkpt>
      <trkpt lat="46.04713" lon="6.79295">
        <ele>1370.2</ele>
        <time>2021-01-08T07:58:28Z</time>
      </trkpt>
      <trkpt lat="46.04709" lon="6.79298">
        <ele>1371.7</ele>
        <time>2021-01-08T07:58:36Z</time>
      </trkpt>
      <trkpt lat="46.04706" lon="6.79301">
        <ele>1372.2</ele>
        <time>2021-01-08T07:58:42Z</time>
      </trkpt>
      <trkpt lat="46.04702" lon="6.79305">
        <ele>1373.1</ele>
        <time>2021-01-08T07:58:49Z</time>
      </trkpt>
      <trkpt lat="46.047" lon="6.79309">
        <ele>1374.1</ele>
        <time>2021-01-08T07:58:55Z</time>
      </trkpt>
      <trkpt lat="46.04697" lon="6.79314">
        <ele>1375.3</ele>
        <time>2021-01-08T07:59:00Z</time>
      </trkpt>
      <trkpt lat="46.04694" lon="6.79319">
        <ele>1378.7</ele>
        <time>2021-01-08T07:59:16Z</time>
      </trkpt>
      <trkpt lat="46.04691" lon="6.79322">
        <ele>1380</ele>
        <time>2021-01-08T07:59:22Z</time>
      </trkpt>
      <trkpt lat="46.0469" lon="6.79328">
        <ele>1381.2</ele>
        <time>2021-01-08T07:59:29Z</time>
      </trkpt>
      <trkpt lat="46.04689" lon="6.79333">
        <ele>1382</ele>
        <time>2021-01-08T07:59:34Z</time>
      </trkpt>
      <trkpt lat="46.04688" lon="6.79339">
        <ele>1383.6</ele>
        <time>2021-01-08T07:59:43Z</time>
      </trkpt>
      <trkpt lat="46.04692" lon="6.79339">
        <ele>1384.2</ele>
        <time>2021-01-08T07:59:56Z</time>
      </trkpt>
      <trkpt lat="46.04695" lon="6.79342">
        <ele>1384.1</ele>
        <time>2021-01-08T08:00:08Z</time>
      </trkpt>
      <trkpt lat="46.04694" lon="6.79344">
        <ele>1384</ele>
        <time>2021-01-08T08:00:20Z</time>
      </trkpt>
      <trkpt lat="46.04701" lon="6.79348">
        <ele>1384.8</ele>
        <time>2021-01-08T08:00:25Z</time>
      </trkpt>
      <trkpt lat="46.04704" lon="6.79351">
        <ele>1388.5</ele>
        <time>2021-01-08T08:00:56Z</time>
      </trkpt>
      <trkpt lat="46.04708" lon="6.79351">
        <ele>1389.3</ele>
        <time>2021-01-08T08:01:01Z</time>
      </trkpt>
      <trkpt lat="46.04711" lon="6.7935">
        <ele>1390.8</ele>
        <time>2021-01-08T08:01:17Z</time>
      </trkpt>
      <trkpt lat="46.04711" lon="6.79362">
        <ele>1392.1</ele>
        <time>2021-01-08T08:01:22Z</time>
      </trkpt>
      <trkpt lat="46.0471" lon="6.79368">
        <ele>1393.2</ele>
        <time>2021-01-08T08:01:27Z</time>
      </trkpt>
      <trkpt lat="46.04711" lon="6.79374">
        <ele>1393.8</ele>
        <time>2021-01-08T08:01:32Z</time>
      </trkpt>
      <trkpt lat="46.04711" lon="6.7938">
        <ele>1395</ele>
        <time>2021-01-08T08:01:44Z</time>
      </trkpt>
      <trkpt lat="46.0471" lon="6.79382">
        <ele>1395.7</ele>
        <time>2021-01-08T08:02:12Z</time>
      </trkpt>
      <trkpt lat="46.04703" lon="6.79376">
        <ele>1399</ele>
        <time>2021-01-08T08:02:17Z</time>
      </trkpt>
      <trkpt lat="46.04702" lon="6.79381">
        <ele>1399.8</ele>
        <time>2021-01-08T08:02:23Z</time>
      </trkpt>
      <trkpt lat="46.04703" lon="6.79389">
        <ele>1399.9</ele>
        <time>2021-01-08T08:02:27Z</time>
      </trkpt>
      <trkpt lat="46.04705" lon="6.79394">
        <ele>1400.7</ele>
        <time>2021-01-08T08:02:32Z</time>
      </trkpt>
      <trkpt lat="46.04701" lon="6.79396">
        <ele>1402</ele>
        <time>2021-01-08T08:02:48Z</time>
      </trkpt>
      <trkpt lat="46.04698" lon="6.79399">
        <ele>1402.3</ele>
        <time>2021-01-08T08:02:54Z</time>
      </trkpt>
      <trkpt lat="46.04694" lon="6.79402">
        <ele>1402.7</ele>
        <time>2021-01-08T08:02:59Z</time>
      </trkpt>
      <trkpt lat="46.04691" lon="6.79406">
        <ele>1403.1</ele>
        <time>2021-01-08T08:03:04Z</time>
      </trkpt>
      <trkpt lat="46.04687" lon="6.79409">
        <ele>1403.4</ele>
        <time>2021-01-08T08:03:09Z</time>
      </trkpt>
      <trkpt lat="46.04685" lon="6.79415">
        <ele>1405.9</ele>
        <time>2021-01-08T08:03:41Z</time>
      </trkpt>
      <trkpt lat="46.04685" lon="6.7942">
        <ele>1406.3</ele>
        <time>2021-01-08T08:03:46Z</time>
      </trkpt>
      <trkpt lat="46.04689" lon="6.79424">
        <ele>1407</ele>
        <time>2021-01-08T08:03:55Z</time>
      </trkpt>
      <trkpt lat="46.04691" lon="6.79429">
        <ele>1409</ele>
        <time>2021-01-08T08:04:15Z</time>
      </trkpt>
      <trkpt lat="46.04691" lon="6.79434">
        <ele>1409.1</ele>
        <time>2021-01-08T08:04:20Z</time>
      </trkpt>
      <trkpt lat="46.04689" lon="6.7944">
        <ele>1409.5</ele>
        <time>2021-01-08T08:04:29Z</time>
      </trkpt>
      <trkpt lat="46.04687" lon="6.79442">
        <ele>1409.8</ele>
        <time>2021-01-08T08:04:40Z</time>
      </trkpt>
      <trkpt lat="46.04683" lon="6.79446">
        <ele>1410.4</ele>
        <time>2021-01-08T08:04:45Z</time>
      </trkpt>
      <trkpt lat="46.04679" lon="6.79445">
        <ele>1411.5</ele>
        <time>2021-01-08T08:04:54Z</time>
      </trkpt>
      <trkpt lat="46.04675" lon="6.79445">
        <ele>1414.4</ele>
        <time>2021-01-08T08:05:11Z</time>
      </trkpt>
      <trkpt lat="46.04675" lon="6.7945">
        <ele>1415.4</ele>
        <time>2021-01-08T08:05:18Z</time>
      </trkpt>
      <trkpt lat="46.04675" lon="6.79457">
        <ele>1416.1</ele>
        <time>2021-01-08T08:05:23Z</time>
      </trkpt>
      <trkpt lat="46.04675" lon="6.79462">
        <ele>1417.3</ele>
        <time>2021-01-08T08:05:28Z</time>
      </trkpt>
      <trkpt lat="46.04675" lon="6.79468">
        <ele>1418.2</ele>
        <time>2021-01-08T08:05:33Z</time>
      </trkpt>
      <trkpt lat="46.04675" lon="6.79475">
        <ele>1419.1</ele>
        <time>2021-01-08T08:05:38Z</time>
      </trkpt>
      <trkpt lat="46.04671" lon="6.79477">
        <ele>1421.9</ele>
        <time>2021-01-08T08:05:49Z</time>
      </trkpt>
      <trkpt lat="46.04667" lon="6.79477">
        <ele>1423.6</ele>
        <time>2021-01-08T08:05:56Z</time>
      </trkpt>
      <trkpt lat="46.04665" lon="6.79483">
        <ele>1425.1</ele>
        <time>2021-01-08T08:06:04Z</time>
      </trkpt>
      <trkpt lat="46.04668" lon="6.79488">
        <ele>1426.3</ele>
        <time>2021-01-08T08:06:11Z</time>
      </trkpt>
      <trkpt lat="46.04672" lon="6.79488">
        <ele>1427</ele>
        <time>2021-01-08T08:06:16Z</time>
      </trkpt>
      <trkpt lat="46.04675" lon="6.79494">
        <ele>1429.5</ele>
        <time>2021-01-08T08:06:29Z</time>
      </trkpt>
      <trkpt lat="46.04678" lon="6.79498">
        <ele>1431</ele>
        <time>2021-01-08T08:06:39Z</time>
      </trkpt>
      <trkpt lat="46.04679" lon="6.79501">
        <ele>1431.7</ele>
        <time>2021-01-08T08:06:56Z</time>
      </trkpt>
      <trkpt lat="46.04686" lon="6.79501">
        <ele>1431.7</ele>
        <time>2021-01-08T08:07:01Z</time>
      </trkpt>
      <trkpt lat="46.04689" lon="6.79506">
        <ele>1433</ele>
        <time>2021-01-08T08:07:12Z</time>
      </trkpt>
      <trkpt lat="46.04686" lon="6.79511">
        <ele>1433.5</ele>
        <time>2021-01-08T08:07:19Z</time>
      </trkpt>
      <trkpt lat="46.04685" lon="6.79517">
        <ele>1434.8</ele>
        <time>2021-01-08T08:07:30Z</time>
      </trkpt>
      <trkpt lat="46.04682" lon="6.79518">
        <ele>1436.1</ele>
        <time>2021-01-08T08:07:40Z</time>
      </trkpt>
      <trkpt lat="46.04679" lon="6.79521">
        <ele>1439.2</ele>
        <time>2021-01-08T08:07:48Z</time>
      </trkpt>
      <trkpt lat="46.04676" lon="6.79524">
        <ele>1441.2</ele>
        <time>2021-01-08T08:08:03Z</time>
      </trkpt>
      <trkpt lat="46.04671" lon="6.79527">
        <ele>1442.9</ele>
        <time>2021-01-08T08:08:08Z</time>
      </trkpt>
      <trkpt lat="46.04669" lon="6.79533">
        <ele>1443.7</ele>
        <time>2021-01-08T08:08:14Z</time>
      </trkpt>
      <trkpt lat="46.04665" lon="6.79531">
        <ele>1444.7</ele>
        <time>2021-01-08T08:08:21Z</time>
      </trkpt>
      <trkpt lat="46.04662" lon="6.79534">
        <ele>1446.6</ele>
        <time>2021-01-08T08:08:31Z</time>
      </trkpt>
      <trkpt lat="46.04658" lon="6.79532">
        <ele>1448.2</ele>
        <time>2021-01-08T08:08:42Z</time>
      </trkpt>
      <trkpt lat="46.04654" lon="6.7953">
        <ele>1450.2</ele>
        <time>2021-01-08T08:08:53Z</time>
      </trkpt>
      <trkpt lat="46.04655" lon="6.7953">
        <ele>1451.8</ele>
        <time>2021-01-08T08:09:51Z</time>
      </trkpt>
      <trkpt lat="46.04659" lon="6.79541">
        <ele>1454</ele>
        <time>2021-01-08T08:09:55Z</time>
      </trkpt>
      <trkpt lat="46.04656" lon="6.79546">
        <ele>1455.8</ele>
        <time>2021-01-08T08:10:06Z</time>
      </trkpt>
      <trkpt lat="46.04652" lon="6.79549">
        <ele>1458</ele>
        <time>2021-01-08T08:10:18Z</time>
      </trkpt>
      <trkpt lat="46.04648" lon="6.7955">
        <ele>1460</ele>
        <time>2021-01-08T08:10:28Z</time>
      </trkpt>
      <trkpt lat="46.04644" lon="6.79554">
        <ele>1462.4</ele>
        <time>2021-01-08T08:10:40Z</time>
      </trkpt>
      <trkpt lat="46.0464" lon="6.79557">
        <ele>1463</ele>
        <time>2021-01-08T08:10:46Z</time>
      </trkpt>
      <trkpt lat="46.04636" lon="6.79558">
        <ele>1463.9</ele>
        <time>2021-01-08T08:10:58Z</time>
      </trkpt>
      <trkpt lat="46.04637" lon="6.79559">
        <ele>1465.3</ele>
        <time>2021-01-08T08:12:02Z</time>
      </trkpt>
      <trkpt lat="46.0464" lon="6.7957">
        <ele>1466.9</ele>
        <time>2021-01-08T08:12:06Z</time>
      </trkpt>
      <trkpt lat="46.0464" lon="6.79576">
        <ele>1467.6</ele>
        <time>2021-01-08T08:12:36Z</time>
      </trkpt>
      <trkpt lat="46.04643" lon="6.79579">
        <ele>1467.8</ele>
        <time>2021-01-08T08:13:03Z</time>
      </trkpt>
      <trkpt lat="46.04639" lon="6.79583">
        <ele>1468.6</ele>
        <time>2021-01-08T08:13:08Z</time>
      </trkpt>
      <trkpt lat="46.04639" lon="6.79587">
        <ele>1468.9</ele>
        <time>2021-01-08T08:13:20Z</time>
      </trkpt>
      <trkpt lat="46.04639" lon="6.79593">
        <ele>1469.4</ele>
        <time>2021-01-08T08:13:24Z</time>
      </trkpt>
      <trkpt lat="46.04639" lon="6.79599">
        <ele>1470.6</ele>
        <time>2021-01-08T08:13:37Z</time>
      </trkpt>
      <trkpt lat="46.04639" lon="6.79605">
        <ele>1471.8</ele>
        <time>2021-01-08T08:13:52Z</time>
      </trkpt>
      <trkpt lat="46.04637" lon="6.7961">
        <ele>1472.6</ele>
        <time>2021-01-08T08:13:57Z</time>
      </trkpt>
      <trkpt lat="46.04636" lon="6.79615">
        <ele>1473</ele>
        <time>2021-01-08T08:14:01Z</time>
      </trkpt>
      <trkpt lat="46.04635" lon="6.79621">
        <ele>1474</ele>
        <time>2021-01-08T08:14:07Z</time>
      </trkpt>
      <trkpt lat="46.04634" lon="6.79627">
        <ele>1477.8</ele>
        <time>2021-01-08T08:14:32Z</time>
      </trkpt>
      <trkpt lat="46.04633" lon="6.79633">
        <ele>1478.4</ele>
        <time>2021-01-08T08:14:40Z</time>
      </trkpt>
      <trkpt lat="46.04633" lon="6.79639">
        <ele>1479.1</ele>
        <time>2021-01-08T08:14:47Z</time>
      </trkpt>
      <trkpt lat="46.04631" lon="6.79645">
        <ele>1479.7</ele>
        <time>2021-01-08T08:14:53Z</time>
      </trkpt>
      <trkpt lat="46.04629" lon="6.7965">
        <ele>1481.2</ele>
        <time>2021-01-08T08:15:03Z</time>
      </trkpt>
      <trkpt lat="46.04627" lon="6.79655">
        <ele>1482.4</ele>
        <time>2021-01-08T08:15:10Z</time>
      </trkpt>
      <trkpt lat="46.04628" lon="6.79661">
        <ele>1486</ele>
        <time>2021-01-08T08:15:56Z</time>
      </trkpt>
      <trkpt lat="46.04629" lon="6.79665">
        <ele>1487.1</ele>
        <time>2021-01-08T08:16:18Z</time>
      </trkpt>
      <trkpt lat="46.04629" lon="6.79672">
        <ele>1488.2</ele>
        <time>2021-01-08T08:16:22Z</time>
      </trkpt>
      <trkpt lat="46.04631" lon="6.79677">
        <ele>1488.9</ele>
        <time>2021-01-08T08:16:26Z</time>
      </trkpt>
      <trkpt lat="46.04633" lon="6.79683">
        <ele>1489.9</ele>
        <time>2021-01-08T08:16:31Z</time>
      </trkpt>
      <trkpt lat="46.04635" lon="6.79688">
        <ele>1491.2</ele>
        <time>2021-01-08T08:16:37Z</time>
      </trkpt>
      <trkpt lat="46.04636" lon="6.79694">
        <ele>1492.5</ele>
        <time>2021-01-08T08:16:43Z</time>
      </trkpt>
      <trkpt lat="46.04632" lon="6.79698">
        <ele>1494.9</ele>
        <time>2021-01-08T08:16:51Z</time>
      </trkpt>
      <trkpt lat="46.04633" lon="6.79704">
        <ele>1496</ele>
        <time>2021-01-08T08:16:58Z</time>
      </trkpt>
      <trkpt lat="46.04634" lon="6.79709">
        <ele>1496.6</ele>
        <time>2021-01-08T08:17:02Z</time>
      </trkpt>
      <trkpt lat="46.04636" lon="6.79714">
        <ele>1497.8</ele>
        <time>2021-01-08T08:17:08Z</time>
      </trkpt>
      <trkpt lat="46.04635" lon="6.79721">
        <ele>1499.3</ele>
        <time>2021-01-08T08:17:13Z</time>
      </trkpt>
      <trkpt lat="46.04633" lon="6.79728">
        <ele>1501.2</ele>
        <time>2021-01-08T08:17:18Z</time>
      </trkpt>
      <trkpt lat="46.04629" lon="6.79728">
        <ele>1503.7</ele>
        <time>2021-01-08T08:17:24Z</time>
      </trkpt>
      <trkpt lat="46.04625" lon="6.79727">
        <ele>1505.7</ele>
        <time>2021-01-08T08:17:30Z</time>
      </trkpt>
      <trkpt lat="46.0462" lon="6.79727">
        <ele>1507.3</ele>
        <time>2021-01-08T08:17:35Z</time>
      </trkpt>
      <trkpt lat="46.04616" lon="6.79728">
        <ele>1509.4</ele>
        <time>2021-01-08T08:17:55Z</time>
      </trkpt>
      <trkpt lat="46.04612" lon="6.79727">
        <ele>1509.9</ele>
        <time>2021-01-08T08:17:59Z</time>
      </trkpt>
      <trkpt lat="46.04608" lon="6.79724">
        <ele>1511.3</ele>
        <time>2021-01-08T08:18:04Z</time>
      </trkpt>
      <trkpt lat="46.04602" lon="6.79722">
        <ele>1512.4</ele>
        <time>2021-01-08T08:18:09Z</time>
      </trkpt>
      <trkpt lat="46.04599" lon="6.79724">
        <ele>1513.2</ele>
        <time>2021-01-08T08:18:14Z</time>
      </trkpt>
      <trkpt lat="46.04596" lon="6.79727">
        <ele>1513.6</ele>
        <time>2021-01-08T08:18:18Z</time>
      </trkpt>
      <trkpt lat="46.04592" lon="6.7973">
        <ele>1514.3</ele>
        <time>2021-01-08T08:18:23Z</time>
      </trkpt>
      <trkpt lat="46.04588" lon="6.79731">
        <ele>1515.3</ele>
        <time>2021-01-08T08:18:27Z</time>
      </trkpt>
      <trkpt lat="46.04584" lon="6.79733">
        <ele>1515.9</ele>
        <time>2021-01-08T08:18:33Z</time>
      </trkpt>
      <trkpt lat="46.04581" lon="6.79729">
        <ele>1518.1</ele>
        <time>2021-01-08T08:18:45Z</time>
      </trkpt>
      <trkpt lat="46.04578" lon="6.79726">
        <ele>1517.5</ele>
        <time>2021-01-08T08:18:53Z</time>
      </trkpt>
      <trkpt lat="46.04574" lon="6.79723">
        <ele>1517.2</ele>
        <time>2021-01-08T08:18:57Z</time>
      </trkpt>
      <trkpt lat="46.0457" lon="6.7972">
        <ele>1516.8</ele>
        <time>2021-01-08T08:19:03Z</time>
      </trkpt>
      <trkpt lat="46.04565" lon="6.79719">
        <ele>1516.7</ele>
        <time>2021-01-08T08:19:08Z</time>
      </trkpt>
      <trkpt lat="46.0456" lon="6.79718">
        <ele>1516.5</ele>
        <time>2021-01-08T08:19:12Z</time>
      </trkpt>
      <trkpt lat="46.04556" lon="6.79719">
        <ele>1516.3</ele>
        <time>2021-01-08T08:19:21Z</time>
      </trkpt>
      <trkpt lat="46.04556" lon="6.79725">
        <ele>1516.4</ele>
        <time>2021-01-08T08:19:28Z</time>
      </trkpt>
      <trkpt lat="46.04558" lon="6.7973">
        <ele>1516.9</ele>
        <time>2021-01-08T08:19:33Z</time>
      </trkpt>
      <trkpt lat="46.04559" lon="6.79737">
        <ele>1517.2</ele>
        <time>2021-01-08T08:19:41Z</time>
      </trkpt>
      <trkpt lat="46.04562" lon="6.79741">
        <ele>1517.8</ele>
        <time>2021-01-08T08:19:46Z</time>
      </trkpt>
      <trkpt lat="46.04564" lon="6.79746">
        <ele>1518.1</ele>
        <time>2021-01-08T08:19:52Z</time>
      </trkpt>
      <trkpt lat="46.04565" lon="6.79752">
        <ele>1518.5</ele>
        <time>2021-01-08T08:19:58Z</time>
      </trkpt>
      <trkpt lat="46.04566" lon="6.79757">
        <ele>1518.7</ele>
        <time>2021-01-08T08:20:04Z</time>
      </trkpt>
      <trkpt lat="46.04567" lon="6.79763">
        <ele>1519.5</ele>
        <time>2021-01-08T08:20:12Z</time>
      </trkpt>
      <trkpt lat="46.0457" lon="6.79767">
        <ele>1520.6</ele>
        <time>2021-01-08T08:20:20Z</time>
      </trkpt>
      <trkpt lat="46.0457" lon="6.79773">
        <ele>1520.9</ele>
        <time>2021-01-08T08:20:24Z</time>
      </trkpt>
      <trkpt lat="46.04571" lon="6.7978">
        <ele>1521.3</ele>
        <time>2021-01-08T08:20:29Z</time>
      </trkpt>
      <trkpt lat="46.04574" lon="6.79784">
        <ele>1522</ele>
        <time>2021-01-08T08:20:36Z</time>
      </trkpt>
      <trkpt lat="46.04575" lon="6.7979">
        <ele>1522.8</ele>
        <time>2021-01-08T08:20:45Z</time>
      </trkpt>
      <trkpt lat="46.04579" lon="6.79793">
        <ele>1523</ele>
        <time>2021-01-08T08:20:55Z</time>
      </trkpt>
      <trkpt lat="46.04583" lon="6.79796">
        <ele>1523.6</ele>
        <time>2021-01-08T08:21:01Z</time>
      </trkpt>
      <trkpt lat="46.04585" lon="6.79801">
        <ele>1524.2</ele>
        <time>2021-01-08T08:21:08Z</time>
      </trkpt>
      <trkpt lat="46.04588" lon="6.79805">
        <ele>1525.5</ele>
        <time>2021-01-08T08:21:20Z</time>
      </trkpt>
      <trkpt lat="46.04591" lon="6.7981">
        <ele>1527.9</ele>
        <time>2021-01-08T08:21:31Z</time>
      </trkpt>
      <trkpt lat="46.04592" lon="6.79812">
        <ele>1528.7</ele>
        <time>2021-01-08T08:21:43Z</time>
      </trkpt>
      <trkpt lat="46.04597" lon="6.79816">
        <ele>1530.1</ele>
        <time>2021-01-08T08:21:47Z</time>
      </trkpt>
      <trkpt lat="46.046" lon="6.7982">
        <ele>1531.1</ele>
        <time>2021-01-08T08:21:54Z</time>
      </trkpt>
      <trkpt lat="46.04601" lon="6.79824">
        <ele>1532.5</ele>
        <time>2021-01-08T08:22:18Z</time>
      </trkpt>
      <trkpt lat="46.04592" lon="6.79827">
        <ele>1538.8</ele>
        <time>2021-01-08T08:22:23Z</time>
      </trkpt>
      <trkpt lat="46.04594" lon="6.79831">
        <ele>1539.9</ele>
        <time>2021-01-08T08:22:28Z</time>
      </trkpt>
      <trkpt lat="46.04596" lon="6.79837">
        <ele>1541.2</ele>
        <time>2021-01-08T08:22:38Z</time>
      </trkpt>
      <trkpt lat="46.046" lon="6.79841">
        <ele>1543</ele>
        <time>2021-01-08T08:22:47Z</time>
      </trkpt>
      <trkpt lat="46.04603" lon="6.79845">
        <ele>1544.2</ele>
        <time>2021-01-08T08:22:54Z</time>
      </trkpt>
      <trkpt lat="46.04602" lon="6.79851">
        <ele>1544.5</ele>
        <time>2021-01-08T08:23:00Z</time>
      </trkpt>
      <trkpt lat="46.04605" lon="6.79856">
        <ele>1544.9</ele>
        <time>2021-01-08T08:23:09Z</time>
      </trkpt>
      <trkpt lat="46.04607" lon="6.79862">
        <ele>1545.1</ele>
        <time>2021-01-08T08:23:14Z</time>
      </trkpt>
      <trkpt lat="46.04607" lon="6.79867">
        <ele>1547.2</ele>
        <time>2021-01-08T08:23:27Z</time>
      </trkpt>
      <trkpt lat="46.04608" lon="6.79873">
        <ele>1548.9</ele>
        <time>2021-01-08T08:23:36Z</time>
      </trkpt>
      <trkpt lat="46.04612" lon="6.79874">
        <ele>1550.3</ele>
        <time>2021-01-08T08:23:50Z</time>
      </trkpt>
      <trkpt lat="46.04613" lon="6.79879">
        <ele>1551.9</ele>
        <time>2021-01-08T08:24:05Z</time>
      </trkpt>
      <trkpt lat="46.04617" lon="6.79885">
        <ele>1551.7</ele>
        <time>2021-01-08T08:24:10Z</time>
      </trkpt>
      <trkpt lat="46.04619" lon="6.79889">
        <ele>1552.6</ele>
        <time>2021-01-08T08:24:15Z</time>
      </trkpt>
      <trkpt lat="46.04623" lon="6.79893">
        <ele>1553.1</ele>
        <time>2021-01-08T08:24:22Z</time>
      </trkpt>
      <trkpt lat="46.04625" lon="6.79897">
        <ele>1555.2</ele>
        <time>2021-01-08T08:24:51Z</time>
      </trkpt>
      <trkpt lat="46.04628" lon="6.79903">
        <ele>1555.3</ele>
        <time>2021-01-08T08:24:56Z</time>
      </trkpt>
      <trkpt lat="46.0463" lon="6.79907">
        <ele>1555.4</ele>
        <time>2021-01-08T08:25:01Z</time>
      </trkpt>
      <trkpt lat="46.04634" lon="6.79911">
        <ele>1555.3</ele>
        <time>2021-01-08T08:25:06Z</time>
      </trkpt>
      <trkpt lat="46.04638" lon="6.79913">
        <ele>1555.4</ele>
        <time>2021-01-08T08:25:11Z</time>
      </trkpt>
      <trkpt lat="46.04642" lon="6.79917">
        <ele>1555.2</ele>
        <time>2021-01-08T08:25:15Z</time>
      </trkpt>
      <trkpt lat="46.04647" lon="6.7992">
        <ele>1555.5</ele>
        <time>2021-01-08T08:25:20Z</time>
      </trkpt>
      <trkpt lat="46.0465" lon="6.79922">
        <ele>1556.3</ele>
        <time>2021-01-08T08:25:46Z</time>
      </trkpt>
      <trkpt lat="46.04655" lon="6.79925">
        <ele>1555.9</ele>
        <time>2021-01-08T08:25:50Z</time>
      </trkpt>
      <trkpt lat="46.04659" lon="6.79929">
        <ele>1555.1</ele>
        <time>2021-01-08T08:25:55Z</time>
      </trkpt>
      <trkpt lat="46.04662" lon="6.79933">
        <ele>1554.4</ele>
        <time>2021-01-08T08:26:02Z</time>
      </trkpt>
      <trkpt lat="46.04665" lon="6.79937">
        <ele>1554</ele>
        <time>2021-01-08T08:26:08Z</time>
      </trkpt>
      <trkpt lat="46.04667" lon="6.79941">
        <ele>1554</ele>
        <time>2021-01-08T08:26:14Z</time>
      </trkpt>
      <trkpt lat="46.04666" lon="6.79947">
        <ele>1554.1</ele>
        <time>2021-01-08T08:26:21Z</time>
      </trkpt>
      <trkpt lat="46.04665" lon="6.79953">
        <ele>1554.3</ele>
        <time>2021-01-08T08:26:27Z</time>
      </trkpt>
      <trkpt lat="46.04666" lon="6.79958">
        <ele>1554.4</ele>
        <time>2021-01-08T08:26:31Z</time>
      </trkpt>
      <trkpt lat="46.04667" lon="6.79964">
        <ele>1555</ele>
        <time>2021-01-08T08:26:36Z</time>
      </trkpt>
      <trkpt lat="46.04668" lon="6.7997">
        <ele>1555</ele>
        <time>2021-01-08T08:26:44Z</time>
      </trkpt>
      <trkpt lat="46.04666" lon="6.79975">
        <ele>1556.3</ele>
        <time>2021-01-08T08:26:57Z</time>
      </trkpt>
      <trkpt lat="46.04662" lon="6.79976">
        <ele>1559.1</ele>
        <time>2021-01-08T08:27:41Z</time>
      </trkpt>
      <trkpt lat="46.04658" lon="6.79974">
        <ele>1559.7</ele>
        <time>2021-01-08T08:27:48Z</time>
      </trkpt>
      <trkpt lat="46.04654" lon="6.79973">
        <ele>1560.2</ele>
        <time>2021-01-08T08:27:53Z</time>
      </trkpt>
      <trkpt lat="46.04653" lon="6.79979">
        <ele>1561.8</ele>
        <time>2021-01-08T08:28:03Z</time>
      </trkpt>
      <trkpt lat="46.04654" lon="6.79984">
        <ele>1563.1</ele>
        <time>2021-01-08T08:28:10Z</time>
      </trkpt>
      <trkpt lat="46.04654" lon="6.7999">
        <ele>1564.8</ele>
        <time>2021-01-08T08:28:19Z</time>
      </trkpt>
      <trkpt lat="46.04654" lon="6.79997">
        <ele>1565.8</ele>
        <time>2021-01-08T08:28:23Z</time>
      </trkpt>
      <trkpt lat="46.04652" lon="6.80003">
        <ele>1567</ele>
        <time>2021-01-08T08:28:28Z</time>
      </trkpt>
      <trkpt lat="46.04655" lon="6.80007">
        <ele>1568.7</ele>
        <time>2021-01-08T08:28:37Z</time>
      </trkpt>
      <trkpt lat="46.04657" lon="6.80013">
        <ele>1570.3</ele>
        <time>2021-01-08T08:28:48Z</time>
      </trkpt>
      <trkpt lat="46.04658" lon="6.80019">
        <ele>1571.2</ele>
        <time>2021-01-08T08:28:54Z</time>
      </trkpt>
      <trkpt lat="46.0466" lon="6.80024">
        <ele>1571.8</ele>
        <time>2021-01-08T08:29:01Z</time>
      </trkpt>
      <trkpt lat="46.04661" lon="6.8003">
        <ele>1572.5</ele>
        <time>2021-01-08T08:29:06Z</time>
      </trkpt>
      <trkpt lat="46.04662" lon="6.80036">
        <ele>1573.3</ele>
        <time>2021-01-08T08:29:11Z</time>
      </trkpt>
      <trkpt lat="46.04665" lon="6.8004">
        <ele>1574.7</ele>
        <time>2021-01-08T08:29:20Z</time>
      </trkpt>
      <trkpt lat="46.04669" lon="6.80042">
        <ele>1576.2</ele>
        <time>2021-01-08T08:29:29Z</time>
      </trkpt>
      <trkpt lat="46.04668" lon="6.80048">
        <ele>1578.8</ele>
        <time>2021-01-08T08:29:42Z</time>
      </trkpt>
      <trkpt lat="46.04666" lon="6.80053">
        <ele>1580.8</ele>
        <time>2021-01-08T08:29:49Z</time>
      </trkpt>
      <trkpt lat="46.04661" lon="6.80054">
        <ele>1583.6</ele>
        <time>2021-01-08T08:30:01Z</time>
      </trkpt>
      <trkpt lat="46.04663" lon="6.80059">
        <ele>1586.6</ele>
        <time>2021-01-08T08:30:22Z</time>
      </trkpt>
      <trkpt lat="46.04664" lon="6.80064">
        <ele>1587.1</ele>
        <time>2021-01-08T08:30:27Z</time>
      </trkpt>
      <trkpt lat="46.04667" lon="6.80069">
        <ele>1586.8</ele>
        <time>2021-01-08T08:30:31Z</time>
      </trkpt>
      <trkpt lat="46.04668" lon="6.80075">
        <ele>1587.9</ele>
        <time>2021-01-08T08:30:41Z</time>
      </trkpt>
      <trkpt lat="46.04671" lon="6.80078">
        <ele>1588.2</ele>
        <time>2021-01-08T08:30:50Z</time>
      </trkpt>
      <trkpt lat="46.04675" lon="6.80079">
        <ele>1588.1</ele>
        <time>2021-01-08T08:30:55Z</time>
      </trkpt>
      <trkpt lat="46.04673" lon="6.80085">
        <ele>1587.8</ele>
        <time>2021-01-08T08:31:11Z</time>
      </trkpt>
      <trkpt lat="46.04669" lon="6.80088">
        <ele>1588</ele>
        <time>2021-01-08T08:31:16Z</time>
      </trkpt>
      <trkpt lat="46.04666" lon="6.80093">
        <ele>1588.4</ele>
        <time>2021-01-08T08:31:23Z</time>
      </trkpt>
      <trkpt lat="46.04662" lon="6.80095">
        <ele>1588.8</ele>
        <time>2021-01-08T08:31:29Z</time>
      </trkpt>
      <trkpt lat="46.04665" lon="6.80099">
        <ele>1591.7</ele>
        <time>2021-01-08T08:31:54Z</time>
      </trkpt>
      <trkpt lat="46.04666" lon="6.80105">
        <ele>1592.4</ele>
        <time>2021-01-08T08:32:02Z</time>
      </trkpt>
      <trkpt lat="46.04669" lon="6.8011">
        <ele>1594.1</ele>
        <time>2021-01-08T08:32:14Z</time>
      </trkpt>
      <trkpt lat="46.04665" lon="6.80111">
        <ele>1595.5</ele>
        <time>2021-01-08T08:32:23Z</time>
      </trkpt>
      <trkpt lat="46.04661" lon="6.80111">
        <ele>1596.2</ele>
        <time>2021-01-08T08:32:28Z</time>
      </trkpt>
      <trkpt lat="46.04657" lon="6.80112">
        <ele>1597.8</ele>
        <time>2021-01-08T08:32:38Z</time>
      </trkpt>
      <trkpt lat="46.04653" lon="6.8011">
        <ele>1599.5</ele>
        <time>2021-01-08T08:33:01Z</time>
      </trkpt>
      <trkpt lat="46.04655" lon="6.80115">
        <ele>1604.8</ele>
        <time>2021-01-08T08:33:21Z</time>
      </trkpt>
      <trkpt lat="46.04656" lon="6.80121">
        <ele>1606.5</ele>
        <time>2021-01-08T08:33:29Z</time>
      </trkpt>
      <trkpt lat="46.04659" lon="6.80125">
        <ele>1608.2</ele>
        <time>2021-01-08T08:33:37Z</time>
      </trkpt>
      <trkpt lat="46.04659" lon="6.80131">
        <ele>1609.7</ele>
        <time>2021-01-08T08:33:49Z</time>
      </trkpt>
      <trkpt lat="46.04656" lon="6.80134">
        <ele>1611.7</ele>
        <time>2021-01-08T08:33:54Z</time>
      </trkpt>
      <trkpt lat="46.04653" lon="6.80133">
        <ele>1615.5</ele>
        <time>2021-01-08T08:34:17Z</time>
      </trkpt>
      <trkpt lat="46.04648" lon="6.80129">
        <ele>1620.3</ele>
        <time>2021-01-08T08:34:21Z</time>
      </trkpt>
      <trkpt lat="46.04644" lon="6.80128">
        <ele>1621.6</ele>
        <time>2021-01-08T08:34:27Z</time>
      </trkpt>
      <trkpt lat="46.0464" lon="6.80128">
        <ele>1623.1</ele>
        <time>2021-01-08T08:34:32Z</time>
      </trkpt>
      <trkpt lat="46.04636" lon="6.80128">
        <ele>1625.3</ele>
        <time>2021-01-08T08:34:39Z</time>
      </trkpt>
      <trkpt lat="46.04632" lon="6.80129">
        <ele>1627</ele>
        <time>2021-01-08T08:34:47Z</time>
      </trkpt>
      <trkpt lat="46.04627" lon="6.80129">
        <ele>1628.2</ele>
        <time>2021-01-08T08:34:52Z</time>
      </trkpt>
      <trkpt lat="46.04623" lon="6.80128">
        <ele>1629.7</ele>
        <time>2021-01-08T08:34:58Z</time>
      </trkpt>
      <trkpt lat="46.04618" lon="6.80127">
        <ele>1631.5</ele>
        <time>2021-01-08T08:35:04Z</time>
      </trkpt>
      <trkpt lat="46.04614" lon="6.80128">
        <ele>1632.7</ele>
        <time>2021-01-08T08:35:09Z</time>
      </trkpt>
      <trkpt lat="46.04611" lon="6.80127">
        <ele>1633.6</ele>
        <time>2021-01-08T08:35:13Z</time>
      </trkpt>
      <trkpt lat="46.04606" lon="6.80129">
        <ele>1634.5</ele>
        <time>2021-01-08T08:35:18Z</time>
      </trkpt>
      <trkpt lat="46.04604" lon="6.80134">
        <ele>1637</ele>
        <time>2021-01-08T08:35:26Z</time>
      </trkpt>
      <trkpt lat="46.04602" lon="6.80134">
        <ele>1640.2</ele>
        <time>2021-01-08T08:35:58Z</time>
      </trkpt>
      <trkpt lat="46.04597" lon="6.80135">
        <ele>1643.1</ele>
        <time>2021-01-08T08:36:03Z</time>
      </trkpt>
      <trkpt lat="46.04592" lon="6.80136">
        <ele>1643.3</ele>
        <time>2021-01-08T08:36:16Z</time>
      </trkpt>
      <trkpt lat="46.04589" lon="6.80139">
        <ele>1646.2</ele>
        <time>2021-01-08T08:40:04Z</time>
      </trkpt>
      <trkpt lat="46.04586" lon="6.80143">
        <ele>1646.4</ele>
        <time>2021-01-08T08:40:08Z</time>
      </trkpt>
      <trkpt lat="46.04583" lon="6.80149">
        <ele>1646.6</ele>
        <time>2021-01-08T08:40:13Z</time>
      </trkpt>
      <trkpt lat="46.04579" lon="6.80151">
        <ele>1646.8</ele>
        <time>2021-01-08T08:40:17Z</time>
      </trkpt>
      <trkpt lat="46.04574" lon="6.80153">
        <ele>1647.2</ele>
        <time>2021-01-08T08:40:22Z</time>
      </trkpt>
      <trkpt lat="46.04571" lon="6.80157">
        <ele>1647.7</ele>
        <time>2021-01-08T08:40:26Z</time>
      </trkpt>
      <trkpt lat="46.04568" lon="6.80161">
        <ele>1648.3</ele>
        <time>2021-01-08T08:40:32Z</time>
      </trkpt>
      <trkpt lat="46.04566" lon="6.80165">
        <ele>1648.8</ele>
        <time>2021-01-08T08:40:37Z</time>
      </trkpt>
      <trkpt lat="46.04563" lon="6.80169">
        <ele>1649.6</ele>
        <time>2021-01-08T08:40:44Z</time>
      </trkpt>
      <trkpt lat="46.0456" lon="6.80171">
        <ele>1650.1</ele>
        <time>2021-01-08T08:40:49Z</time>
      </trkpt>
      <trkpt lat="46.04556" lon="6.80171">
        <ele>1650.9</ele>
        <time>2021-01-08T08:40:55Z</time>
      </trkpt>
      <trkpt lat="46.04552" lon="6.80172">
        <ele>1652.1</ele>
        <time>2021-01-08T08:41:03Z</time>
      </trkpt>
      <trkpt lat="46.04549" lon="6.80176">
        <ele>1652.8</ele>
        <time>2021-01-08T08:41:12Z</time>
      </trkpt>
      <trkpt lat="46.04551" lon="6.80181">
        <ele>1653.5</ele>
        <time>2021-01-08T08:41:20Z</time>
      </trkpt>
      <trkpt lat="46.04554" lon="6.80185">
        <ele>1655.4</ele>
        <time>2021-01-08T08:41:30Z</time>
      </trkpt>
      <trkpt lat="46.04556" lon="6.8019">
        <ele>1656.5</ele>
        <time>2021-01-08T08:41:35Z</time>
      </trkpt>
      <trkpt lat="46.04556" lon="6.80195">
        <ele>1657.3</ele>
        <time>2021-01-08T08:41:40Z</time>
      </trkpt>
      <trkpt lat="46.04555" lon="6.80201">
        <ele>1658.1</ele>
        <time>2021-01-08T08:41:45Z</time>
      </trkpt>
      <trkpt lat="46.04555" lon="6.80207">
        <ele>1658.9</ele>
        <time>2021-01-08T08:41:51Z</time>
      </trkpt>
      <trkpt lat="46.04554" lon="6.80213">
        <ele>1660.1</ele>
        <time>2021-01-08T08:41:59Z</time>
      </trkpt>
      <trkpt lat="46.04551" lon="6.80216">
        <ele>1661.4</ele>
        <time>2021-01-08T08:42:08Z</time>
      </trkpt>
      <trkpt lat="46.04547" lon="6.80218">
        <ele>1662.6</ele>
        <time>2021-01-08T08:42:15Z</time>
      </trkpt>
      <trkpt lat="46.04543" lon="6.80219">
        <ele>1664.2</ele>
        <time>2021-01-08T08:42:23Z</time>
      </trkpt>
      <trkpt lat="46.04539" lon="6.80219">
        <ele>1664.9</ele>
        <time>2021-01-08T08:42:29Z</time>
      </trkpt>
      <trkpt lat="46.04535" lon="6.80216">
        <ele>1666.7</ele>
        <time>2021-01-08T08:42:37Z</time>
      </trkpt>
      <trkpt lat="46.04532" lon="6.80212">
        <ele>1669</ele>
        <time>2021-01-08T08:42:47Z</time>
      </trkpt>
      <trkpt lat="46.04529" lon="6.80216">
        <ele>1670.8</ele>
        <time>2021-01-08T08:42:56Z</time>
      </trkpt>
      <trkpt lat="46.04527" lon="6.80221">
        <ele>1672.8</ele>
        <time>2021-01-08T08:43:05Z</time>
      </trkpt>
      <trkpt lat="46.04526" lon="6.80226">
        <ele>1673.1</ele>
        <time>2021-01-08T08:43:11Z</time>
      </trkpt>
      <trkpt lat="46.04525" lon="6.80232">
        <ele>1673.8</ele>
        <time>2021-01-08T08:43:21Z</time>
      </trkpt>
      <trkpt lat="46.04521" lon="6.80232">
        <ele>1673.5</ele>
        <time>2021-01-08T08:43:33Z</time>
      </trkpt>
      <trkpt lat="46.04518" lon="6.80229">
        <ele>1674.1</ele>
        <time>2021-01-08T08:43:37Z</time>
      </trkpt>
      <trkpt lat="46.04515" lon="6.80226">
        <ele>1674.8</ele>
        <time>2021-01-08T08:43:42Z</time>
      </trkpt>
      <trkpt lat="46.04513" lon="6.80231">
        <ele>1676</ele>
        <time>2021-01-08T08:43:53Z</time>
      </trkpt>
      <trkpt lat="46.04514" lon="6.80237">
        <ele>1677.4</ele>
        <time>2021-01-08T08:44:09Z</time>
      </trkpt>
      <trkpt lat="46.04516" lon="6.80243">
        <ele>1679.6</ele>
        <time>2021-01-08T08:44:17Z</time>
      </trkpt>
      <trkpt lat="46.04516" lon="6.80249">
        <ele>1680.9</ele>
        <time>2021-01-08T08:44:27Z</time>
      </trkpt>
      <trkpt lat="46.04513" lon="6.80252">
        <ele>1682</ele>
        <time>2021-01-08T08:44:41Z</time>
      </trkpt>
      <trkpt lat="46.04508" lon="6.80247">
        <ele>1684.1</ele>
        <time>2021-01-08T08:44:46Z</time>
      </trkpt>
      <trkpt lat="46.04504" lon="6.80247">
        <ele>1686.6</ele>
        <time>2021-01-08T08:45:17Z</time>
      </trkpt>
      <trkpt lat="46.045" lon="6.80248">
        <ele>1687.8</ele>
        <time>2021-01-08T08:45:24Z</time>
      </trkpt>
      <trkpt lat="46.04496" lon="6.80251">
        <ele>1688.5</ele>
        <time>2021-01-08T08:45:28Z</time>
      </trkpt>
      <trkpt lat="46.04493" lon="6.80255">
        <ele>1690.7</ele>
        <time>2021-01-08T08:45:36Z</time>
      </trkpt>
      <trkpt lat="46.0449" lon="6.80258">
        <ele>1692.9</ele>
        <time>2021-01-08T08:45:47Z</time>
      </trkpt>
      <trkpt lat="46.04486" lon="6.8026">
        <ele>1694.8</ele>
        <time>2021-01-08T08:45:56Z</time>
      </trkpt>
      <trkpt lat="46.04482" lon="6.80262">
        <ele>1696.8</ele>
        <time>2021-01-08T08:46:03Z</time>
      </trkpt>
      <trkpt lat="46.04478" lon="6.8026">
        <ele>1698.7</ele>
        <time>2021-01-08T08:46:12Z</time>
      </trkpt>
      <trkpt lat="46.04476" lon="6.80255">
        <ele>1700</ele>
        <time>2021-01-08T08:46:19Z</time>
      </trkpt>
      <trkpt lat="46.04473" lon="6.80261">
        <ele>1704.3</ele>
        <time>2021-01-08T08:46:39Z</time>
      </trkpt>
      <trkpt lat="46.04473" lon="6.80267">
        <ele>1704.7</ele>
        <time>2021-01-08T08:46:58Z</time>
      </trkpt>
      <trkpt lat="46.04474" lon="6.80272">
        <ele>1705</ele>
        <time>2021-01-08T08:47:04Z</time>
      </trkpt>
      <trkpt lat="46.04474" lon="6.80278">
        <ele>1705.3</ele>
        <time>2021-01-08T08:47:11Z</time>
      </trkpt>
      <trkpt lat="46.04476" lon="6.80284">
        <ele>1705.9</ele>
        <time>2021-01-08T08:47:30Z</time>
      </trkpt>
      <trkpt lat="46.0448" lon="6.80287">
        <ele>1706.1</ele>
        <time>2021-01-08T08:47:37Z</time>
      </trkpt>
      <trkpt lat="46.04482" lon="6.80291">
        <ele>1706.3</ele>
        <time>2021-01-08T08:47:45Z</time>
      </trkpt>
      <trkpt lat="46.04486" lon="6.80293">
        <ele>1706.7</ele>
        <time>2021-01-08T08:47:52Z</time>
      </trkpt>
      <trkpt lat="46.0449" lon="6.80295">
        <ele>1707.1</ele>
        <time>2021-01-08T08:48:01Z</time>
      </trkpt>
      <trkpt lat="46.04494" lon="6.80299">
        <ele>1707.9</ele>
        <time>2021-01-08T08:48:12Z</time>
      </trkpt>
      <trkpt lat="46.04497" lon="6.80301">
        <ele>1708.3</ele>
        <time>2021-01-08T08:48:17Z</time>
      </trkpt>
      <trkpt lat="46.04501" lon="6.80303">
        <ele>1709.2</ele>
        <time>2021-01-08T08:48:24Z</time>
      </trkpt>
      <trkpt lat="46.04503" lon="6.80308">
        <ele>1710.2</ele>
        <time>2021-01-08T08:48:30Z</time>
      </trkpt>
      <trkpt lat="46.04503" lon="6.80314">
        <ele>1711.3</ele>
        <time>2021-01-08T08:48:41Z</time>
      </trkpt>
      <trkpt lat="46.04506" lon="6.80318">
        <ele>1711.9</ele>
        <time>2021-01-08T08:48:47Z</time>
      </trkpt>
      <trkpt lat="46.04508" lon="6.80322">
        <ele>1712.5</ele>
        <time>2021-01-08T08:48:52Z</time>
      </trkpt>
      <trkpt lat="46.04511" lon="6.80327">
        <ele>1713.7</ele>
        <time>2021-01-08T08:49:01Z</time>
      </trkpt>
      <trkpt lat="46.04515" lon="6.80326">
        <ele>1715</ele>
        <time>2021-01-08T08:49:18Z</time>
      </trkpt>
      <trkpt lat="46.04517" lon="6.80331">
        <ele>1715.8</ele>
        <time>2021-01-08T08:49:22Z</time>
      </trkpt>
      <trkpt lat="46.04519" lon="6.80337">
        <ele>1716.5</ele>
        <time>2021-01-08T08:49:27Z</time>
      </trkpt>
      <trkpt lat="46.04521" lon="6.80342">
        <ele>1717.3</ele>
        <time>2021-01-08T08:49:33Z</time>
      </trkpt>
      <trkpt lat="46.04521" lon="6.80348">
        <ele>1718.6</ele>
        <time>2021-01-08T08:49:41Z</time>
      </trkpt>
      <trkpt lat="46.04523" lon="6.80353">
        <ele>1719.5</ele>
        <time>2021-01-08T08:49:46Z</time>
      </trkpt>
      <trkpt lat="46.04521" lon="6.80357">
        <ele>1720.8</ele>
        <time>2021-01-08T08:49:53Z</time>
      </trkpt>
      <trkpt lat="46.04518" lon="6.80362">
        <ele>1722.1</ele>
        <time>2021-01-08T08:49:59Z</time>
      </trkpt>
      <trkpt lat="46.04514" lon="6.80365">
        <ele>1723</ele>
        <time>2021-01-08T08:50:04Z</time>
      </trkpt>
      <trkpt lat="46.0451" lon="6.80368">
        <ele>1724.7</ele>
        <time>2021-01-08T08:50:12Z</time>
      </trkpt>
      <trkpt lat="46.04513" lon="6.80373">
        <ele>1725.8</ele>
        <time>2021-01-08T08:50:18Z</time>
      </trkpt>
      <trkpt lat="46.04516" lon="6.80376">
        <ele>1726.8</ele>
        <time>2021-01-08T08:50:23Z</time>
      </trkpt>
      <trkpt lat="46.04519" lon="6.80381">
        <ele>1729.3</ele>
        <time>2021-01-08T08:50:36Z</time>
      </trkpt>
      <trkpt lat="46.04522" lon="6.80384">
        <ele>1729.8</ele>
        <time>2021-01-08T08:50:43Z</time>
      </trkpt>
      <trkpt lat="46.04522" lon="6.8039">
        <ele>1730.3</ele>
        <time>2021-01-08T08:50:49Z</time>
      </trkpt>
      <trkpt lat="46.04521" lon="6.80396">
        <ele>1730.3</ele>
        <time>2021-01-08T08:50:55Z</time>
      </trkpt>
      <trkpt lat="46.04521" lon="6.80402">
        <ele>1730.8</ele>
        <time>2021-01-08T08:51:01Z</time>
      </trkpt>
      <trkpt lat="46.0452" lon="6.80409">
        <ele>1731.2</ele>
        <time>2021-01-08T08:51:06Z</time>
      </trkpt>
      <trkpt lat="46.04518" lon="6.80414">
        <ele>1731.8</ele>
        <time>2021-01-08T08:51:12Z</time>
      </trkpt>
      <trkpt lat="46.04519" lon="6.8042">
        <ele>1734.4</ele>
        <time>2021-01-08T08:51:25Z</time>
      </trkpt>
      <trkpt lat="46.0452" lon="6.80426">
        <ele>1735.6</ele>
        <time>2021-01-08T08:51:30Z</time>
      </trkpt>
      <trkpt lat="46.04519" lon="6.80432">
        <ele>1736.9</ele>
        <time>2021-01-08T08:51:36Z</time>
      </trkpt>
      <trkpt lat="46.04517" lon="6.80437">
        <ele>1737.8</ele>
        <time>2021-01-08T08:51:42Z</time>
      </trkpt>
      <trkpt lat="46.04516" lon="6.80443">
        <ele>1739.3</ele>
        <time>2021-01-08T08:51:54Z</time>
      </trkpt>
      <trkpt lat="46.04516" lon="6.80449">
        <ele>1740</ele>
        <time>2021-01-08T08:52:01Z</time>
      </trkpt>
      <trkpt lat="46.04515" lon="6.80455">
        <ele>1740.6</ele>
        <time>2021-01-08T08:52:07Z</time>
      </trkpt>
      <trkpt lat="46.04514" lon="6.8046">
        <ele>1741.4</ele>
        <time>2021-01-08T08:52:16Z</time>
      </trkpt>
      <trkpt lat="46.04513" lon="6.80466">
        <ele>1742.3</ele>
        <time>2021-01-08T08:52:24Z</time>
      </trkpt>
      <trkpt lat="46.04513" lon="6.80472">
        <ele>1743.5</ele>
        <time>2021-01-08T08:52:31Z</time>
      </trkpt>
      <trkpt lat="46.04517" lon="6.80475">
        <ele>1744.1</ele>
        <time>2021-01-08T08:52:37Z</time>
      </trkpt>
      <trkpt lat="46.04518" lon="6.80481">
        <ele>1745.5</ele>
        <time>2021-01-08T08:52:46Z</time>
      </trkpt>
      <trkpt lat="46.0452" lon="6.80486">
        <ele>1745.9</ele>
        <time>2021-01-08T08:52:51Z</time>
      </trkpt>
      <trkpt lat="46.0452" lon="6.80491">
        <ele>1746.7</ele>
        <time>2021-01-08T08:52:57Z</time>
      </trkpt>
      <trkpt lat="46.04518" lon="6.80497">
        <ele>1747.8</ele>
        <time>2021-01-08T08:53:04Z</time>
      </trkpt>
      <trkpt lat="46.04518" lon="6.80503">
        <ele>1748.3</ele>
        <time>2021-01-08T08:53:10Z</time>
      </trkpt>
      <trkpt lat="46.04517" lon="6.80509">
        <ele>1749.1</ele>
        <time>2021-01-08T08:53:19Z</time>
      </trkpt>
      <trkpt lat="46.04518" lon="6.80515">
        <ele>1749.5</ele>
        <time>2021-01-08T08:53:26Z</time>
      </trkpt>
      <trkpt lat="46.04518" lon="6.8052">
        <ele>1750</ele>
        <time>2021-01-08T08:53:32Z</time>
      </trkpt>
      <trkpt lat="46.04519" lon="6.80526">
        <ele>1751.4</ele>
        <time>2021-01-08T08:53:40Z</time>
      </trkpt>
      <trkpt lat="46.04521" lon="6.80532">
        <ele>1752.7</ele>
        <time>2021-01-08T08:53:45Z</time>
      </trkpt>
      <trkpt lat="46.04523" lon="6.80537">
        <ele>1754.4</ele>
        <time>2021-01-08T08:53:51Z</time>
      </trkpt>
      <trkpt lat="46.04523" lon="6.80542">
        <ele>1755.6</ele>
        <time>2021-01-08T08:53:57Z</time>
      </trkpt>
      <trkpt lat="46.04522" lon="6.80548">
        <ele>1757.7</ele>
        <time>2021-01-08T08:54:05Z</time>
      </trkpt>
      <trkpt lat="46.04521" lon="6.80554">
        <ele>1759.1</ele>
        <time>2021-01-08T08:54:12Z</time>
      </trkpt>
      <trkpt lat="46.04518" lon="6.80558">
        <ele>1760.5</ele>
        <time>2021-01-08T08:54:17Z</time>
      </trkpt>
      <trkpt lat="46.04516" lon="6.80564">
        <ele>1761.6</ele>
        <time>2021-01-08T08:54:22Z</time>
      </trkpt>
      <trkpt lat="46.04514" lon="6.8057">
        <ele>1763.9</ele>
        <time>2021-01-08T08:54:30Z</time>
      </trkpt>
      <trkpt lat="46.04513" lon="6.80575">
        <ele>1765.4</ele>
        <time>2021-01-08T08:54:36Z</time>
      </trkpt>
      <trkpt lat="46.04511" lon="6.80579">
        <ele>1767.3</ele>
        <time>2021-01-08T08:54:43Z</time>
      </trkpt>
      <trkpt lat="46.0451" lon="6.80585">
        <ele>1768.8</ele>
        <time>2021-01-08T08:54:51Z</time>
      </trkpt>
      <trkpt lat="46.0451" lon="6.80592">
        <ele>1769.7</ele>
        <time>2021-01-08T08:54:58Z</time>
      </trkpt>
      <trkpt lat="46.04509" lon="6.80598">
        <ele>1770.6</ele>
        <time>2021-01-08T08:55:05Z</time>
      </trkpt>
      <trkpt lat="46.04508" lon="6.80603">
        <ele>1771.1</ele>
        <time>2021-01-08T08:55:10Z</time>
      </trkpt>
      <trkpt lat="46.04508" lon="6.80609">
        <ele>1771.5</ele>
        <time>2021-01-08T08:55:16Z</time>
      </trkpt>
      <trkpt lat="46.04507" lon="6.80615">
        <ele>1771.7</ele>
        <time>2021-01-08T08:55:23Z</time>
      </trkpt>
      <trkpt lat="46.04508" lon="6.80621">
        <ele>1772.1</ele>
        <time>2021-01-08T08:55:30Z</time>
      </trkpt>
      <trkpt lat="46.04509" lon="6.80627">
        <ele>1772.7</ele>
        <time>2021-01-08T08:55:35Z</time>
      </trkpt>
      <trkpt lat="46.04511" lon="6.80631">
        <ele>1773.2</ele>
        <time>2021-01-08T08:55:40Z</time>
      </trkpt>
      <trkpt lat="46.04513" lon="6.80637">
        <ele>1774.4</ele>
        <time>2021-01-08T08:55:47Z</time>
      </trkpt>
      <trkpt lat="46.04515" lon="6.80642">
        <ele>1776.2</ele>
        <time>2021-01-08T08:55:55Z</time>
      </trkpt>
      <trkpt lat="46.04517" lon="6.80647">
        <ele>1777.2</ele>
        <time>2021-01-08T08:56:02Z</time>
      </trkpt>
      <trkpt lat="46.04517" lon="6.80653">
        <ele>1777.9</ele>
        <time>2021-01-08T08:56:07Z</time>
      </trkpt>
      <trkpt lat="46.04516" lon="6.80659">
        <ele>1778.6</ele>
        <time>2021-01-08T08:56:13Z</time>
      </trkpt>
      <trkpt lat="46.04515" lon="6.80665">
        <ele>1778.7</ele>
        <time>2021-01-08T08:56:18Z</time>
      </trkpt>
      <trkpt lat="46.04517" lon="6.80669">
        <ele>1779.3</ele>
        <time>2021-01-08T08:56:23Z</time>
      </trkpt>
      <trkpt lat="46.0452" lon="6.80674">
        <ele>1780.1</ele>
        <time>2021-01-08T08:56:31Z</time>
      </trkpt>
      <trkpt lat="46.0452" lon="6.8068">
        <ele>1780.6</ele>
        <time>2021-01-08T08:56:55Z</time>
      </trkpt>
      <trkpt lat="46.04523" lon="6.80685">
        <ele>1780.4</ele>
        <time>2021-01-08T08:56:59Z</time>
      </trkpt>
      <trkpt lat="46.04524" lon="6.80692">
        <ele>1780.2</ele>
        <time>2021-01-08T08:57:04Z</time>
      </trkpt>
      <trkpt lat="46.04526" lon="6.80697">
        <ele>1780.2</ele>
        <time>2021-01-08T08:57:11Z</time>
      </trkpt>
      <trkpt lat="46.04527" lon="6.80702">
        <ele>1780.4</ele>
        <time>2021-01-08T08:57:16Z</time>
      </trkpt>
      <trkpt lat="46.04529" lon="6.80708">
        <ele>1780.4</ele>
        <time>2021-01-08T08:57:23Z</time>
      </trkpt>
      <trkpt lat="46.04532" lon="6.80711">
        <ele>1780.5</ele>
        <time>2021-01-08T08:57:29Z</time>
      </trkpt>
      <trkpt lat="46.04535" lon="6.80715">
        <ele>1780.5</ele>
        <time>2021-01-08T08:57:34Z</time>
      </trkpt>
      <trkpt lat="46.04538" lon="6.8072">
        <ele>1780.6</ele>
        <time>2021-01-08T08:57:39Z</time>
      </trkpt>
      <trkpt lat="46.04539" lon="6.80725">
        <ele>1781</ele>
        <time>2021-01-08T08:57:45Z</time>
      </trkpt>
      <trkpt lat="46.04542" lon="6.8073">
        <ele>1781.9</ele>
        <time>2021-01-08T08:57:51Z</time>
      </trkpt>
      <trkpt lat="46.04545" lon="6.80734">
        <ele>1783</ele>
        <time>2021-01-08T08:57:59Z</time>
      </trkpt>
      <trkpt lat="46.04549" lon="6.80737">
        <ele>1783.9</ele>
        <time>2021-01-08T08:58:08Z</time>
      </trkpt>
      <trkpt lat="46.04552" lon="6.8074">
        <ele>1784.8</ele>
        <time>2021-01-08T08:58:14Z</time>
      </trkpt>
      <trkpt lat="46.04557" lon="6.80742">
        <ele>1785.4</ele>
        <time>2021-01-08T08:58:19Z</time>
      </trkpt>
      <trkpt lat="46.04561" lon="6.80744">
        <ele>1786.5</ele>
        <time>2021-01-08T08:58:26Z</time>
      </trkpt>
      <trkpt lat="46.04564" lon="6.80746">
        <ele>1787.6</ele>
        <time>2021-01-08T08:58:36Z</time>
      </trkpt>
      <trkpt lat="46.04567" lon="6.80749">
        <ele>1787.9</ele>
        <time>2021-01-08T08:58:44Z</time>
      </trkpt>
      <trkpt lat="46.0457" lon="6.80752">
        <ele>1788.8</ele>
        <time>2021-01-08T08:58:50Z</time>
      </trkpt>
      <trkpt lat="46.04573" lon="6.80757">
        <ele>1790.2</ele>
        <time>2021-01-08T08:58:58Z</time>
      </trkpt>
      <trkpt lat="46.04576" lon="6.80762">
        <ele>1791.1</ele>
        <time>2021-01-08T08:59:05Z</time>
      </trkpt>
      <trkpt lat="46.0458" lon="6.80764">
        <ele>1792.3</ele>
        <time>2021-01-08T08:59:13Z</time>
      </trkpt>
      <trkpt lat="46.04582" lon="6.80769">
        <ele>1793.2</ele>
        <time>2021-01-08T08:59:19Z</time>
      </trkpt>
      <trkpt lat="46.04584" lon="6.80775">
        <ele>1794.8</ele>
        <time>2021-01-08T08:59:26Z</time>
      </trkpt>
      <trkpt lat="46.04587" lon="6.8078">
        <ele>1795.9</ele>
        <time>2021-01-08T08:59:37Z</time>
      </trkpt>
      <trkpt lat="46.04589" lon="6.80785">
        <ele>1797</ele>
        <time>2021-01-08T08:59:44Z</time>
      </trkpt>
      <trkpt lat="46.04592" lon="6.80788">
        <ele>1796.9</ele>
        <time>2021-01-08T08:59:54Z</time>
      </trkpt>
      <trkpt lat="46.04596" lon="6.8079">
        <ele>1797.4</ele>
        <time>2021-01-08T09:00:03Z</time>
      </trkpt>
      <trkpt lat="46.046" lon="6.80792">
        <ele>1797.9</ele>
        <time>2021-01-08T09:00:09Z</time>
      </trkpt>
      <trkpt lat="46.04603" lon="6.80796">
        <ele>1798.4</ele>
        <time>2021-01-08T09:00:21Z</time>
      </trkpt>
      <trkpt lat="46.04601" lon="6.80802">
        <ele>1799.6</ele>
        <time>2021-01-08T09:00:29Z</time>
      </trkpt>
      <trkpt lat="46.04601" lon="6.80808">
        <ele>1800.5</ele>
        <time>2021-01-08T09:00:36Z</time>
      </trkpt>
      <trkpt lat="46.04597" lon="6.80811">
        <ele>1801.1</ele>
        <time>2021-01-08T09:00:44Z</time>
      </trkpt>
      <trkpt lat="46.04595" lon="6.80816">
        <ele>1802.6</ele>
        <time>2021-01-08T09:00:59Z</time>
      </trkpt>
      <trkpt lat="46.04598" lon="6.8082">
        <ele>1804.2</ele>
        <time>2021-01-08T09:01:21Z</time>
      </trkpt>
      <trkpt lat="46.04602" lon="6.8082">
        <ele>1804.6</ele>
        <time>2021-01-08T09:01:28Z</time>
      </trkpt>
      <trkpt lat="46.04606" lon="6.80819">
        <ele>1804.8</ele>
        <time>2021-01-08T09:01:32Z</time>
      </trkpt>
      <trkpt lat="46.0461" lon="6.8082">
        <ele>1806</ele>
        <time>2021-01-08T09:01:42Z</time>
      </trkpt>
      <trkpt lat="46.04613" lon="6.80823">
        <ele>1807.1</ele>
        <time>2021-01-08T09:01:49Z</time>
      </trkpt>
      <trkpt lat="46.04617" lon="6.80827">
        <ele>1808</ele>
        <time>2021-01-08T09:01:53Z</time>
      </trkpt>
      <trkpt lat="46.04621" lon="6.80827">
        <ele>1809.1</ele>
        <time>2021-01-08T09:01:58Z</time>
      </trkpt>
      <trkpt lat="46.04624" lon="6.80824">
        <ele>1810.6</ele>
        <time>2021-01-08T09:02:05Z</time>
      </trkpt>
      <trkpt lat="46.04628" lon="6.80825">
        <ele>1811.2</ele>
        <time>2021-01-08T09:02:25Z</time>
      </trkpt>
      <trkpt lat="46.04632" lon="6.80828">
        <ele>1811.4</ele>
        <time>2021-01-08T09:02:33Z</time>
      </trkpt>
      <trkpt lat="46.04635" lon="6.80829">
        <ele>1811.7</ele>
        <time>2021-01-08T09:02:39Z</time>
      </trkpt>
      <trkpt lat="46.04636" lon="6.80832">
        <ele>1812.8</ele>
        <time>2021-01-08T09:02:59Z</time>
      </trkpt>
      <trkpt lat="46.04641" lon="6.80843">
        <ele>1815.2</ele>
        <time>2021-01-08T09:03:04Z</time>
      </trkpt>
      <trkpt lat="46.04643" lon="6.80848">
        <ele>1816.5</ele>
        <time>2021-01-08T09:03:10Z</time>
      </trkpt>
      <trkpt lat="46.04648" lon="6.80848">
        <ele>1817.9</ele>
        <time>2021-01-08T09:03:17Z</time>
      </trkpt>
      <trkpt lat="46.04652" lon="6.8085">
        <ele>1818.7</ele>
        <time>2021-01-08T09:03:22Z</time>
      </trkpt>
      <trkpt lat="46.04655" lon="6.80853">
        <ele>1819.4</ele>
        <time>2021-01-08T09:03:27Z</time>
      </trkpt>
      <trkpt lat="46.04653" lon="6.80857">
        <ele>1820</ele>
        <time>2021-01-08T09:03:32Z</time>
      </trkpt>
      <trkpt lat="46.0465" lon="6.8086">
        <ele>1820.9</ele>
        <time>2021-01-08T09:03:37Z</time>
      </trkpt>
      <trkpt lat="46.04645" lon="6.80862">
        <ele>1822.4</ele>
        <time>2021-01-08T09:03:45Z</time>
      </trkpt>
      <trkpt lat="46.04641" lon="6.8086">
        <ele>1823.5</ele>
        <time>2021-01-08T09:03:52Z</time>
      </trkpt>
      <trkpt lat="46.04637" lon="6.80861">
        <ele>1825.6</ele>
        <time>2021-01-08T09:04:02Z</time>
      </trkpt>
      <trkpt lat="46.04634" lon="6.80865">
        <ele>1828.7</ele>
        <time>2021-01-08T09:04:15Z</time>
      </trkpt>
      <trkpt lat="46.04631" lon="6.80868">
        <ele>1830.2</ele>
        <time>2021-01-08T09:04:22Z</time>
      </trkpt>
      <trkpt lat="46.04628" lon="6.80869">
        <ele>1830.6</ele>
        <time>2021-01-08T09:04:29Z</time>
      </trkpt>
      <trkpt lat="46.04624" lon="6.80873">
        <ele>1831.7</ele>
        <time>2021-01-08T09:04:37Z</time>
      </trkpt>
      <trkpt lat="46.04624" lon="6.80875">
        <ele>1833.2</ele>
        <time>2021-01-08T09:04:54Z</time>
      </trkpt>
      <trkpt lat="46.04623" lon="6.80883">
        <ele>1832.8</ele>
        <time>2021-01-08T09:04:59Z</time>
      </trkpt>
      <trkpt lat="46.04621" lon="6.80888">
        <ele>1833.9</ele>
        <time>2021-01-08T09:05:09Z</time>
      </trkpt>
      <trkpt lat="46.04618" lon="6.80891">
        <ele>1836.4</ele>
        <time>2021-01-08T09:05:56Z</time>
      </trkpt>
      <trkpt lat="46.04616" lon="6.80897">
        <ele>1836.6</ele>
        <time>2021-01-08T09:06:00Z</time>
      </trkpt>
      <trkpt lat="46.04614" lon="6.80901">
        <ele>1837</ele>
        <time>2021-01-08T09:06:05Z</time>
      </trkpt>
      <trkpt lat="46.04611" lon="6.80905">
        <ele>1837.3</ele>
        <time>2021-01-08T09:06:10Z</time>
      </trkpt>
      <trkpt lat="46.04607" lon="6.80907">
        <ele>1838.4</ele>
        <time>2021-01-08T09:06:22Z</time>
      </trkpt>
      <trkpt lat="46.04603" lon="6.8091">
        <ele>1839</ele>
        <time>2021-01-08T09:06:28Z</time>
      </trkpt>
      <trkpt lat="46.04599" lon="6.80911">
        <ele>1839.4</ele>
        <time>2021-01-08T09:06:33Z</time>
      </trkpt>
      <trkpt lat="46.04595" lon="6.80913">
        <ele>1841</ele>
        <time>2021-01-08T09:06:44Z</time>
      </trkpt>
      <trkpt lat="46.04591" lon="6.80913">
        <ele>1842.1</ele>
        <time>2021-01-08T09:06:53Z</time>
      </trkpt>
      <trkpt lat="46.04587" lon="6.80913">
        <ele>1842.6</ele>
        <time>2021-01-08T09:07:00Z</time>
      </trkpt>
      <trkpt lat="46.04583" lon="6.80912">
        <ele>1843.3</ele>
        <time>2021-01-08T09:07:07Z</time>
      </trkpt>
      <trkpt lat="46.04579" lon="6.80912">
        <ele>1844.2</ele>
        <time>2021-01-08T09:07:16Z</time>
      </trkpt>
      <trkpt lat="46.04575" lon="6.80914">
        <ele>1845.1</ele>
        <time>2021-01-08T09:07:24Z</time>
      </trkpt>
      <trkpt lat="46.04571" lon="6.80915">
        <ele>1846.1</ele>
        <time>2021-01-08T09:07:31Z</time>
      </trkpt>
      <trkpt lat="46.04567" lon="6.80917">
        <ele>1847</ele>
        <time>2021-01-08T09:07:37Z</time>
      </trkpt>
      <trkpt lat="46.04563" lon="6.80919">
        <ele>1847.8</ele>
        <time>2021-01-08T09:07:43Z</time>
      </trkpt>
      <trkpt lat="46.04562" lon="6.80924">
        <ele>1849.1</ele>
        <time>2021-01-08T09:07:51Z</time>
      </trkpt>
      <trkpt lat="46.04559" lon="6.80928">
        <ele>1851.6</ele>
        <time>2021-01-08T09:08:10Z</time>
      </trkpt>
      <trkpt lat="46.04558" lon="6.8093">
        <ele>1852</ele>
        <time>2021-01-08T09:08:22Z</time>
      </trkpt>
      <trkpt lat="46.04555" lon="6.80934">
        <ele>1853.3</ele>
        <time>2021-01-08T09:08:26Z</time>
      </trkpt>
      <trkpt lat="46.04551" lon="6.80938">
        <ele>1853.7</ele>
        <time>2021-01-08T09:08:32Z</time>
      </trkpt>
      <trkpt lat="46.04548" lon="6.80943">
        <ele>1854.1</ele>
        <time>2021-01-08T09:08:40Z</time>
      </trkpt>
      <trkpt lat="46.04546" lon="6.80947">
        <ele>1855</ele>
        <time>2021-01-08T09:08:47Z</time>
      </trkpt>
      <trkpt lat="46.04543" lon="6.80953">
        <ele>1855.9</ele>
        <time>2021-01-08T09:08:53Z</time>
      </trkpt>
      <trkpt lat="46.04541" lon="6.80958">
        <ele>1856.7</ele>
        <time>2021-01-08T09:08:59Z</time>
      </trkpt>
      <trkpt lat="46.04541" lon="6.80964">
        <ele>1857.7</ele>
        <time>2021-01-08T09:09:06Z</time>
      </trkpt>
      <trkpt lat="46.0454" lon="6.8097">
        <ele>1858.8</ele>
        <time>2021-01-08T09:09:16Z</time>
      </trkpt>
      <trkpt lat="46.04539" lon="6.80975">
        <ele>1859.5</ele>
        <time>2021-01-08T09:09:23Z</time>
      </trkpt>
      <trkpt lat="46.04538" lon="6.80981">
        <ele>1860.6</ele>
        <time>2021-01-08T09:09:32Z</time>
      </trkpt>
      <trkpt lat="46.04536" lon="6.80987">
        <ele>1861.2</ele>
        <time>2021-01-08T09:09:42Z</time>
      </trkpt>
      <trkpt lat="46.04535" lon="6.80993">
        <ele>1863.2</ele>
        <time>2021-01-08T09:09:54Z</time>
      </trkpt>
      <trkpt lat="46.04535" lon="6.80999">
        <ele>1864</ele>
        <time>2021-01-08T09:10:04Z</time>
      </trkpt>
      <trkpt lat="46.04533" lon="6.81004">
        <ele>1865.1</ele>
        <time>2021-01-08T09:10:13Z</time>
      </trkpt>
      <trkpt lat="46.04534" lon="6.8101">
        <ele>1866.1</ele>
        <time>2021-01-08T09:10:19Z</time>
      </trkpt>
      <trkpt lat="46.04532" lon="6.81015">
        <ele>1867.7</ele>
        <time>2021-01-08T09:10:31Z</time>
      </trkpt>
      <trkpt lat="46.04531" lon="6.81021">
        <ele>1867.9</ele>
        <time>2021-01-08T09:10:44Z</time>
      </trkpt>
      <trkpt lat="46.04531" lon="6.81025">
        <ele>1869.1</ele>
        <time>2021-01-08T09:10:58Z</time>
      </trkpt>
      <trkpt lat="46.0453" lon="6.81032">
        <ele>1870.2</ele>
        <time>2021-01-08T09:11:02Z</time>
      </trkpt>
      <trkpt lat="46.04531" lon="6.81038">
        <ele>1871.5</ele>
        <time>2021-01-08T09:11:09Z</time>
      </trkpt>
      <trkpt lat="46.04529" lon="6.81043">
        <ele>1872.7</ele>
        <time>2021-01-08T09:11:20Z</time>
      </trkpt>
      <trkpt lat="46.04528" lon="6.81049">
        <ele>1873.7</ele>
        <time>2021-01-08T09:11:29Z</time>
      </trkpt>
      <trkpt lat="46.04525" lon="6.81054">
        <ele>1874.8</ele>
        <time>2021-01-08T09:11:39Z</time>
      </trkpt>
      <trkpt lat="46.04521" lon="6.81058">
        <ele>1875.8</ele>
        <time>2021-01-08T09:11:48Z</time>
      </trkpt>
      <trkpt lat="46.04518" lon="6.81061">
        <ele>1875.8</ele>
        <time>2021-01-08T09:12:01Z</time>
      </trkpt>
      <trkpt lat="46.04515" lon="6.81066">
        <ele>1876.9</ele>
        <time>2021-01-08T09:12:13Z</time>
      </trkpt>
      <trkpt lat="46.04514" lon="6.81071">
        <ele>1877.2</ele>
        <time>2021-01-08T09:12:19Z</time>
      </trkpt>
      <trkpt lat="46.0451" lon="6.81074">
        <ele>1877.4</ele>
        <time>2021-01-08T09:12:30Z</time>
      </trkpt>
      <trkpt lat="46.04506" lon="6.81073">
        <ele>1878</ele>
        <time>2021-01-08T09:12:39Z</time>
      </trkpt>
      <trkpt lat="46.04502" lon="6.81077">
        <ele>1879.2</ele>
        <time>2021-01-08T09:12:48Z</time>
      </trkpt>
      <trkpt lat="46.04499" lon="6.81081">
        <ele>1880.1</ele>
        <time>2021-01-08T09:13:01Z</time>
      </trkpt>
      <trkpt lat="46.04498" lon="6.81085">
        <ele>1881.1</ele>
        <time>2021-01-08T09:13:20Z</time>
      </trkpt>
      <trkpt lat="46.04492" lon="6.8109">
        <ele>1881.8</ele>
        <time>2021-01-08T09:13:25Z</time>
      </trkpt>
      <trkpt lat="46.0449" lon="6.81096">
        <ele>1882.8</ele>
        <time>2021-01-08T09:13:35Z</time>
      </trkpt>
      <trkpt lat="46.04489" lon="6.81101">
        <ele>1883.9</ele>
        <time>2021-01-08T09:14:04Z</time>
      </trkpt>
      <trkpt lat="46.04484" lon="6.81108">
        <ele>1884.8</ele>
        <time>2021-01-08T09:14:08Z</time>
      </trkpt>
      <trkpt lat="46.04483" lon="6.81113">
        <ele>1885.1</ele>
        <time>2021-01-08T09:14:15Z</time>
      </trkpt>
      <trkpt lat="46.04481" lon="6.81118">
        <ele>1885.7</ele>
        <time>2021-01-08T09:14:44Z</time>
      </trkpt>
      <trkpt lat="46.04482" lon="6.8112">
        <ele>1888.4</ele>
        <time>2021-01-08T09:15:35Z</time>
      </trkpt>
      <trkpt lat="46.04492" lon="6.81121">
        <ele>1888.6</ele>
        <time>2021-01-08T09:15:39Z</time>
      </trkpt>
      <trkpt lat="46.04495" lon="6.81125">
        <ele>1889.3</ele>
        <time>2021-01-08T09:15:51Z</time>
      </trkpt>
      <trkpt lat="46.04499" lon="6.81127">
        <ele>1889.7</ele>
        <time>2021-01-08T09:15:58Z</time>
      </trkpt>
      <trkpt lat="46.04504" lon="6.81125">
        <ele>1889.8</ele>
        <time>2021-01-08T09:16:02Z</time>
      </trkpt>
      <trkpt lat="46.04508" lon="6.81128">
        <ele>1890.2</ele>
        <time>2021-01-08T09:16:19Z</time>
      </trkpt>
      <trkpt lat="46.04508" lon="6.81129">
        <ele>1890.3</ele>
        <time>2021-01-08T09:16:38Z</time>
      </trkpt>
      <trkpt lat="46.04515" lon="6.81133">
        <ele>1891.4</ele>
        <time>2021-01-08T09:16:43Z</time>
      </trkpt>
      <trkpt lat="46.04519" lon="6.81134">
        <ele>1892.1</ele>
        <time>2021-01-08T09:16:52Z</time>
      </trkpt>
      <trkpt lat="46.04521" lon="6.81138">
        <ele>1893</ele>
        <time>2021-01-08T09:17:09Z</time>
      </trkpt>
      <trkpt lat="46.04524" lon="6.81139">
        <ele>1894</ele>
        <time>2021-01-08T09:17:52Z</time>
      </trkpt>
      <trkpt lat="46.04529" lon="6.81144">
        <ele>1897</ele>
        <time>2021-01-08T09:17:57Z</time>
      </trkpt>
      <trkpt lat="46.0453" lon="6.8115">
        <ele>1897.9</ele>
        <time>2021-01-08T09:18:03Z</time>
      </trkpt>
      <trkpt lat="46.04529" lon="6.81156">
        <ele>1899</ele>
        <time>2021-01-08T09:18:10Z</time>
      </trkpt>
      <trkpt lat="46.04526" lon="6.8116">
        <ele>1900.7</ele>
        <time>2021-01-08T09:18:29Z</time>
      </trkpt>
      <trkpt lat="46.04523" lon="6.81165">
        <ele>1902.6</ele>
        <time>2021-01-08T09:18:40Z</time>
      </trkpt>
      <trkpt lat="46.04519" lon="6.81166">
        <ele>1903.8</ele>
        <time>2021-01-08T09:18:54Z</time>
      </trkpt>
      <trkpt lat="46.04516" lon="6.8117">
        <ele>1904.6</ele>
        <time>2021-01-08T09:19:01Z</time>
      </trkpt>
      <trkpt lat="46.04512" lon="6.81173">
        <ele>1905.9</ele>
        <time>2021-01-08T09:19:10Z</time>
      </trkpt>
      <trkpt lat="46.04509" lon="6.81177">
        <ele>1907.5</ele>
        <time>2021-01-08T09:19:21Z</time>
      </trkpt>
      <trkpt lat="46.04508" lon="6.81183">
        <ele>1909.5</ele>
        <time>2021-01-08T09:19:33Z</time>
      </trkpt>
      <trkpt lat="46.04508" lon="6.81187">
        <ele>1910.7</ele>
        <time>2021-01-08T09:19:52Z</time>
      </trkpt>
      <trkpt lat="46.04506" lon="6.8119">
        <ele>1911.6</ele>
        <time>2021-01-08T09:19:57Z</time>
      </trkpt>
      <trkpt lat="46.04503" lon="6.81195">
        <ele>1912</ele>
        <time>2021-01-08T09:20:04Z</time>
      </trkpt>
      <trkpt lat="46.045" lon="6.81196">
        <ele>1912.2</ele>
        <time>2021-01-08T09:20:27Z</time>
      </trkpt>
      <trkpt lat="46.045" lon="6.81202">
        <ele>1912.3</ele>
        <time>2021-01-08T09:20:36Z</time>
      </trkpt>
      <trkpt lat="46.04504" lon="6.81205">
        <ele>1911.6</ele>
        <time>2021-01-08T09:20:41Z</time>
      </trkpt>
      <trkpt lat="46.04508" lon="6.81206">
        <ele>1911.1</ele>
        <time>2021-01-08T09:20:46Z</time>
      </trkpt>
      <trkpt lat="46.04511" lon="6.81206">
        <ele>1910</ele>
        <time>2021-01-08T09:21:10Z</time>
      </trkpt>
      <trkpt lat="46.04515" lon="6.81205">
        <ele>1910</ele>
        <time>2021-01-08T09:21:14Z</time>
      </trkpt>
      <trkpt lat="46.04516" lon="6.81201">
        <ele>1911</ele>
        <time>2021-01-08T09:21:46Z</time>
      </trkpt>
      <trkpt lat="46.04523" lon="6.81204">
        <ele>1911.2</ele>
        <time>2021-01-08T09:21:50Z</time>
      </trkpt>
      <trkpt lat="46.04527" lon="6.81205">
        <ele>1911.3</ele>
        <time>2021-01-08T09:21:56Z</time>
      </trkpt>
      <trkpt lat="46.04532" lon="6.81207">
        <ele>1911.4</ele>
        <time>2021-01-08T09:22:01Z</time>
      </trkpt>
      <trkpt lat="46.04532" lon="6.81214">
        <ele>1911.5</ele>
        <time>2021-01-08T09:22:08Z</time>
      </trkpt>
      <trkpt lat="46.04535" lon="6.81218">
        <ele>1911.7</ele>
        <time>2021-01-08T09:22:26Z</time>
      </trkpt>
      <trkpt lat="46.04533" lon="6.81223">
        <ele>1912</ele>
        <time>2021-01-08T09:22:35Z</time>
      </trkpt>
      <trkpt lat="46.0453" lon="6.81227">
        <ele>1912.1</ele>
        <time>2021-01-08T09:22:44Z</time>
      </trkpt>
      <trkpt lat="46.04527" lon="6.8123">
        <ele>1912.2</ele>
        <time>2021-01-08T09:22:52Z</time>
      </trkpt>
      <trkpt lat="46.04523" lon="6.81233">
        <ele>1912.3</ele>
        <time>2021-01-08T09:23:00Z</time>
      </trkpt>
      <trkpt lat="46.0452" lon="6.81237">
        <ele>1912.4</ele>
        <time>2021-01-08T09:23:11Z</time>
      </trkpt>
      <trkpt lat="46.04518" lon="6.81242">
        <ele>1912.5</ele>
        <time>2021-01-08T09:23:31Z</time>
      </trkpt>
      <trkpt lat="46.04515" lon="6.81247">
        <ele>1912.5</ele>
        <time>2021-01-08T09:23:50Z</time>
      </trkpt>
      <trkpt lat="46.04513" lon="6.81249">
        <ele>1912.5</ele>
        <time>2021-01-08T09:23:57Z</time>
      </trkpt>
      <trkpt lat="46.0451" lon="6.81254">
        <ele>1912.6</ele>
        <time>2021-01-08T09:24:01Z</time>
      </trkpt>
      <trkpt lat="46.04509" lon="6.81259">
        <ele>1912.6</ele>
        <time>2021-01-08T09:24:09Z</time>
      </trkpt>
      <trkpt lat="46.04506" lon="6.81264">
        <ele>1912.7</ele>
        <time>2021-01-08T09:24:17Z</time>
      </trkpt>
      <trkpt lat="46.04504" lon="6.81269">
        <ele>1912.7</ele>
        <time>2021-01-08T09:24:25Z</time>
      </trkpt>
      <trkpt lat="46.04501" lon="6.81273">
        <ele>1912.8</ele>
        <time>2021-01-08T09:24:37Z</time>
      </trkpt>
      <trkpt lat="46.045" lon="6.81279">
        <ele>1913</ele>
        <time>2021-01-08T09:25:14Z</time>
      </trkpt>
      <trkpt lat="46.04499" lon="6.81283">
        <ele>1913.1</ele>
        <time>2021-01-08T09:25:34Z</time>
      </trkpt>
      <trkpt lat="46.04498" lon="6.81292">
        <ele>1913.6</ele>
        <time>2021-01-08T09:25:38Z</time>
      </trkpt>
      <trkpt lat="46.04496" lon="6.81296">
        <ele>1914.2</ele>
        <time>2021-01-08T09:25:46Z</time>
      </trkpt>
      <trkpt lat="46.04494" lon="6.81299">
        <ele>1914.6</ele>
        <time>2021-01-08T09:26:04Z</time>
      </trkpt>
      <trkpt lat="46.04491" lon="6.81303">
        <ele>1915</ele>
        <time>2021-01-08T09:26:14Z</time>
      </trkpt>
      <trkpt lat="46.04495" lon="6.813">
        <ele>1915.2</ele>
        <time>2021-01-08T09:26:34Z</time>
      </trkpt>
      <trkpt lat="46.04498" lon="6.81303">
        <ele>1915.4</ele>
        <time>2021-01-08T09:26:47Z</time>
      </trkpt>
      <trkpt lat="46.04502" lon="6.81304">
        <ele>1915.9</ele>
        <time>2021-01-08T09:26:52Z</time>
      </trkpt>
      <trkpt lat="46.04506" lon="6.81306">
        <ele>1916.8</ele>
        <time>2021-01-08T09:27:02Z</time>
      </trkpt>
      <trkpt lat="46.0451" lon="6.81307">
        <ele>1917.5</ele>
        <time>2021-01-08T09:27:09Z</time>
      </trkpt>
      <trkpt lat="46.04514" lon="6.81305">
        <ele>1918.5</ele>
        <time>2021-01-08T09:27:19Z</time>
      </trkpt>
      <trkpt lat="46.04514" lon="6.81304">
        <ele>1918.9</ele>
        <time>2021-01-08T09:27:41Z</time>
      </trkpt>
      <trkpt lat="46.04523" lon="6.81302">
        <ele>1919</ele>
        <time>2021-01-08T09:27:45Z</time>
      </trkpt>
      <trkpt lat="46.04526" lon="6.81305">
        <ele>1919.1</ele>
        <time>2021-01-08T09:27:55Z</time>
      </trkpt>
      <trkpt lat="46.0453" lon="6.81307">
        <ele>1919.2</ele>
        <time>2021-01-08T09:28:04Z</time>
      </trkpt>
      <trkpt lat="46.04534" lon="6.8131">
        <ele>1919.5</ele>
        <time>2021-01-08T09:28:13Z</time>
      </trkpt>
      <trkpt lat="46.04537" lon="6.81311">
        <ele>1919.6</ele>
        <time>2021-01-08T09:28:22Z</time>
      </trkpt>
      <trkpt lat="46.04542" lon="6.81308">
        <ele>1919.9</ele>
        <time>2021-01-08T09:28:26Z</time>
      </trkpt>
      <trkpt lat="46.04545" lon="6.81308">
        <ele>1920.2</ele>
        <time>2021-01-08T09:28:53Z</time>
      </trkpt>
      <trkpt lat="46.04551" lon="6.81306">
        <ele>1920.8</ele>
        <time>2021-01-08T09:28:58Z</time>
      </trkpt>
      <trkpt lat="46.04552" lon="6.81312">
        <ele>1920.6</ele>
        <time>2021-01-08T09:29:25Z</time>
      </trkpt>
      <trkpt lat="46.04551" lon="6.81318">
        <ele>1920.4</ele>
        <time>2021-01-08T09:29:32Z</time>
      </trkpt>
      <trkpt lat="46.04549" lon="6.81322">
        <ele>1920.3</ele>
        <time>2021-01-08T09:29:38Z</time>
      </trkpt>
      <trkpt lat="46.04545" lon="6.81325">
        <ele>1920.2</ele>
        <time>2021-01-08T09:29:44Z</time>
      </trkpt>
      <trkpt lat="46.04541" lon="6.81328">
        <ele>1920.1</ele>
        <time>2021-01-08T09:29:51Z</time>
      </trkpt>
      <trkpt lat="46.04538" lon="6.81332">
        <ele>1920.1</ele>
        <time>2021-01-08T09:30:04Z</time>
      </trkpt>
      <trkpt lat="46.04537" lon="6.81338">
        <ele>1920.2</ele>
        <time>2021-01-08T09:30:35Z</time>
      </trkpt>
      <trkpt lat="46.04533" lon="6.81339">
        <ele>1921.1</ele>
        <time>2021-01-08T09:30:44Z</time>
      </trkpt>
      <trkpt lat="46.04537" lon="6.81337">
        <ele>1921.2</ele>
        <time>2021-01-08T09:30:58Z</time>
      </trkpt>
      <trkpt lat="46.04538" lon="6.81341">
        <ele>1921.4</ele>
        <time>2021-01-08T09:31:37Z</time>
      </trkpt>
      <trkpt lat="46.04548" lon="6.81341">
        <ele>1921.6</ele>
        <time>2021-01-08T09:31:42Z</time>
      </trkpt>
      <trkpt lat="46.04551" lon="6.81337">
        <ele>1922.3</ele>
        <time>2021-01-08T09:31:51Z</time>
      </trkpt>
      <trkpt lat="46.04554" lon="6.81337">
        <ele>1922.6</ele>
        <time>2021-01-08T09:32:13Z</time>
      </trkpt>
      <trkpt lat="46.04557" lon="6.8135">
        <ele>1924.4</ele>
        <time>2021-01-08T09:32:17Z</time>
      </trkpt>
      <trkpt lat="46.04561" lon="6.8135">
        <ele>1925.8</ele>
        <time>2021-01-08T09:32:38Z</time>
      </trkpt>
      <trkpt lat="46.04566" lon="6.81354">
        <ele>1926</ele>
        <time>2021-01-08T09:32:43Z</time>
      </trkpt>
      <trkpt lat="46.0457" lon="6.81359">
        <ele>1926</ele>
        <time>2021-01-08T09:32:47Z</time>
      </trkpt>
      <trkpt lat="46.04571" lon="6.81358">
        <ele>1926.6</ele>
        <time>2021-01-08T09:33:18Z</time>
      </trkpt>
      <trkpt lat="46.04569" lon="6.8135">
        <ele>1926.7</ele>
        <time>2021-01-08T09:33:23Z</time>
      </trkpt>
      <trkpt lat="46.04569" lon="6.8135">
        <ele>1926.7</ele>
        <time>2021-01-08T09:33:45Z</time>
      </trkpt>
      <trkpt lat="46.04572" lon="6.81341">
        <ele>1926.9</ele>
        <time>2021-01-08T09:33:50Z</time>
      </trkpt>
      <trkpt lat="46.04575" lon="6.81345">
        <ele>1926.9</ele>
        <time>2021-01-08T09:34:00Z</time>
      </trkpt>
      <trkpt lat="46.04574" lon="6.8135">
        <ele>1926.9</ele>
        <time>2021-01-08T09:34:07Z</time>
      </trkpt>
      <trkpt lat="46.04573" lon="6.81356">
        <ele>1926.9</ele>
        <time>2021-01-08T09:34:13Z</time>
      </trkpt>
      <trkpt lat="46.04575" lon="6.81357">
        <ele>1927.1</ele>
        <time>2021-01-08T09:34:57Z</time>
      </trkpt>
      <trkpt lat="46.0458" lon="6.81358">
        <ele>1928.4</ele>
        <time>2021-01-08T09:35:03Z</time>
      </trkpt>
      <trkpt lat="46.04577" lon="6.81358">
        <ele>1928.7</ele>
        <time>2021-01-08T09:35:47Z</time>
      </trkpt>
      <trkpt lat="46.04577" lon="6.81372">
        <ele>1930.2</ele>
        <time>2021-01-08T09:35:51Z</time>
      </trkpt>
      <trkpt lat="46.04577" lon="6.81372">
        <ele>1930.2</ele>
        <time>2021-01-08T09:36:14Z</time>
      </trkpt>
      <trkpt lat="46.04575" lon="6.81386">
        <ele>1931.6</ele>
        <time>2021-01-08T09:36:19Z</time>
      </trkpt>
      <trkpt lat="46.04575" lon="6.81386">
        <ele>1931.6</ele>
        <time>2021-01-08T09:36:49Z</time>
      </trkpt>
      <trkpt lat="46.04572" lon="6.81398">
        <ele>1932</ele>
        <time>2021-01-08T09:36:54Z</time>
      </trkpt>
      <trkpt lat="46.04572" lon="6.81392">
        <ele>1932.2</ele>
        <time>2021-01-08T09:36:58Z</time>
      </trkpt>
      <trkpt lat="46.04572" lon="6.81389">
        <ele>1932.4</ele>
        <time>2021-01-08T09:37:04Z</time>
      </trkpt>
      <trkpt lat="46.04575" lon="6.81374">
        <ele>1933.2</ele>
        <time>2021-01-08T09:37:08Z</time>
      </trkpt>
      <trkpt lat="46.0458" lon="6.81369">
        <ele>1933.8</ele>
        <time>2021-01-08T09:37:13Z</time>
      </trkpt>
      <trkpt lat="46.04579" lon="6.81363">
        <ele>1935</ele>
        <time>2021-01-08T09:37:20Z</time>
      </trkpt>
      <trkpt lat="46.04582" lon="6.81359">
        <ele>1935.9</ele>
        <time>2021-01-08T09:37:25Z</time>
      </trkpt>
      <trkpt lat="46.04582" lon="6.81359">
        <ele>1935.9</ele>
        <time>2021-01-08T09:37:32Z</time>
      </trkpt>
      <trkpt lat="46.04589" lon="6.8135">
        <ele>1937.6</ele>
        <time>2021-01-08T09:37:37Z</time>
      </trkpt>
      <trkpt lat="46.04588" lon="6.81345">
        <ele>1942.3</ele>
        <time>2021-01-08T09:38:07Z</time>
      </trkpt>
      <trkpt lat="46.04589" lon="6.81339">
        <ele>1943.1</ele>
        <time>2021-01-08T09:38:14Z</time>
      </trkpt>
      <trkpt lat="46.04587" lon="6.81335">
        <ele>1944.8</ele>
        <time>2021-01-08T09:38:20Z</time>
      </trkpt>
      <trkpt lat="46.04585" lon="6.8133">
        <ele>1946</ele>
        <time>2021-01-08T09:38:25Z</time>
      </trkpt>
      <trkpt lat="46.04586" lon="6.81328">
        <ele>1946.3</ele>
        <time>2021-01-08T09:38:50Z</time>
      </trkpt>
      <trkpt lat="46.04599" lon="6.81323">
        <ele>1954</ele>
        <time>2021-01-08T09:38:55Z</time>
      </trkpt>
      <trkpt lat="46.04602" lon="6.81326">
        <ele>1956.8</ele>
        <time>2021-01-08T09:39:09Z</time>
      </trkpt>
      <trkpt lat="46.04602" lon="6.81331">
        <ele>1957.1</ele>
        <time>2021-01-08T09:39:14Z</time>
      </trkpt>
      <trkpt lat="46.04601" lon="6.81337">
        <ele>1957.3</ele>
        <time>2021-01-08T09:39:19Z</time>
      </trkpt>
      <trkpt lat="46.04602" lon="6.81343">
        <ele>1957.4</ele>
        <time>2021-01-08T09:39:28Z</time>
      </trkpt>
      <trkpt lat="46.04599" lon="6.81346">
        <ele>1957.6</ele>
        <time>2021-01-08T09:39:53Z</time>
      </trkpt>
      <trkpt lat="46.04602" lon="6.81355">
        <ele>1958.2</ele>
        <time>2021-01-08T09:39:57Z</time>
      </trkpt>
      <trkpt lat="46.04601" lon="6.81362">
        <ele>1958.4</ele>
        <time>2021-01-08T09:40:07Z</time>
      </trkpt>
      <trkpt lat="46.04602" lon="6.81368">
        <ele>1958.7</ele>
        <time>2021-01-08T09:40:17Z</time>
      </trkpt>
      <trkpt lat="46.04601" lon="6.81369">
        <ele>1958.8</ele>
        <time>2021-01-08T09:40:36Z</time>
      </trkpt>
      <trkpt lat="46.04594" lon="6.81383">
        <ele>1959.4</ele>
        <time>2021-01-08T09:40:40Z</time>
      </trkpt>
      <trkpt lat="46.04593" lon="6.81388">
        <ele>1959.8</ele>
        <time>2021-01-08T09:40:49Z</time>
      </trkpt>
      <trkpt lat="46.04594" lon="6.81394">
        <ele>1960.4</ele>
        <time>2021-01-08T09:41:03Z</time>
      </trkpt>
      <trkpt lat="46.04592" lon="6.81399">
        <ele>1961</ele>
        <time>2021-01-08T09:41:10Z</time>
      </trkpt>
      <trkpt lat="46.0459" lon="6.81404">
        <ele>1961.4</ele>
        <time>2021-01-08T09:41:16Z</time>
      </trkpt>
      <trkpt lat="46.04587" lon="6.81407">
        <ele>1962.2</ele>
        <time>2021-01-08T09:41:25Z</time>
      </trkpt>
      <trkpt lat="46.04585" lon="6.81412">
        <ele>1963</ele>
        <time>2021-01-08T09:41:32Z</time>
      </trkpt>
      <trkpt lat="46.04582" lon="6.81417">
        <ele>1963.7</ele>
        <time>2021-01-08T09:41:40Z</time>
      </trkpt>
      <trkpt lat="46.0458" lon="6.81422">
        <ele>1964.9</ele>
        <time>2021-01-08T09:42:25Z</time>
      </trkpt>
      <trkpt lat="46.04577" lon="6.81427">
        <ele>1965.3</ele>
        <time>2021-01-08T09:42:34Z</time>
      </trkpt>
      <trkpt lat="46.04576" lon="6.81433">
        <ele>1965.7</ele>
        <time>2021-01-08T09:42:42Z</time>
      </trkpt>
      <trkpt lat="46.04577" lon="6.81438">
        <ele>1966.1</ele>
        <time>2021-01-08T09:42:49Z</time>
      </trkpt>
      <trkpt lat="46.04575" lon="6.81445">
        <ele>1966.5</ele>
        <time>2021-01-08T09:42:54Z</time>
      </trkpt>
      <trkpt lat="46.04573" lon="6.8145">
        <ele>1966.8</ele>
        <time>2021-01-08T09:42:59Z</time>
      </trkpt>
      <trkpt lat="46.0457" lon="6.81454">
        <ele>1967.4</ele>
        <time>2021-01-08T09:43:05Z</time>
      </trkpt>
      <trkpt lat="46.04567" lon="6.81452">
        <ele>1968.6</ele>
        <time>2021-01-08T09:43:59Z</time>
      </trkpt>
      <trkpt lat="46.04565" lon="6.81437">
        <ele>1973.1</ele>
        <time>2021-01-08T09:44:03Z</time>
      </trkpt>
      <trkpt lat="46.04565" lon="6.81437">
        <ele>1973.1</ele>
        <time>2021-01-08T09:45:26Z</time>
      </trkpt>
      <trkpt lat="46.04556" lon="6.81442">
        <ele>1976.5</ele>
        <time>2021-01-08T09:45:31Z</time>
      </trkpt>
      <trkpt lat="46.04552" lon="6.81445">
        <ele>1977</ele>
        <time>2021-01-08T09:45:37Z</time>
      </trkpt>
      <trkpt lat="46.04553" lon="6.81451">
        <ele>1977.7</ele>
        <time>2021-01-08T09:45:44Z</time>
      </trkpt>
      <trkpt lat="46.04554" lon="6.81455">
        <ele>1977.9</ele>
        <time>2021-01-08T09:46:11Z</time>
      </trkpt>
      <trkpt lat="46.04551" lon="6.81459">
        <ele>1979.2</ele>
        <time>2021-01-08T09:46:21Z</time>
      </trkpt>
      <trkpt lat="46.04547" lon="6.81461">
        <ele>1979.6</ele>
        <time>2021-01-08T09:46:28Z</time>
      </trkpt>
      <trkpt lat="46.04543" lon="6.81461">
        <ele>1980</ele>
        <time>2021-01-08T09:46:34Z</time>
      </trkpt>
      <trkpt lat="46.04538" lon="6.81461">
        <ele>1980.8</ele>
        <time>2021-01-08T09:46:43Z</time>
      </trkpt>
      <trkpt lat="46.04541" lon="6.81467">
        <ele>1983.2</ele>
        <time>2021-01-08T09:47:09Z</time>
      </trkpt>
      <trkpt lat="46.04542" lon="6.81465">
        <ele>1984</ele>
        <time>2021-01-08T09:47:20Z</time>
      </trkpt>
      <trkpt lat="46.04549" lon="6.81459">
        <ele>1984.6</ele>
        <time>2021-01-08T09:47:24Z</time>
      </trkpt>
      <trkpt lat="46.04548" lon="6.81465">
        <ele>1985.7</ele>
        <time>2021-01-08T09:47:34Z</time>
      </trkpt>
      <trkpt lat="46.04549" lon="6.8147">
        <ele>1986.1</ele>
        <time>2021-01-08T09:47:38Z</time>
      </trkpt>
      <trkpt lat="46.04551" lon="6.81475">
        <ele>1987</ele>
        <time>2021-01-08T09:47:46Z</time>
      </trkpt>
      <trkpt lat="46.04555" lon="6.81475">
        <ele>1987.7</ele>
        <time>2021-01-08T09:47:52Z</time>
      </trkpt>
      <trkpt lat="46.04559" lon="6.81471">
        <ele>1988.6</ele>
        <time>2021-01-08T09:47:57Z</time>
      </trkpt>
      <trkpt lat="46.04555" lon="6.8147">
        <ele>1990.4</ele>
        <time>2021-01-08T09:48:24Z</time>
      </trkpt>
      <trkpt lat="46.04545" lon="6.81483">
        <ele>1993</ele>
        <time>2021-01-08T09:48:29Z</time>
      </trkpt>
      <trkpt lat="46.04542" lon="6.81486">
        <ele>1993.6</ele>
        <time>2021-01-08T09:48:34Z</time>
      </trkpt>
      <trkpt lat="46.04538" lon="6.81488">
        <ele>1994.3</ele>
        <time>2021-01-08T09:48:39Z</time>
      </trkpt>
      <trkpt lat="46.04535" lon="6.81494">
        <ele>1995</ele>
        <time>2021-01-08T09:48:44Z</time>
      </trkpt>
      <trkpt lat="46.04532" lon="6.81497">
        <ele>1996.1</ele>
        <time>2021-01-08T09:48:52Z</time>
      </trkpt>
      <trkpt lat="46.04528" lon="6.81501">
        <ele>1997.1</ele>
        <time>2021-01-08T09:48:59Z</time>
      </trkpt>
      <trkpt lat="46.04525" lon="6.81503">
        <ele>1997.8</ele>
        <time>2021-01-08T09:49:04Z</time>
      </trkpt>
      <trkpt lat="46.04521" lon="6.81506">
        <ele>1999.9</ele>
        <time>2021-01-08T09:49:20Z</time>
      </trkpt>
      <trkpt lat="46.04517" lon="6.81509">
        <ele>2001.1</ele>
        <time>2021-01-08T09:49:30Z</time>
      </trkpt>
      <trkpt lat="46.04514" lon="6.81514">
        <ele>2002.5</ele>
        <time>2021-01-08T09:49:41Z</time>
      </trkpt>
      <trkpt lat="46.04513" lon="6.8152">
        <ele>2003</ele>
        <time>2021-01-08T09:49:46Z</time>
      </trkpt>
      <trkpt lat="46.04509" lon="6.81523">
        <ele>2004</ele>
        <time>2021-01-08T09:49:56Z</time>
      </trkpt>
      <trkpt lat="46.04505" lon="6.81523">
        <ele>2005.2</ele>
        <time>2021-01-08T09:50:05Z</time>
      </trkpt>
      <trkpt lat="46.04501" lon="6.81524">
        <ele>2006.6</ele>
        <time>2021-01-08T09:50:15Z</time>
      </trkpt>
      <trkpt lat="46.04498" lon="6.81526">
        <ele>2007</ele>
        <time>2021-01-08T09:50:21Z</time>
      </trkpt>
      <trkpt lat="46.04494" lon="6.81528">
        <ele>2007.8</ele>
        <time>2021-01-08T09:50:29Z</time>
      </trkpt>
      <trkpt lat="46.0449" lon="6.81531">
        <ele>2008.3</ele>
        <time>2021-01-08T09:50:34Z</time>
      </trkpt>
      <trkpt lat="46.04486" lon="6.81532">
        <ele>2009.8</ele>
        <time>2021-01-08T09:50:46Z</time>
      </trkpt>
      <trkpt lat="46.04484" lon="6.81532">
        <ele>2010.7</ele>
        <time>2021-01-08T09:51:07Z</time>
      </trkpt>
      <trkpt lat="46.04486" lon="6.81518">
        <ele>2013.4</ele>
        <time>2021-01-08T09:51:11Z</time>
      </trkpt>
      <trkpt lat="46.04489" lon="6.81523">
        <ele>2014.9</ele>
        <time>2021-01-08T09:51:37Z</time>
      </trkpt>
      <trkpt lat="46.04488" lon="6.81526">
        <ele>2015.4</ele>
        <time>2021-01-08T09:51:47Z</time>
      </trkpt>
      <trkpt lat="46.04485" lon="6.81534">
        <ele>2015.6</ele>
        <time>2021-01-08T09:51:52Z</time>
      </trkpt>
      <trkpt lat="46.04488" lon="6.81538">
        <ele>2016</ele>
        <time>2021-01-08T09:51:58Z</time>
      </trkpt>
      <trkpt lat="46.04489" lon="6.81544">
        <ele>2016.3</ele>
        <time>2021-01-08T09:52:04Z</time>
      </trkpt>
      <trkpt lat="46.04493" lon="6.81546">
        <ele>2017.7</ele>
        <time>2021-01-08T09:52:22Z</time>
      </trkpt>
      <trkpt lat="46.04495" lon="6.81546">
        <ele>2018.2</ele>
        <time>2021-01-08T09:52:42Z</time>
      </trkpt>
      <trkpt lat="46.04501" lon="6.8155">
        <ele>2020.5</ele>
        <time>2021-01-08T09:52:47Z</time>
      </trkpt>
      <trkpt lat="46.04501" lon="6.81556">
        <ele>2021.6</ele>
        <time>2021-01-08T09:52:56Z</time>
      </trkpt>
      <trkpt lat="46.04503" lon="6.8156">
        <ele>2024.1</ele>
        <time>2021-01-08T09:53:21Z</time>
      </trkpt>
      <trkpt lat="46.04505" lon="6.81565">
        <ele>2025</ele>
        <time>2021-01-08T09:53:27Z</time>
      </trkpt>
      <trkpt lat="46.04507" lon="6.8157">
        <ele>2026</ele>
        <time>2021-01-08T09:53:39Z</time>
      </trkpt>
      <trkpt lat="46.04508" lon="6.81571">
        <ele>2026.1</ele>
        <time>2021-01-08T09:54:04Z</time>
      </trkpt>
      <trkpt lat="46.04514" lon="6.81576">
        <ele>2027.3</ele>
        <time>2021-01-08T09:54:09Z</time>
      </trkpt>
      <trkpt lat="46.0451" lon="6.81579">
        <ele>2027.7</ele>
        <time>2021-01-08T09:54:15Z</time>
      </trkpt>
      <trkpt lat="46.04507" lon="6.81582">
        <ele>2028.5</ele>
        <time>2021-01-08T09:54:20Z</time>
      </trkpt>
      <trkpt lat="46.04503" lon="6.8158">
        <ele>2029.7</ele>
        <time>2021-01-08T09:54:40Z</time>
      </trkpt>
      <trkpt lat="46.04501" lon="6.81585">
        <ele>2030.2</ele>
        <time>2021-01-08T09:54:46Z</time>
      </trkpt>
      <trkpt lat="46.04497" lon="6.81587">
        <ele>2034.7</ele>
        <time>2021-01-08T09:55:15Z</time>
      </trkpt>
      <trkpt lat="46.04496" lon="6.81588">
        <ele>2035.5</ele>
        <time>2021-01-08T09:56:55Z</time>
      </trkpt>
      <trkpt lat="46.04496" lon="6.81598">
        <ele>2042.2</ele>
        <time>2021-01-08T09:56:59Z</time>
      </trkpt>
      <trkpt lat="46.04498" lon="6.81597">
        <ele>2043.3</ele>
        <time>2021-01-08T09:58:22Z</time>
      </trkpt>
      <trkpt lat="46.04507" lon="6.81579">
        <ele>2046.7</ele>
        <time>2021-01-08T09:58:26Z</time>
      </trkpt>
      <trkpt lat="46.04505" lon="6.81584">
        <ele>2047.6</ele>
        <time>2021-01-08T09:58:52Z</time>
      </trkpt>
      <trkpt lat="46.04502" lon="6.81603">
        <ele>2048.9</ele>
        <time>2021-01-08T09:58:57Z</time>
      </trkpt>
      <trkpt lat="46.04501" lon="6.81609">
        <ele>2049.4</ele>
        <time>2021-01-08T09:59:11Z</time>
      </trkpt>
      <trkpt lat="46.045" lon="6.81586">
        <ele>2051</ele>
        <time>2021-01-08T09:59:15Z</time>
      </trkpt>
      <trkpt lat="46.04503" lon="6.81582">
        <ele>2053.7</ele>
        <time>2021-01-08T09:59:30Z</time>
      </trkpt>
      <trkpt lat="46.04505" lon="6.81579">
        <ele>2056.2</ele>
        <time>2021-01-08T10:00:21Z</time>
      </trkpt>
      <trkpt lat="46.04509" lon="6.81584">
        <ele>2058.2</ele>
        <time>2021-01-08T10:00:25Z</time>
      </trkpt>
      <trkpt lat="46.04509" lon="6.81585">
        <ele>2058.5</ele>
        <time>2021-01-08T10:01:06Z</time>
      </trkpt>
      <trkpt lat="46.04501" lon="6.81594">
        <ele>2059.7</ele>
        <time>2021-01-08T10:01:11Z</time>
      </trkpt>
      <trkpt lat="46.04501" lon="6.81594">
        <ele>2059.7</ele>
        <time>2021-01-08T10:01:27Z</time>
      </trkpt>
      <trkpt lat="46.04492" lon="6.81583">
        <ele>2062.3</ele>
        <time>2021-01-08T10:01:31Z</time>
      </trkpt>
      <trkpt lat="46.04488" lon="6.81581">
        <ele>2064.8</ele>
        <time>2021-01-08T10:02:02Z</time>
      </trkpt>
      <trkpt lat="46.04489" lon="6.81576">
        <ele>2066.3</ele>
        <time>2021-01-08T10:03:37Z</time>
      </trkpt>
      <trkpt lat="46.04495" lon="6.8159">
        <ele>2069.6</ele>
        <time>2021-01-08T10:03:42Z</time>
      </trkpt>
      <trkpt lat="46.04493" lon="6.81586">
        <ele>2070.7</ele>
        <time>2021-01-08T10:04:40Z</time>
      </trkpt>
      <trkpt lat="46.04492" lon="6.81571">
        <ele>2072.5</ele>
        <time>2021-01-08T10:04:45Z</time>
      </trkpt>
      <trkpt lat="46.04488" lon="6.81567">
        <ele>2072.8</ele>
        <time>2021-01-08T10:05:07Z</time>
      </trkpt>
      <trkpt lat="46.04484" lon="6.81566">
        <ele>2072.9</ele>
        <time>2021-01-08T10:05:29Z</time>
      </trkpt>
      <trkpt lat="46.04473" lon="6.81559">
        <ele>2074.5</ele>
        <time>2021-01-08T10:05:34Z</time>
      </trkpt>
      <trkpt lat="46.04477" lon="6.8156">
        <ele>2077.1</ele>
        <time>2021-01-08T10:06:37Z</time>
      </trkpt>
      <trkpt lat="46.04482" lon="6.81575">
        <ele>2079.6</ele>
        <time>2021-01-08T10:06:41Z</time>
      </trkpt>
      <trkpt lat="46.04484" lon="6.81578">
        <ele>2079.9</ele>
        <time>2021-01-08T10:06:57Z</time>
      </trkpt>
      <trkpt lat="46.04493" lon="6.81582">
        <ele>2080.8</ele>
        <time>2021-01-08T10:07:01Z</time>
      </trkpt>
      <trkpt lat="46.04493" lon="6.81577">
        <ele>2081.2</ele>
        <time>2021-01-08T10:07:08Z</time>
      </trkpt>
      <trkpt lat="46.04493" lon="6.81576">
        <ele>2081.4</ele>
        <time>2021-01-08T10:07:19Z</time>
      </trkpt>
      <trkpt lat="46.04487" lon="6.81565">
        <ele>2082.3</ele>
        <time>2021-01-08T10:07:23Z</time>
      </trkpt>
      <trkpt lat="46.04488" lon="6.8156">
        <ele>2086.1</ele>
        <time>2021-01-08T10:10:20Z</time>
      </trkpt>
      <trkpt lat="46.04479" lon="6.81558">
        <ele>2090.2</ele>
        <time>2021-01-08T10:10:24Z</time>
      </trkpt>
      <trkpt lat="46.04479" lon="6.81558">
        <ele>2090.3</ele>
        <time>2021-01-08T10:11:50Z</time>
      </trkpt>
      <trkpt lat="46.04474" lon="6.8155">
        <ele>2094</ele>
        <time>2021-01-08T10:11:55Z</time>
      </trkpt>
      <trkpt lat="46.04469" lon="6.81549">
        <ele>2094.3</ele>
        <time>2021-01-08T10:12:12Z</time>
      </trkpt>
      <trkpt lat="46.04467" lon="6.81549">
        <ele>2094.5</ele>
        <time>2021-01-08T10:13:25Z</time>
      </trkpt>
      <trkpt lat="46.04476" lon="6.81559">
        <ele>2096.2</ele>
        <time>2021-01-08T10:13:29Z</time>
      </trkpt>
      <trkpt lat="46.0448" lon="6.81563">
        <ele>2097.8</ele>
        <time>2021-01-08T10:14:35Z</time>
      </trkpt>
      <trkpt lat="46.04483" lon="6.81563">
        <ele>2098.5</ele>
        <time>2021-01-08T10:14:40Z</time>
      </trkpt>
      <trkpt lat="46.04484" lon="6.81569">
        <ele>2098.6</ele>
        <time>2021-01-08T10:14:46Z</time>
      </trkpt>
      <trkpt lat="46.04483" lon="6.81567">
        <ele>2099.3</ele>
        <time>2021-01-08T10:15:15Z</time>
      </trkpt>
      <trkpt lat="46.04485" lon="6.81555">
        <ele>2099.6</ele>
        <time>2021-01-08T10:15:20Z</time>
      </trkpt>
      <trkpt lat="46.04484" lon="6.81558">
        <ele>2099.7</ele>
        <time>2021-01-08T10:15:27Z</time>
      </trkpt>
      <trkpt lat="46.04485" lon="6.8157">
        <ele>2098.6</ele>
        <time>2021-01-08T10:15:31Z</time>
      </trkpt>
      <trkpt lat="46.04487" lon="6.81568">
        <ele>2098.2</ele>
        <time>2021-01-08T10:15:50Z</time>
      </trkpt>
      <trkpt lat="46.04489" lon="6.81551">
        <ele>2099.4</ele>
        <time>2021-01-08T10:15:55Z</time>
      </trkpt>
      <trkpt lat="46.04489" lon="6.81551">
        <ele>2099.4</ele>
        <time>2021-01-08T10:16:12Z</time>
      </trkpt>
      <trkpt lat="46.04479" lon="6.81554">
        <ele>2102</ele>
        <time>2021-01-08T10:16:16Z</time>
      </trkpt>
      <trkpt lat="46.04478" lon="6.81555">
        <ele>2102.1</ele>
        <time>2021-01-08T10:16:59Z</time>
      </trkpt>
      <trkpt lat="46.04479" lon="6.81546">
        <ele>2104.4</ele>
        <time>2021-01-08T10:17:03Z</time>
      </trkpt>
      <trkpt lat="46.04479" lon="6.81546">
        <ele>2104.4</ele>
        <time>2021-01-08T10:17:50Z</time>
      </trkpt>
      <trkpt lat="46.04473" lon="6.81542">
        <ele>2108.7</ele>
        <time>2021-01-08T10:17:55Z</time>
      </trkpt>
      <trkpt lat="46.04473" lon="6.8154">
        <ele>2108.8</ele>
        <time>2021-01-08T10:18:35Z</time>
      </trkpt>
      <trkpt lat="46.04466" lon="6.81549">
        <ele>2110.3</ele>
        <time>2021-01-08T10:18:39Z</time>
      </trkpt>
      <trkpt lat="46.04466" lon="6.81549">
        <ele>2110.3</ele>
        <time>2021-01-08T10:18:58Z</time>
      </trkpt>
      <trkpt lat="46.04478" lon="6.81536">
        <ele>2113.3</ele>
        <time>2021-01-08T10:19:02Z</time>
      </trkpt>
      <trkpt lat="46.04486" lon="6.81523">
        <ele>2113.2</ele>
        <time>2021-01-08T10:19:07Z</time>
      </trkpt>
      <trkpt lat="46.04486" lon="6.81497">
        <ele>2112.2</ele>
        <time>2021-01-08T10:19:12Z</time>
      </trkpt>
      <trkpt lat="46.04486" lon="6.81473">
        <ele>2111</ele>
        <time>2021-01-08T10:19:17Z</time>
      </trkpt>
      <trkpt lat="46.04493" lon="6.81455">
        <ele>2108.4</ele>
        <time>2021-01-08T10:19:21Z</time>
      </trkpt>
      <trkpt lat="46.04501" lon="6.8146">
        <ele>2107</ele>
        <time>2021-01-08T10:19:25Z</time>
      </trkpt>
      <trkpt lat="46.04504" lon="6.81463">
        <ele>2101.7</ele>
        <time>2021-01-08T10:19:52Z</time>
      </trkpt>
      <trkpt lat="46.04512" lon="6.81457">
        <ele>2100.9</ele>
        <time>2021-01-08T10:19:56Z</time>
      </trkpt>
      <trkpt lat="46.04509" lon="6.81439">
        <ele>2098.8</ele>
        <time>2021-01-08T10:20:01Z</time>
      </trkpt>
      <trkpt lat="46.04514" lon="6.81428">
        <ele>2094.6</ele>
        <time>2021-01-08T10:20:06Z</time>
      </trkpt>
      <trkpt lat="46.04514" lon="6.81411">
        <ele>2088.8</ele>
        <time>2021-01-08T10:20:11Z</time>
      </trkpt>
      <trkpt lat="46.04523" lon="6.81412">
        <ele>2082.7</ele>
        <time>2021-01-08T10:20:15Z</time>
      </trkpt>
      <trkpt lat="46.04528" lon="6.81409">
        <ele>2077.3</ele>
        <time>2021-01-08T10:20:19Z</time>
      </trkpt>
      <trkpt lat="46.0453" lon="6.81414">
        <ele>2071.6</ele>
        <time>2021-01-08T10:20:26Z</time>
      </trkpt>
      <trkpt lat="46.04533" lon="6.81417">
        <ele>2066.4</ele>
        <time>2021-01-08T10:20:36Z</time>
      </trkpt>
      <trkpt lat="46.04535" lon="6.81407">
        <ele>2062.7</ele>
        <time>2021-01-08T10:20:40Z</time>
      </trkpt>
      <trkpt lat="46.04538" lon="6.81397">
        <ele>2054.2</ele>
        <time>2021-01-08T10:20:45Z</time>
      </trkpt>
      <trkpt lat="46.04543" lon="6.81391">
        <ele>2048.5</ele>
        <time>2021-01-08T10:20:49Z</time>
      </trkpt>
      <trkpt lat="46.04556" lon="6.81382">
        <ele>2042.4</ele>
        <time>2021-01-08T10:20:53Z</time>
      </trkpt>
      <trkpt lat="46.04562" lon="6.81377">
        <ele>2037.5</ele>
        <time>2021-01-08T10:20:58Z</time>
      </trkpt>
      <trkpt lat="46.04563" lon="6.81373">
        <ele>2042.2</ele>
        <time>2021-01-08T10:21:37Z</time>
      </trkpt>
      <trkpt lat="46.04566" lon="6.81364">
        <ele>2041.7</ele>
        <time>2021-01-08T10:21:42Z</time>
      </trkpt>
      <trkpt lat="46.0457" lon="6.81361">
        <ele>2041.5</ele>
        <time>2021-01-08T10:22:02Z</time>
      </trkpt>
      <trkpt lat="46.04575" lon="6.81349">
        <ele>2042.2</ele>
        <time>2021-01-08T10:22:07Z</time>
      </trkpt>
      <trkpt lat="46.04582" lon="6.81343">
        <ele>2042</ele>
        <time>2021-01-08T10:22:11Z</time>
      </trkpt>
      <trkpt lat="46.04585" lon="6.81337">
        <ele>2040.8</ele>
        <time>2021-01-08T10:22:15Z</time>
      </trkpt>
      <trkpt lat="46.04582" lon="6.8133">
        <ele>2039.4</ele>
        <time>2021-01-08T10:22:19Z</time>
      </trkpt>
      <trkpt lat="46.04581" lon="6.81325">
        <ele>2035.9</ele>
        <time>2021-01-08T10:22:24Z</time>
      </trkpt>
      <trkpt lat="46.04568" lon="6.81322">
        <ele>2032</ele>
        <time>2021-01-08T10:22:29Z</time>
      </trkpt>
      <trkpt lat="46.04563" lon="6.81324">
        <ele>2028.7</ele>
        <time>2021-01-08T10:22:33Z</time>
      </trkpt>
      <trkpt lat="46.04562" lon="6.81319">
        <ele>2023.3</ele>
        <time>2021-01-08T10:22:42Z</time>
      </trkpt>
      <trkpt lat="46.0456" lon="6.81313">
        <ele>2020.8</ele>
        <time>2021-01-08T10:22:49Z</time>
      </trkpt>
      <trkpt lat="46.04555" lon="6.81307">
        <ele>2019.2</ele>
        <time>2021-01-08T10:22:54Z</time>
      </trkpt>
      <trkpt lat="46.04549" lon="6.81302">
        <ele>2017.2</ele>
        <time>2021-01-08T10:22:58Z</time>
      </trkpt>
      <trkpt lat="46.04546" lon="6.81299">
        <ele>2014.8</ele>
        <time>2021-01-08T10:23:03Z</time>
      </trkpt>
      <trkpt lat="46.04545" lon="6.81294">
        <ele>2013.1</ele>
        <time>2021-01-08T10:23:18Z</time>
      </trkpt>
      <trkpt lat="46.04547" lon="6.81288">
        <ele>2012.8</ele>
        <time>2021-01-08T10:23:22Z</time>
      </trkpt>
      <trkpt lat="46.04533" lon="6.81288">
        <ele>2012.1</ele>
        <time>2021-01-08T10:23:26Z</time>
      </trkpt>
      <trkpt lat="46.0453" lon="6.81273">
        <ele>2011.4</ele>
        <time>2021-01-08T10:23:31Z</time>
      </trkpt>
      <trkpt lat="46.04528" lon="6.81252">
        <ele>2009.5</ele>
        <time>2021-01-08T10:23:36Z</time>
      </trkpt>
      <trkpt lat="46.0453" lon="6.8124">
        <ele>2006.9</ele>
        <time>2021-01-08T10:23:40Z</time>
      </trkpt>
      <trkpt lat="46.04534" lon="6.81223">
        <ele>2002.8</ele>
        <time>2021-01-08T10:23:44Z</time>
      </trkpt>
      <trkpt lat="46.04533" lon="6.81202">
        <ele>1996.8</ele>
        <time>2021-01-08T10:23:49Z</time>
      </trkpt>
      <trkpt lat="46.04532" lon="6.81182">
        <ele>1991.2</ele>
        <time>2021-01-08T10:23:53Z</time>
      </trkpt>
      <trkpt lat="46.04525" lon="6.81159">
        <ele>1984.8</ele>
        <time>2021-01-08T10:23:57Z</time>
      </trkpt>
      <trkpt lat="46.04519" lon="6.81139">
        <ele>1974.8</ele>
        <time>2021-01-08T10:24:02Z</time>
      </trkpt>
      <trkpt lat="46.04518" lon="6.81119">
        <ele>1966.7</ele>
        <time>2021-01-08T10:24:06Z</time>
      </trkpt>
      <trkpt lat="46.04515" lon="6.81088">
        <ele>1954.9</ele>
        <time>2021-01-08T10:24:11Z</time>
      </trkpt>
      <trkpt lat="46.04508" lon="6.81064">
        <ele>1944.7</ele>
        <time>2021-01-08T10:24:15Z</time>
      </trkpt>
      <trkpt lat="46.04505" lon="6.81045">
        <ele>1937.6</ele>
        <time>2021-01-08T10:24:19Z</time>
      </trkpt>
      <trkpt lat="46.04504" lon="6.81045">
        <ele>1916.2</ele>
        <time>2021-01-08T10:25:10Z</time>
      </trkpt>
      <trkpt lat="46.04513" lon="6.81037">
        <ele>1912</ele>
        <time>2021-01-08T10:25:15Z</time>
      </trkpt>
      <trkpt lat="46.04515" lon="6.81036">
        <ele>1910.7</ele>
        <time>2021-01-08T10:25:48Z</time>
      </trkpt>
      <trkpt lat="46.04517" lon="6.8101">
        <ele>1904.5</ele>
        <time>2021-01-08T10:25:53Z</time>
      </trkpt>
      <trkpt lat="46.04521" lon="6.80977">
        <ele>1901.3</ele>
        <time>2021-01-08T10:25:57Z</time>
      </trkpt>
      <trkpt lat="46.04522" lon="6.8094">
        <ele>1896</ele>
        <time>2021-01-08T10:26:01Z</time>
      </trkpt>
      <trkpt lat="46.04533" lon="6.80914">
        <ele>1884.1</ele>
        <time>2021-01-08T10:26:06Z</time>
      </trkpt>
      <trkpt lat="46.0453" lon="6.8091">
        <ele>1872.3</ele>
        <time>2021-01-08T10:26:10Z</time>
      </trkpt>
      <trkpt lat="46.04526" lon="6.80908">
        <ele>1866.7</ele>
        <time>2021-01-08T10:26:15Z</time>
      </trkpt>
      <trkpt lat="46.0452" lon="6.80901">
        <ele>1858.3</ele>
        <time>2021-01-08T10:26:19Z</time>
      </trkpt>
      <trkpt lat="46.04519" lon="6.80896">
        <ele>1853.2</ele>
        <time>2021-01-08T10:26:23Z</time>
      </trkpt>
      <trkpt lat="46.04519" lon="6.80895">
        <ele>1852.5</ele>
        <time>2021-01-08T10:26:39Z</time>
      </trkpt>
      <trkpt lat="46.04522" lon="6.80882">
        <ele>1846.1</ele>
        <time>2021-01-08T10:26:43Z</time>
      </trkpt>
      <trkpt lat="46.04522" lon="6.80882">
        <ele>1846.1</ele>
        <time>2021-01-08T10:28:26Z</time>
      </trkpt>
      <trkpt lat="46.04515" lon="6.80846">
        <ele>1842.3</ele>
        <time>2021-01-08T10:28:31Z</time>
      </trkpt>
      <trkpt lat="46.04513" lon="6.80813">
        <ele>1838.5</ele>
        <time>2021-01-08T10:28:35Z</time>
      </trkpt>
      <trkpt lat="46.04515" lon="6.8078">
        <ele>1832.2</ele>
        <time>2021-01-08T10:28:39Z</time>
      </trkpt>
      <trkpt lat="46.04514" lon="6.80745">
        <ele>1824.2</ele>
        <time>2021-01-08T10:28:43Z</time>
      </trkpt>
      <trkpt lat="46.04514" lon="6.80703">
        <ele>1816.5</ele>
        <time>2021-01-08T10:28:47Z</time>
      </trkpt>
      <trkpt lat="46.04516" lon="6.80649">
        <ele>1804.6</ele>
        <time>2021-01-08T10:28:52Z</time>
      </trkpt>
      <trkpt lat="46.04515" lon="6.80608">
        <ele>1793</ele>
        <time>2021-01-08T10:28:56Z</time>
      </trkpt>
      <trkpt lat="46.04508" lon="6.80591">
        <ele>1774.6</ele>
        <time>2021-01-08T10:29:00Z</time>
      </trkpt>
      <trkpt lat="46.04503" lon="6.80594">
        <ele>1765.9</ele>
        <time>2021-01-08T10:29:04Z</time>
      </trkpt>
      <trkpt lat="46.04504" lon="6.80588">
        <ele>1765.8</ele>
        <time>2021-01-08T10:29:52Z</time>
      </trkpt>
      <trkpt lat="46.04504" lon="6.80573">
        <ele>1764.5</ele>
        <time>2021-01-08T10:29:57Z</time>
      </trkpt>
      <trkpt lat="46.04501" lon="6.80553">
        <ele>1762.4</ele>
        <time>2021-01-08T10:30:01Z</time>
      </trkpt>
      <trkpt lat="46.04504" lon="6.80516">
        <ele>1758.5</ele>
        <time>2021-01-08T10:30:06Z</time>
      </trkpt>
      <trkpt lat="46.04508" lon="6.80484">
        <ele>1754.1</ele>
        <time>2021-01-08T10:30:10Z</time>
      </trkpt>
      <trkpt lat="46.0451" lon="6.80452">
        <ele>1749.1</ele>
        <time>2021-01-08T10:30:14Z</time>
      </trkpt>
      <trkpt lat="46.04514" lon="6.80405">
        <ele>1739.9</ele>
        <time>2021-01-08T10:30:19Z</time>
      </trkpt>
      <trkpt lat="46.04507" lon="6.80377">
        <ele>1732.1</ele>
        <time>2021-01-08T10:30:23Z</time>
      </trkpt>
      <trkpt lat="46.04498" lon="6.80355">
        <ele>1724.8</ele>
        <time>2021-01-08T10:30:28Z</time>
      </trkpt>
      <trkpt lat="46.04494" lon="6.80323">
        <ele>1716.9</ele>
        <time>2021-01-08T10:30:32Z</time>
      </trkpt>
      <trkpt lat="46.04493" lon="6.80306">
        <ele>1708.1</ele>
        <time>2021-01-08T10:30:37Z</time>
      </trkpt>
      <trkpt lat="46.04494" lon="6.80305">
        <ele>1710</ele>
        <time>2021-01-08T10:33:03Z</time>
      </trkpt>
      <trkpt lat="46.04507" lon="6.80308">
        <ele>1710.3</ele>
        <time>2021-01-08T10:33:07Z</time>
      </trkpt>
      <trkpt lat="46.04514" lon="6.8031">
        <ele>1710.2</ele>
        <time>2021-01-08T10:33:11Z</time>
      </trkpt>
      <trkpt lat="46.04528" lon="6.80308">
        <ele>1708.9</ele>
        <time>2021-01-08T10:33:16Z</time>
      </trkpt>
      <trkpt lat="46.04538" lon="6.80283">
        <ele>1704.3</ele>
        <time>2021-01-08T10:33:21Z</time>
      </trkpt>
      <trkpt lat="46.04547" lon="6.80284">
        <ele>1699.8</ele>
        <time>2021-01-08T10:33:25Z</time>
      </trkpt>
      <trkpt lat="46.0457" lon="6.80262">
        <ele>1692.7</ele>
        <time>2021-01-08T10:33:30Z</time>
      </trkpt>
      <trkpt lat="46.04585" lon="6.80229">
        <ele>1684.2</ele>
        <time>2021-01-08T10:33:35Z</time>
      </trkpt>
      <trkpt lat="46.04595" lon="6.80177">
        <ele>1675.7</ele>
        <time>2021-01-08T10:33:40Z</time>
      </trkpt>
      <trkpt lat="46.04603" lon="6.80138">
        <ele>1664.6</ele>
        <time>2021-01-08T10:33:45Z</time>
      </trkpt>
      <trkpt lat="46.04612" lon="6.80107">
        <ele>1654.1</ele>
        <time>2021-01-08T10:33:49Z</time>
      </trkpt>
      <trkpt lat="46.04606" lon="6.80106">
        <ele>1643.1</ele>
        <time>2021-01-08T10:33:53Z</time>
      </trkpt>
      <trkpt lat="46.04608" lon="6.80105">
        <ele>1641.7</ele>
        <time>2021-01-08T10:34:34Z</time>
      </trkpt>
      <trkpt lat="46.04617" lon="6.80096">
        <ele>1641.2</ele>
        <time>2021-01-08T10:34:38Z</time>
      </trkpt>
      <trkpt lat="46.04631" lon="6.80082">
        <ele>1638.7</ele>
        <time>2021-01-08T10:34:42Z</time>
      </trkpt>
      <trkpt lat="46.04642" lon="6.80067">
        <ele>1633.8</ele>
        <time>2021-01-08T10:34:46Z</time>
      </trkpt>
      <trkpt lat="46.04657" lon="6.8005">
        <ele>1626.8</ele>
        <time>2021-01-08T10:34:50Z</time>
      </trkpt>
      <trkpt lat="46.04671" lon="6.80033">
        <ele>1618.4</ele>
        <time>2021-01-08T10:34:54Z</time>
      </trkpt>
      <trkpt lat="46.04686" lon="6.8">
        <ele>1604.3</ele>
        <time>2021-01-08T10:34:59Z</time>
      </trkpt>
      <trkpt lat="46.0468" lon="6.79993">
        <ele>1592</ele>
        <time>2021-01-08T10:35:04Z</time>
      </trkpt>
      <trkpt lat="46.0468" lon="6.79987">
        <ele>1588.8</ele>
        <time>2021-01-08T10:35:26Z</time>
      </trkpt>
      <trkpt lat="46.04678" lon="6.79972">
        <ele>1586.7</ele>
        <time>2021-01-08T10:35:31Z</time>
      </trkpt>
      <trkpt lat="46.04679" lon="6.79966">
        <ele>1584.1</ele>
        <time>2021-01-08T10:35:35Z</time>
      </trkpt>
      <trkpt lat="46.0468" lon="6.79956">
        <ele>1581.4</ele>
        <time>2021-01-08T10:35:40Z</time>
      </trkpt>
      <trkpt lat="46.04679" lon="6.79945">
        <ele>1578.3</ele>
        <time>2021-01-08T10:35:45Z</time>
      </trkpt>
      <trkpt lat="46.04675" lon="6.79935">
        <ele>1574.7</ele>
        <time>2021-01-08T10:35:49Z</time>
      </trkpt>
      <trkpt lat="46.04668" lon="6.79921">
        <ele>1570.3</ele>
        <time>2021-01-08T10:35:53Z</time>
      </trkpt>
      <trkpt lat="46.04666" lon="6.79919">
        <ele>1567.3</ele>
        <time>2021-01-08T10:36:09Z</time>
      </trkpt>
      <trkpt lat="46.04657" lon="6.79896">
        <ele>1560.2</ele>
        <time>2021-01-08T10:36:14Z</time>
      </trkpt>
      <trkpt lat="46.04654" lon="6.79869">
        <ele>1556.8</ele>
        <time>2021-01-08T10:36:18Z</time>
      </trkpt>
      <trkpt lat="46.04651" lon="6.79841">
        <ele>1551</ele>
        <time>2021-01-08T10:36:22Z</time>
      </trkpt>
      <trkpt lat="46.04648" lon="6.79814">
        <ele>1543.4</ele>
        <time>2021-01-08T10:36:26Z</time>
      </trkpt>
      <trkpt lat="46.04647" lon="6.79782">
        <ele>1531.6</ele>
        <time>2021-01-08T10:36:31Z</time>
      </trkpt>
      <trkpt lat="46.04642" lon="6.79754">
        <ele>1522.9</ele>
        <time>2021-01-08T10:36:35Z</time>
      </trkpt>
      <trkpt lat="46.04646" lon="6.79714">
        <ele>1514.6</ele>
        <time>2021-01-08T10:36:40Z</time>
      </trkpt>
      <trkpt lat="46.04645" lon="6.79689">
        <ele>1506</ele>
        <time>2021-01-08T10:36:44Z</time>
      </trkpt>
      <trkpt lat="46.04641" lon="6.79668">
        <ele>1497.8</ele>
        <time>2021-01-08T10:36:49Z</time>
      </trkpt>
      <trkpt lat="46.04637" lon="6.79662">
        <ele>1493.3</ele>
        <time>2021-01-08T10:36:53Z</time>
      </trkpt>
      <trkpt lat="46.04636" lon="6.79658">
        <ele>1494.4</ele>
        <time>2021-01-08T10:38:02Z</time>
      </trkpt>
      <trkpt lat="46.0463" lon="6.79639">
        <ele>1494</ele>
        <time>2021-01-08T10:38:06Z</time>
      </trkpt>
      <trkpt lat="46.04631" lon="6.79614">
        <ele>1493.3</ele>
        <time>2021-01-08T10:38:11Z</time>
      </trkpt>
      <trkpt lat="46.04638" lon="6.79601">
        <ele>1491.9</ele>
        <time>2021-01-08T10:38:16Z</time>
      </trkpt>
      <trkpt lat="46.04638" lon="6.79601">
        <ele>1492</ele>
        <time>2021-01-08T10:38:34Z</time>
      </trkpt>
      <trkpt lat="46.04648" lon="6.79597">
        <ele>1490.2</ele>
        <time>2021-01-08T10:38:38Z</time>
      </trkpt>
      <trkpt lat="46.04654" lon="6.79583">
        <ele>1489.5</ele>
        <time>2021-01-08T10:38:43Z</time>
      </trkpt>
      <trkpt lat="46.04659" lon="6.7957">
        <ele>1487.5</ele>
        <time>2021-01-08T10:38:47Z</time>
      </trkpt>
      <trkpt lat="46.04664" lon="6.79565">
        <ele>1484.8</ele>
        <time>2021-01-08T10:38:51Z</time>
      </trkpt>
      <trkpt lat="46.04664" lon="6.79565">
        <ele>1483.8</ele>
        <time>2021-01-08T10:39:14Z</time>
      </trkpt>
      <trkpt lat="46.04653" lon="6.79554">
        <ele>1480.5</ele>
        <time>2021-01-08T10:39:18Z</time>
      </trkpt>
      <trkpt lat="46.04652" lon="6.79545">
        <ele>1479.6</ele>
        <time>2021-01-08T10:39:23Z</time>
      </trkpt>
      <trkpt lat="46.04653" lon="6.79541">
        <ele>1478.8</ele>
        <time>2021-01-08T10:39:28Z</time>
      </trkpt>
      <trkpt lat="46.04657" lon="6.79529">
        <ele>1476.5</ele>
        <time>2021-01-08T10:39:32Z</time>
      </trkpt>
      <trkpt lat="46.04657" lon="6.79515">
        <ele>1473.5</ele>
        <time>2021-01-08T10:39:37Z</time>
      </trkpt>
      <trkpt lat="46.04667" lon="6.79513">
        <ele>1470</ele>
        <time>2021-01-08T10:39:41Z</time>
      </trkpt>
      <trkpt lat="46.04678" lon="6.79489">
        <ele>1461</ele>
        <time>2021-01-08T10:39:46Z</time>
      </trkpt>
      <trkpt lat="46.0468" lon="6.79463">
        <ele>1451.4</ele>
        <time>2021-01-08T10:39:51Z</time>
      </trkpt>
      <trkpt lat="46.04671" lon="6.79442">
        <ele>1440.4</ele>
        <time>2021-01-08T10:39:55Z</time>
      </trkpt>
      <trkpt lat="46.04667" lon="6.79424">
        <ele>1432.5</ele>
        <time>2021-01-08T10:40:00Z</time>
      </trkpt>
      <trkpt lat="46.04671" lon="6.79416">
        <ele>1427.3</ele>
        <time>2021-01-08T10:40:04Z</time>
      </trkpt>
      <trkpt lat="46.04675" lon="6.79415">
        <ele>1426.6</ele>
        <time>2021-01-08T10:40:15Z</time>
      </trkpt>
      <trkpt lat="46.04676" lon="6.79414">
        <ele>1426.5</ele>
        <time>2021-01-08T10:40:28Z</time>
      </trkpt>
      <trkpt lat="46.04682" lon="6.794">
        <ele>1426.2</ele>
        <time>2021-01-08T10:40:32Z</time>
      </trkpt>
      <trkpt lat="46.04687" lon="6.79398">
        <ele>1425.9</ele>
        <time>2021-01-08T10:40:36Z</time>
      </trkpt>
      <trkpt lat="46.04689" lon="6.79396">
        <ele>1425.7</ele>
        <time>2021-01-08T10:40:41Z</time>
      </trkpt>
      <trkpt lat="46.04696" lon="6.79384">
        <ele>1425.3</ele>
        <time>2021-01-08T10:40:46Z</time>
      </trkpt>
      <trkpt lat="46.047" lon="6.79368">
        <ele>1425.2</ele>
        <time>2021-01-08T10:40:51Z</time>
      </trkpt>
      <trkpt lat="46.04701" lon="6.79365">
        <ele>1424.5</ele>
        <time>2021-01-08T10:40:59Z</time>
      </trkpt>
      <trkpt lat="46.0471" lon="6.79346">
        <ele>1422.1</ele>
        <time>2021-01-08T10:41:04Z</time>
      </trkpt>
      <trkpt lat="46.04714" lon="6.79331">
        <ele>1419.6</ele>
        <time>2021-01-08T10:41:08Z</time>
      </trkpt>
      <trkpt lat="46.04715" lon="6.79325">
        <ele>1416.4</ele>
        <time>2021-01-08T10:41:12Z</time>
      </trkpt>
      <trkpt lat="46.04717" lon="6.79305">
        <ele>1410.6</ele>
        <time>2021-01-08T10:41:17Z</time>
      </trkpt>
      <trkpt lat="46.04713" lon="6.79294">
        <ele>1401.8</ele>
        <time>2021-01-08T10:41:22Z</time>
      </trkpt>
      <trkpt lat="46.04715" lon="6.79285">
        <ele>1396.3</ele>
        <time>2021-01-08T10:41:26Z</time>
      </trkpt>
      <trkpt lat="46.04722" lon="6.79283">
        <ele>1389.6</ele>
        <time>2021-01-08T10:41:31Z</time>
      </trkpt>
      <trkpt lat="46.04722" lon="6.79283">
        <ele>1389.6</ele>
        <time>2021-01-08T10:43:14Z</time>
      </trkpt>
      <trkpt lat="46.04724" lon="6.79259">
        <ele>1379.1</ele>
        <time>2021-01-08T10:43:18Z</time>
      </trkpt>
      <trkpt lat="46.04732" lon="6.79243">
        <ele>1377.8</ele>
        <time>2021-01-08T10:43:23Z</time>
      </trkpt>
      <trkpt lat="46.04734" lon="6.79233">
        <ele>1376</ele>
        <time>2021-01-08T10:43:28Z</time>
      </trkpt>
      <trkpt lat="46.04742" lon="6.79225">
        <ele>1373.9</ele>
        <time>2021-01-08T10:43:33Z</time>
      </trkpt>
      <trkpt lat="46.04747" lon="6.79213">
        <ele>1371.8</ele>
        <time>2021-01-08T10:43:37Z</time>
      </trkpt>
      <trkpt lat="46.04755" lon="6.79205">
        <ele>1369.5</ele>
        <time>2021-01-08T10:43:41Z</time>
      </trkpt>
      <trkpt lat="46.04766" lon="6.79203">
        <ele>1366.2</ele>
        <time>2021-01-08T10:43:45Z</time>
      </trkpt>
      <trkpt lat="46.04775" lon="6.792">
        <ele>1362.4</ele>
        <time>2021-01-08T10:43:49Z</time>
      </trkpt>
      <trkpt lat="46.04781" lon="6.79185">
        <ele>1357.2</ele>
        <time>2021-01-08T10:43:53Z</time>
      </trkpt>
      <trkpt lat="46.0478" lon="6.79179">
        <ele>1351.6</ele>
        <time>2021-01-08T10:43:58Z</time>
      </trkpt>
      <trkpt lat="46.04771" lon="6.79177">
        <ele>1348.4</ele>
        <time>2021-01-08T10:44:02Z</time>
      </trkpt>
      <trkpt lat="46.04756" lon="6.79175">
        <ele>1345.9</ele>
        <time>2021-01-08T10:44:06Z</time>
      </trkpt>
      <trkpt lat="46.04736" lon="6.79178">
        <ele>1341</ele>
        <time>2021-01-08T10:44:11Z</time>
      </trkpt>
      <trkpt lat="46.04723" lon="6.79179">
        <ele>1338.9</ele>
        <time>2021-01-08T10:44:15Z</time>
      </trkpt>
      <trkpt lat="46.04716" lon="6.79187">
        <ele>1336.2</ele>
        <time>2021-01-08T10:44:19Z</time>
      </trkpt>
      <trkpt lat="46.0471" lon="6.79191">
        <ele>1332.1</ele>
        <time>2021-01-08T10:44:24Z</time>
      </trkpt>
      <trkpt lat="46.04709" lon="6.79191">
        <ele>1331.2</ele>
        <time>2021-01-08T10:44:36Z</time>
      </trkpt>
      <trkpt lat="46.04701" lon="6.79187">
        <ele>1328.2</ele>
        <time>2021-01-08T10:44:41Z</time>
      </trkpt>
      <trkpt lat="46.047" lon="6.79175">
        <ele>1328.9</ele>
        <time>2021-01-08T10:44:46Z</time>
      </trkpt>
      <trkpt lat="46.047" lon="6.79167">
        <ele>1329.6</ele>
        <time>2021-01-08T10:44:50Z</time>
      </trkpt>
      <trkpt lat="46.04697" lon="6.79155">
        <ele>1329.8</ele>
        <time>2021-01-08T10:44:55Z</time>
      </trkpt>
      <trkpt lat="46.04694" lon="6.7915">
        <ele>1329.8</ele>
        <time>2021-01-08T10:45:00Z</time>
      </trkpt>
      <trkpt lat="46.04689" lon="6.7915">
        <ele>1329.4</ele>
        <time>2021-01-08T10:45:04Z</time>
      </trkpt>
      <trkpt lat="46.04683" lon="6.7915">
        <ele>1328.2</ele>
        <time>2021-01-08T10:45:09Z</time>
      </trkpt>
      <trkpt lat="46.04675" lon="6.79148">
        <ele>1328.8</ele>
        <time>2021-01-08T10:45:13Z</time>
      </trkpt>
      <trkpt lat="46.04671" lon="6.79149">
        <ele>1328.3</ele>
        <time>2021-01-08T10:45:18Z</time>
      </trkpt>
      <trkpt lat="46.0468" lon="6.79139">
        <ele>1326.9</ele>
        <time>2021-01-08T10:45:23Z</time>
      </trkpt>
      <trkpt lat="46.04694" lon="6.79143">
        <ele>1325.6</ele>
        <time>2021-01-08T10:45:28Z</time>
      </trkpt>
      <trkpt lat="46.04705" lon="6.79149">
        <ele>1324.8</ele>
        <time>2021-01-08T10:45:32Z</time>
      </trkpt>
      <trkpt lat="46.04712" lon="6.79127">
        <ele>1323.8</ele>
        <time>2021-01-08T10:45:37Z</time>
      </trkpt>
      <trkpt lat="46.04724" lon="6.79096">
        <ele>1320.6</ele>
        <time>2021-01-08T10:45:42Z</time>
      </trkpt>
      <trkpt lat="46.04732" lon="6.79064">
        <ele>1316.7</ele>
        <time>2021-01-08T10:45:46Z</time>
      </trkpt>
      <trkpt lat="46.04742" lon="6.79035">
        <ele>1312.1</ele>
        <time>2021-01-08T10:45:50Z</time>
      </trkpt>
      <trkpt lat="46.04752" lon="6.78987">
        <ele>1307</ele>
        <time>2021-01-08T10:45:55Z</time>
      </trkpt>
      <trkpt lat="46.04754" lon="6.78955">
        <ele>1302</ele>
        <time>2021-01-08T10:45:59Z</time>
      </trkpt>
      <trkpt lat="46.04744" lon="6.78938">
        <ele>1298.1</ele>
        <time>2021-01-08T10:46:04Z</time>
      </trkpt>
      <trkpt lat="46.04741" lon="6.78935">
        <ele>1295.5</ele>
        <time>2021-01-08T10:48:22Z</time>
      </trkpt>
      <trkpt lat="46.0473" lon="6.78918">
        <ele>1294.7</ele>
        <time>2021-01-08T10:48:27Z</time>
      </trkpt>
      <trkpt lat="46.0472" lon="6.78903">
        <ele>1293.6</ele>
        <time>2021-01-08T10:48:31Z</time>
      </trkpt>
      <trkpt lat="46.04731" lon="6.7888">
        <ele>1289.5</ele>
        <time>2021-01-08T10:48:36Z</time>
      </trkpt>
      <trkpt lat="46.04739" lon="6.78864">
        <ele>1283.3</ele>
        <time>2021-01-08T10:48:40Z</time>
      </trkpt>
      <trkpt lat="46.04742" lon="6.78842">
        <ele>1277.3</ele>
        <time>2021-01-08T10:48:44Z</time>
      </trkpt>
      <trkpt lat="46.04732" lon="6.78815">
        <ele>1268.8</ele>
        <time>2021-01-08T10:48:49Z</time>
      </trkpt>
      <trkpt lat="46.04719" lon="6.78797">
        <ele>1262.7</ele>
        <time>2021-01-08T10:48:53Z</time>
      </trkpt>
      <trkpt lat="46.04716" lon="6.78773">
        <ele>1255.5</ele>
        <time>2021-01-08T10:48:58Z</time>
      </trkpt>
      <trkpt lat="46.04709" lon="6.78755">
        <ele>1247.4</ele>
        <time>2021-01-08T10:49:02Z</time>
      </trkpt>
      <trkpt lat="46.04698" lon="6.78739">
        <ele>1242</ele>
        <time>2021-01-08T10:49:06Z</time>
      </trkpt>
      <trkpt lat="46.04689" lon="6.78733">
        <ele>1241.5</ele>
        <time>2021-01-08T10:49:10Z</time>
      </trkpt>
      <trkpt lat="46.04677" lon="6.78731">
        <ele>1238.2</ele>
        <time>2021-01-08T10:49:14Z</time>
      </trkpt>
      <trkpt lat="46.04671" lon="6.78713">
        <ele>1234.3</ele>
        <time>2021-01-08T10:49:19Z</time>
      </trkpt>
      <trkpt lat="46.04672" lon="6.78686">
        <ele>1230.1</ele>
        <time>2021-01-08T10:49:23Z</time>
      </trkpt>
      <trkpt lat="46.0467" lon="6.78665">
        <ele>1225.5</ele>
        <time>2021-01-08T10:49:28Z</time>
      </trkpt>
      <trkpt lat="46.04668" lon="6.78646">
        <ele>1221.6</ele>
        <time>2021-01-08T10:49:32Z</time>
      </trkpt>
      <trkpt lat="46.04664" lon="6.78628">
        <ele>1215.2</ele>
        <time>2021-01-08T10:49:37Z</time>
      </trkpt>
      <trkpt lat="46.04655" lon="6.78617">
        <ele>1213.6</ele>
        <time>2021-01-08T10:49:42Z</time>
      </trkpt>
      <trkpt lat="46.04672" lon="6.78605">
        <ele>1209.5</ele>
        <time>2021-01-08T10:49:47Z</time>
      </trkpt>
      <trkpt lat="46.04661" lon="6.78587">
        <ele>1204.3</ele>
        <time>2021-01-08T10:49:51Z</time>
      </trkpt>
      <trkpt lat="46.04664" lon="6.78563">
        <ele>1197.7</ele>
        <time>2021-01-08T10:49:56Z</time>
      </trkpt>
      <trkpt lat="46.04667" lon="6.7856">
        <ele>1196.3</ele>
        <time>2021-01-08T10:50:21Z</time>
      </trkpt>
      <trkpt lat="46.04663" lon="6.78544">
        <ele>1195.7</ele>
        <time>2021-01-08T10:50:25Z</time>
      </trkpt>
      <trkpt lat="46.04654" lon="6.78533">
        <ele>1194</ele>
        <time>2021-01-08T10:50:29Z</time>
      </trkpt>
      <trkpt lat="46.04652" lon="6.78527">
        <ele>1192.5</ele>
        <time>2021-01-08T10:50:33Z</time>
      </trkpt>
      <trkpt lat="46.04654" lon="6.78522">
        <ele>1191.5</ele>
        <time>2021-01-08T10:50:38Z</time>
      </trkpt>
      <trkpt lat="46.0466" lon="6.78511">
        <ele>1188.7</ele>
        <time>2021-01-08T10:50:43Z</time>
      </trkpt>
      <trkpt lat="46.04653" lon="6.78494">
        <ele>1185.4</ele>
        <time>2021-01-08T10:50:47Z</time>
      </trkpt>
      <trkpt lat="46.04657" lon="6.78489">
        <ele>1182.5</ele>
        <time>2021-01-08T10:50:51Z</time>
      </trkpt>
      <trkpt lat="46.0467" lon="6.78481">
        <ele>1177.7</ele>
        <time>2021-01-08T10:50:55Z</time>
      </trkpt>
      <trkpt lat="46.0468" lon="6.78464">
        <ele>1173.4</ele>
        <time>2021-01-08T10:50:59Z</time>
      </trkpt>
      <trkpt lat="46.04686" lon="6.78445">
        <ele>1168.5</ele>
        <time>2021-01-08T10:51:04Z</time>
      </trkpt>
      <trkpt lat="46.04699" lon="6.78436">
        <ele>1163.8</ele>
        <time>2021-01-08T10:51:09Z</time>
      </trkpt>
      <trkpt lat="46.04708" lon="6.78427">
        <ele>1158</ele>
        <time>2021-01-08T10:51:13Z</time>
      </trkpt>
      <trkpt lat="46.04706" lon="6.78404">
        <ele>1151.5</ele>
        <time>2021-01-08T10:51:18Z</time>
      </trkpt>
      <trkpt lat="46.04705" lon="6.78386">
        <ele>1146.3</ele>
        <time>2021-01-08T10:51:23Z</time>
      </trkpt>
      <trkpt lat="46.04705" lon="6.78386">
        <ele>1146.4</ele>
        <time>2021-01-08T10:51:29Z</time>
      </trkpt>
      <trkpt lat="46.04701" lon="6.78376">
        <ele>1145</ele>
        <time>2021-01-08T10:51:33Z</time>
      </trkpt>
      <trkpt lat="46.047" lon="6.78376">
        <ele>1144.7</ele>
        <time>2021-01-08T10:51:39Z</time>
      </trkpt>
      <trkpt lat="46.04717" lon="6.78392">
        <ele>1142.1</ele>
        <time>2021-01-08T10:51:43Z</time>
      </trkpt>
      <trkpt lat="46.04728" lon="6.78395">
        <ele>1140.1</ele>
        <time>2021-01-08T10:51:47Z</time>
      </trkpt>
      <trkpt lat="46.04737" lon="6.78382">
        <ele>1137.6</ele>
        <time>2021-01-08T10:51:52Z</time>
      </trkpt>
      <trkpt lat="46.04755" lon="6.78371">
        <ele>1135</ele>
        <time>2021-01-08T10:51:57Z</time>
      </trkpt>
      <trkpt lat="46.04758" lon="6.78367">
        <ele>1132.4</ele>
        <time>2021-01-08T10:52:16Z</time>
      </trkpt>
      <trkpt lat="46.04743" lon="6.78349">
        <ele>1130.5</ele>
        <time>2021-01-08T10:52:21Z</time>
      </trkpt>
      <trkpt lat="46.04735" lon="6.7832">
        <ele>1128.3</ele>
        <time>2021-01-08T10:52:26Z</time>
      </trkpt>
      <trkpt lat="46.04734" lon="6.78285">
        <ele>1125.3</ele>
        <time>2021-01-08T10:52:30Z</time>
      </trkpt>
      <trkpt lat="46.04731" lon="6.78243">
        <ele>1121.2</ele>
        <time>2021-01-08T10:52:35Z</time>
      </trkpt>
      <trkpt lat="46.04734" lon="6.78209">
        <ele>1117.8</ele>
        <time>2021-01-08T10:52:39Z</time>
      </trkpt>
      <trkpt lat="46.04737" lon="6.7819">
        <ele>1110.8</ele>
        <time>2021-01-08T10:52:44Z</time>
      </trkpt>
      <trkpt lat="46.04741" lon="6.78194">
        <ele>1108.1</ele>
        <time>2021-01-08T10:52:49Z</time>
      </trkpt>
      <trkpt lat="46.04741" lon="6.78194">
        <ele>1108.1</ele>
        <time>2021-01-08T10:52:59Z</time>
      </trkpt>
      <trkpt lat="46.04749" lon="6.78204">
        <ele>1108.1</ele>
        <time>2021-01-08T10:53:04Z</time>
      </trkpt>
      <trkpt lat="46.04749" lon="6.78204">
        <ele>1108.1</ele>
        <time>2021-01-08T10:53:34Z</time>
      </trkpt>
      <trkpt lat="46.0476" lon="6.78188">
        <ele>1107</ele>
        <time>2021-01-08T10:53:39Z</time>
      </trkpt>
      <trkpt lat="46.04778" lon="6.78178">
        <ele>1105.8</ele>
        <time>2021-01-08T10:53:43Z</time>
      </trkpt>
      <trkpt lat="46.04786" lon="6.78163">
        <ele>1103.8</ele>
        <time>2021-01-08T10:53:47Z</time>
      </trkpt>
      <trkpt lat="46.04782" lon="6.78137">
        <ele>1097.5</ele>
        <time>2021-01-08T10:53:52Z</time>
      </trkpt>
      <trkpt lat="46.04783" lon="6.78124">
        <ele>1092.4</ele>
        <time>2021-01-08T10:53:56Z</time>
      </trkpt>
      <trkpt lat="46.04792" lon="6.78104">
        <ele>1086.2</ele>
        <time>2021-01-08T10:54:01Z</time>
      </trkpt>
      <trkpt lat="46.04786" lon="6.78085">
        <ele>1079.7</ele>
        <time>2021-01-08T10:54:05Z</time>
      </trkpt>
      <trkpt lat="46.04768" lon="6.78066">
        <ele>1071</ele>
        <time>2021-01-08T10:54:10Z</time>
      </trkpt>
      <trkpt lat="46.04768" lon="6.7805">
        <ele>1062.5</ele>
        <time>2021-01-08T10:54:15Z</time>
      </trkpt>
      <trkpt lat="46.04767" lon="6.78039">
        <ele>1054.8</ele>
        <time>2021-01-08T10:54:19Z</time>
      </trkpt>
      <trkpt lat="46.04765" lon="6.78033">
        <ele>1050</ele>
        <time>2021-01-08T10:54:23Z</time>
      </trkpt>
      <trkpt lat="46.04774" lon="6.78031">
        <ele>1049.5</ele>
        <time>2021-01-08T10:54:27Z</time>
      </trkpt>
      <trkpt lat="46.04773" lon="6.78023">
        <ele>1049.4</ele>
        <time>2021-01-08T10:54:31Z</time>
      </trkpt>
      <trkpt lat="46.04774" lon="6.78016">
        <ele>1048.3</ele>
        <time>2021-01-08T10:54:35Z</time>
      </trkpt>
      <trkpt lat="46.04775" lon="6.78007">
        <ele>1046.6</ele>
        <time>2021-01-08T10:54:40Z</time>
      </trkpt>
      <trkpt lat="46.04776" lon="6.78">
        <ele>1044.8</ele>
        <time>2021-01-08T10:54:44Z</time>
      </trkpt>
      <trkpt lat="46.04778" lon="6.77987">
        <ele>1042</ele>
        <time>2021-01-08T10:54:49Z</time>
      </trkpt>
      <trkpt lat="46.04777" lon="6.77985">
        <ele>1041</ele>
        <time>2021-01-08T10:56:12Z</time>
      </trkpt>
      <trkpt lat="46.04769" lon="6.77979">
        <ele>1038.3</ele>
        <time>2021-01-08T10:56:16Z</time>
      </trkpt>
      <trkpt lat="46.04769" lon="6.77979">
        <ele>1038.3</ele>
        <time>2021-01-08T10:57:45Z</time>
      </trkpt>
      <trkpt lat="46.04769" lon="6.77979">
        <ele>1038.3</ele>
        <time>2021-01-08T10:57:46Z</time>
      </trkpt>
    </trkseg>
  </trk>
</gpx>